<?xml version="1.0" encoding="UTF-8"?><gpx xmlns="http://www.topografix.com/GPX/1/1"  creator="TraceDeTrail http://www.tracedetrail.fr" version="1.1" xmlns:xsi="http://www.w3.org/2001/XMLSchema-instance" xsi:schemaLocation="http://www.topografix.com/GPX/1/1 http://www.topografix.com/GPX/1/1/gpx.xsd "><metadata><name>Le 3 du Var  Parcours BAZEILLES  30 Km</name><link href="http://tracedetrail.fr/fr/trace/trace/204845"><text>methode de calcul : astergdem </text></link></metadata><trk><name>Le 3 du Var  Parcours BAZEILLES  30 Km sur TraceDeTrail.fr</name><trkseg><trkpt lat="43.73125" lon="6.62028"><ele>970</ele><time>2000-01-01T00:57:39.000Z</time></trkpt><trkpt lat="43.73116" lon="6.62054"><ele>968</ele><time>2000-01-01T00:57:49.000Z</time></trkpt><trkpt lat="43.73122" lon="6.6207"><time>2000-01-01T00:57:59.000Z</time></trkpt><trkpt lat="43.73119" lon="6.62093"><ele>967</ele><time>2000-01-01T00:58:09.000Z</time></trkpt><trkpt lat="43.73113" lon="6.62108"><time>2000-01-01T00:58:19.000Z</time></trkpt><trkpt lat="43.73091" lon="6.6208"><ele>967</ele><time>2000-01-01T00:58:29.000Z</time></trkpt><trkpt lat="43.7307" lon="6.62056"><ele>967</ele><time>2000-01-01T00:58:39.000Z</time></trkpt><trkpt lat="43.73065" lon="6.62058"><time>2000-01-01T00:58:49.000Z</time></trkpt><trkpt lat="43.73055" lon="6.62058"><time>2000-01-01T00:58:59.000Z</time></trkpt><trkpt lat="43.73048" lon="6.6205"><ele>962</ele><time>2000-01-01T00:59:09.000Z</time></trkpt><trkpt lat="43.73022" lon="6.62005"><ele>961</ele><time>2000-01-01T00:59:19.000Z</time></trkpt><trkpt lat="43.73014" lon="6.61995"><time>2000-01-01T00:59:29.000Z</time></trkpt><trkpt lat="43.73009" lon="6.61992"><time>2000-01-01T00:59:39.000Z</time></trkpt><trkpt lat="43.72998" lon="6.61992"><ele>956</ele><time>2000-01-01T00:59:49.000Z</time></trkpt><trkpt lat="43.72993" lon="6.61985"><time>2000-01-01T00:59:59.000Z</time></trkpt><trkpt lat="43.72975" lon="6.61934"><ele>956</ele><time>2000-01-01T01:00:09.000Z</time></trkpt><trkpt lat="43.72963" lon="6.61902"><ele>956</ele><time>2000-01-01T01:00:19.000Z</time></trkpt><trkpt lat="43.72948" lon="6.61862"><ele>952</ele><time>2000-01-01T01:00:29.000Z</time></trkpt><trkpt lat="43.72937" lon="6.61826"><ele>949</ele><time>2000-01-01T01:00:39.000Z</time></trkpt><trkpt lat="43.72925" lon="6.6179"><ele>947</ele><time>2000-01-01T01:00:49.000Z</time></trkpt><trkpt lat="43.72909" lon="6.61774"><ele>949</ele><time>2000-01-01T01:00:59.000Z</time></trkpt><trkpt lat="43.72899" lon="6.61768"><time>2000-01-01T01:01:09.000Z</time></trkpt><trkpt lat="43.72906" lon="6.61732"><ele>952</ele><time>2000-01-01T01:01:19.000Z</time></trkpt><trkpt lat="43.72915" lon="6.61693"><ele>952</ele><time>2000-01-01T01:01:29.000Z</time></trkpt><trkpt lat="43.72927" lon="6.61653"><ele>955</ele><time>2000-01-01T01:01:39.000Z</time></trkpt><trkpt lat="43.72942" lon="6.6162"><ele>959</ele><time>2000-01-01T01:01:49.000Z</time></trkpt><trkpt lat="43.72962" lon="6.61575"><ele>959</ele><time>2000-01-01T01:01:59.000Z</time></trkpt><trkpt lat="43.72983" lon="6.61534"><ele>956</ele><time>2000-01-01T01:02:09.000Z</time></trkpt><trkpt lat="43.72985" lon="6.61521"><time>2000-01-01T01:02:19.000Z</time></trkpt><trkpt lat="43.72989" lon="6.61479"><ele>956</ele><time>2000-01-01T01:02:29.000Z</time></trkpt><trkpt lat="43.72995" lon="6.61463"><time>2000-01-01T01:02:39.000Z</time></trkpt><trkpt lat="43.73013" lon="6.61436"><ele>957</ele><time>2000-01-01T01:02:49.000Z</time></trkpt><trkpt lat="43.73042" lon="6.61406"><ele>963</ele><time>2000-01-01T01:02:59.000Z</time></trkpt><trkpt lat="43.73053" lon="6.61399"><time>2000-01-01T01:03:09.000Z</time></trkpt><trkpt lat="43.73085" lon="6.61387"><ele>964</ele><time>2000-01-01T01:03:19.000Z</time></trkpt><trkpt lat="43.73117" lon="6.61364"><ele>969</ele><time>2000-01-01T01:03:29.000Z</time></trkpt><trkpt lat="43.73159" lon="6.61335"><ele>973</ele><time>2000-01-01T01:03:39.000Z</time></trkpt><trkpt lat="43.73173" lon="6.61331"><time>2000-01-01T01:03:49.000Z</time></trkpt><trkpt lat="43.73206" lon="6.61323"><ele>976</ele><time>2000-01-01T01:03:59.000Z</time></trkpt><trkpt lat="43.73219" lon="6.61312"><time>2000-01-01T01:04:09.000Z</time></trkpt><trkpt lat="43.73235" lon="6.61293"><ele>980</ele><time>2000-01-01T01:04:19.000Z</time></trkpt><trkpt lat="43.7325" lon="6.61273"><ele>980</ele><time>2000-01-01T01:04:29.000Z</time></trkpt><trkpt lat="43.7326" lon="6.61245"><ele>981</ele><time>2000-01-01T01:04:39.000Z</time></trkpt><trkpt lat="43.73271" lon="6.61244"><time>2000-01-01T01:04:49.000Z</time></trkpt><trkpt lat="43.73274" lon="6.61252"><time>2000-01-01T01:04:59.000Z</time></trkpt><trkpt lat="43.73267" lon="6.61285"><ele>984</ele><time>2000-01-01T01:05:09.000Z</time></trkpt><trkpt lat="43.73265" lon="6.61297"><time>2000-01-01T01:05:19.000Z</time></trkpt><trkpt lat="43.73268" lon="6.61309"><time>2000-01-01T01:05:29.000Z</time></trkpt><trkpt lat="43.73303" lon="6.6135"><ele>991</ele><time>2000-01-01T01:05:39.000Z</time></trkpt><trkpt lat="43.73315" lon="6.61356"><time>2000-01-01T01:05:49.000Z</time></trkpt><trkpt lat="43.73329" lon="6.61352"><ele>992</ele><time>2000-01-01T01:05:59.000Z</time></trkpt><trkpt lat="43.73341" lon="6.61344"><time>2000-01-01T01:06:09.000Z</time></trkpt><trkpt lat="43.73375" lon="6.61314"><ele>1003</ele><time>2000-01-01T01:06:19.000Z</time></trkpt><trkpt lat="43.73408" lon="6.61293"><ele>1011</ele><time>2000-01-01T01:06:29.000Z</time></trkpt><trkpt lat="43.73418" lon="6.61289"><time>2000-01-01T01:06:39.000Z</time></trkpt><trkpt lat="43.73456" lon="6.61291"><ele>1010</ele><time>2000-01-01T01:06:49.000Z</time></trkpt><trkpt lat="43.73485" lon="6.61294"><ele>1010</ele><time>2000-01-01T01:06:59.000Z</time></trkpt><trkpt lat="43.73492" lon="6.61296"><time>2000-01-01T01:07:09.000Z</time></trkpt><trkpt lat="43.73508" lon="6.61309"><ele>1014</ele><time>2000-01-01T01:07:19.000Z</time></trkpt><trkpt lat="43.73518" lon="6.61309"><time>2000-01-01T01:07:29.000Z</time></trkpt><trkpt lat="43.73533" lon="6.61304"><ele>1019</ele><time>2000-01-01T01:07:39.000Z</time></trkpt><trkpt lat="43.73544" lon="6.61303"><time>2000-01-01T01:07:49.000Z</time></trkpt><trkpt lat="43.7359" lon="6.61305"><ele>1027</ele><time>2000-01-01T01:07:59.000Z</time></trkpt><trkpt lat="43.73599" lon="6.61303"><time>2000-01-01T01:08:09.000Z</time></trkpt><trkpt lat="43.73607" lon="6.61287"><ele>1027</ele><time>2000-01-01T01:08:19.000Z</time></trkpt><trkpt lat="43.73614" lon="6.61275"><time>2000-01-01T01:08:29.000Z</time></trkpt><trkpt lat="43.73626" lon="6.6126"><ele>1028</ele><time>2000-01-01T01:08:39.000Z</time></trkpt><trkpt lat="43.7366" lon="6.61235"><ele>1032</ele><time>2000-01-01T01:08:49.000Z</time></trkpt><trkpt lat="43.73667" lon="6.61222"><time>2000-01-01T01:08:59.000Z</time></trkpt><trkpt lat="43.73677" lon="6.61207"><ele>1040</ele><time>2000-01-01T01:09:09.000Z</time></trkpt><trkpt lat="43.73684" lon="6.61192"><time>2000-01-01T01:09:19.000Z</time></trkpt><trkpt lat="43.7369" lon="6.61181"><ele>1047</ele><time>2000-01-01T01:09:29.000Z</time></trkpt><trkpt lat="43.73697" lon="6.61179"><time>2000-01-01T01:09:39.000Z</time></trkpt><trkpt lat="43.73701" lon="6.61184"><time>2000-01-01T01:09:49.000Z</time></trkpt><trkpt lat="43.737" lon="6.61193"><time>2000-01-01T01:09:59.000Z</time></trkpt><trkpt lat="43.73698" lon="6.61207"><ele>1047</ele><time>2000-01-01T01:10:09.000Z</time></trkpt><trkpt lat="43.73707" lon="6.61208"><time>2000-01-01T01:10:19.000Z</time></trkpt><trkpt lat="43.73716" lon="6.6121"><time>2000-01-01T01:10:29.000Z</time></trkpt><trkpt lat="43.7372" lon="6.61208"><ele>1055</ele><time>2000-01-01T01:10:39.000Z</time></trkpt><trkpt lat="43.73723" lon="6.61203"><time>2000-01-01T01:10:49.000Z</time></trkpt><trkpt lat="43.73727" lon="6.6119"><time>2000-01-01T01:10:59.000Z</time></trkpt><trkpt lat="43.7373" lon="6.61171"><ele>1055</ele><time>2000-01-01T01:11:09.000Z</time></trkpt><trkpt lat="43.73731" lon="6.61161"><time>2000-01-01T01:11:19.000Z</time></trkpt><trkpt lat="43.73733" lon="6.61155"><time>2000-01-01T01:11:29.000Z</time></trkpt><trkpt lat="43.7374" lon="6.61138"><ele>1055</ele><time>2000-01-01T01:11:39.000Z</time></trkpt><trkpt lat="43.73742" lon="6.61137"><time>2000-01-01T01:11:49.000Z</time></trkpt><trkpt lat="43.73747" lon="6.61144"><time>2000-01-01T01:11:59.000Z</time></trkpt><trkpt lat="43.7375" lon="6.61143"><time>2000-01-01T01:12:09.000Z</time></trkpt><trkpt lat="43.73755" lon="6.61135"><ele>1065</ele><time>2000-01-01T01:12:19.000Z</time></trkpt><trkpt lat="43.73759" lon="6.61126"><time>2000-01-01T01:12:29.000Z</time></trkpt><trkpt lat="43.73766" lon="6.61114"><time>2000-01-01T01:12:39.000Z</time></trkpt><trkpt lat="43.73772" lon="6.61103"><ele>1079</ele><time>2000-01-01T01:12:49.000Z</time></trkpt><trkpt lat="43.73775" lon="6.61097"><time>2000-01-01T01:12:59.000Z</time></trkpt><trkpt lat="43.73774" lon="6.61074"><ele>1080</ele><time>2000-01-01T01:13:09.000Z</time></trkpt><trkpt lat="43.73773" lon="6.61055"><time>2000-01-01T01:13:19.000Z</time></trkpt><trkpt lat="43.73774" lon="6.61047"><time>2000-01-01T01:13:29.000Z</time></trkpt><trkpt lat="43.73777" lon="6.61041"><ele>1082</ele><time>2000-01-01T01:13:39.000Z</time></trkpt><trkpt lat="43.73776" lon="6.61027"><time>2000-01-01T01:13:49.000Z</time></trkpt><trkpt lat="43.73777" lon="6.61022"><time>2000-01-01T01:13:59.000Z</time></trkpt><trkpt lat="43.7378" lon="6.61015"><ele>1082</ele><time>2000-01-01T01:14:09.000Z</time></trkpt><trkpt lat="43.73781" lon="6.61009"><time>2000-01-01T01:14:19.000Z</time></trkpt><trkpt lat="43.73786" lon="6.60995"><time>2000-01-01T01:14:29.000Z</time></trkpt><trkpt lat="43.73791" lon="6.6099"><ele>1082</ele><time>2000-01-01T01:14:39.000Z</time></trkpt><trkpt lat="43.73792" lon="6.60982"><time>2000-01-01T01:14:49.000Z</time></trkpt><trkpt lat="43.73793" lon="6.60974"><time>2000-01-01T01:14:59.000Z</time></trkpt><trkpt lat="43.73797" lon="6.60961"><ele>1090</ele><time>2000-01-01T01:15:09.000Z</time></trkpt><trkpt lat="43.738" lon="6.60949"><time>2000-01-01T01:15:19.000Z</time></trkpt><trkpt lat="43.73804" lon="6.60933"><ele>1098</ele><time>2000-01-01T01:15:29.000Z</time></trkpt><trkpt lat="43.73806" lon="6.60918"><time>2000-01-01T01:15:39.000Z</time></trkpt><trkpt lat="43.73807" lon="6.60909"><time>2000-01-01T01:15:49.000Z</time></trkpt><trkpt lat="43.73813" lon="6.60893"><ele>1098</ele><time>2000-01-01T01:15:59.000Z</time></trkpt><trkpt lat="43.73814" lon="6.60869"><time>2000-01-01T01:16:09.000Z</time></trkpt><trkpt lat="43.73821" lon="6.60853"><ele>1104</ele><time>2000-01-01T01:16:19.000Z</time></trkpt><trkpt lat="43.73826" lon="6.60836"><time>2000-01-01T01:16:29.000Z</time></trkpt><trkpt lat="43.73831" lon="6.60827"><ele>1110</ele><time>2000-01-01T01:16:39.000Z</time></trkpt><trkpt lat="43.73835" lon="6.60828"><time>2000-01-01T01:16:49.000Z</time></trkpt><trkpt lat="43.73842" lon="6.60847"><time>2000-01-01T01:16:59.000Z</time></trkpt><trkpt lat="43.7385" lon="6.60825"><ele>1130</ele><time>2000-01-01T01:17:09.000Z</time></trkpt><trkpt lat="43.73854" lon="6.60816"><time>2000-01-01T01:17:19.000Z</time></trkpt><trkpt lat="43.7386" lon="6.60837"><ele>1130</ele><time>2000-01-01T01:17:29.000Z</time></trkpt><trkpt lat="43.73865" lon="6.60831"><time>2000-01-01T01:17:39.000Z</time></trkpt><trkpt lat="43.7387" lon="6.6082"><time>2000-01-01T01:17:49.000Z</time></trkpt><trkpt lat="43.73893" lon="6.60789"><ele>1151</ele><time>2000-01-01T01:17:59.000Z</time></trkpt><trkpt lat="43.73895" lon="6.60798"><time>2000-01-01T01:18:09.000Z</time></trkpt><trkpt lat="43.73893" lon="6.60823"><ele>1156</ele><time>2000-01-01T01:18:19.000Z</time></trkpt><trkpt lat="43.73894" lon="6.60837"><time>2000-01-01T01:18:29.000Z</time></trkpt><trkpt lat="43.73894" lon="6.60849"><time>2000-01-01T01:18:39.000Z</time></trkpt><trkpt lat="43.73894" lon="6.60861"><ele>1159</ele><time>2000-01-01T01:18:49.000Z</time></trkpt><trkpt lat="43.73899" lon="6.60885"><time>2000-01-01T01:18:59.000Z</time></trkpt><trkpt lat="43.73901" lon="6.60896"><ele>1163</ele><time>2000-01-01T01:19:09.000Z</time></trkpt><trkpt lat="43.73902" lon="6.609"><time>2000-01-01T01:19:19.000Z</time></trkpt><trkpt lat="43.73904" lon="6.60913"><time>2000-01-01T01:19:29.000Z</time></trkpt><trkpt lat="43.73907" lon="6.60909"><time>2000-01-01T01:19:39.000Z</time></trkpt><trkpt lat="43.7391" lon="6.60901"><ele>1175</ele><time>2000-01-01T01:19:49.000Z</time></trkpt><trkpt lat="43.73913" lon="6.60895"><time>2000-01-01T01:19:59.000Z</time></trkpt><trkpt lat="43.73914" lon="6.60893"><time>2000-01-01T01:20:09.000Z</time></trkpt><trkpt lat="43.73918" lon="6.60904"><time>2000-01-01T01:20:19.000Z</time></trkpt><trkpt lat="43.7392" lon="6.60905"><time>2000-01-01T01:20:29.000Z</time></trkpt><trkpt lat="43.73924" lon="6.60895"><ele>1175</ele><time>2000-01-01T01:20:39.000Z</time></trkpt><trkpt lat="43.73927" lon="6.60893"><time>2000-01-01T01:20:49.000Z</time></trkpt><trkpt lat="43.7393" lon="6.60898"><time>2000-01-01T01:20:59.000Z</time></trkpt><trkpt lat="43.73932" lon="6.60908"><time>2000-01-01T01:21:09.000Z</time></trkpt><trkpt lat="43.73934" lon="6.6091"><time>2000-01-01T01:21:19.000Z</time></trkpt><trkpt lat="43.73941" lon="6.60899"><ele>1178</ele><time>2000-01-01T01:21:29.000Z</time></trkpt><trkpt lat="43.73949" lon="6.60886"><time>2000-01-01T01:21:39.000Z</time></trkpt><trkpt lat="43.73955" lon="6.60878"><ele>1182</ele><time>2000-01-01T01:21:49.000Z</time></trkpt><trkpt lat="43.73966" lon="6.60861"><time>2000-01-01T01:21:59.000Z</time></trkpt><trkpt lat="43.73969" lon="6.60862"><ele>1202</ele><time>2000-01-01T01:22:09.000Z</time></trkpt><trkpt lat="43.73973" lon="6.60868"><time>2000-01-01T01:22:19.000Z</time></trkpt><trkpt lat="43.73974" lon="6.60879"><time>2000-01-01T01:22:29.000Z</time></trkpt><trkpt lat="43.73976" lon="6.60881"><time>2000-01-01T01:22:39.000Z</time></trkpt><trkpt lat="43.73977" lon="6.60878"><time>2000-01-01T01:22:49.000Z</time></trkpt><trkpt lat="43.73978" lon="6.60872"><ele>1202</ele><time>2000-01-01T01:22:59.000Z</time></trkpt><trkpt lat="43.73988" lon="6.60852"><time>2000-01-01T01:23:09.000Z</time></trkpt><trkpt lat="43.73994" lon="6.60843"><ele>1212</ele><time>2000-01-01T01:23:19.000Z</time></trkpt><trkpt lat="43.73997" lon="6.60842"><time>2000-01-01T01:23:29.000Z</time></trkpt><trkpt lat="43.73998" lon="6.60848"><time>2000-01-01T01:23:39.000Z</time></trkpt><trkpt lat="43.74015" lon="6.60832"><ele>1212</ele><time>2000-01-01T01:23:49.000Z</time></trkpt><trkpt lat="43.74033" lon="6.60814"><ele>1216</ele><time>2000-01-01T01:23:59.000Z</time></trkpt><trkpt lat="43.74043" lon="6.60803"><time>2000-01-01T01:24:09.000Z</time></trkpt><trkpt lat="43.74048" lon="6.60789"><ele>1221</ele><time>2000-01-01T01:24:19.000Z</time></trkpt><trkpt lat="43.74053" lon="6.60784"><time>2000-01-01T01:24:29.000Z</time></trkpt><trkpt lat="43.74057" lon="6.60801"><ele>1237</ele><time>2000-01-01T01:24:39.000Z</time></trkpt><trkpt lat="43.74057" lon="6.60821"><time>2000-01-01T01:24:49.000Z</time></trkpt><trkpt lat="43.74069" lon="6.60808"><ele>1237</ele><time>2000-01-01T01:24:59.000Z</time></trkpt><trkpt lat="43.74068" lon="6.60823"><time>2000-01-01T01:25:09.000Z</time></trkpt><trkpt lat="43.74085" lon="6.60809"><ele>1254</ele><time>2000-01-01T01:25:19.000Z</time></trkpt><trkpt lat="43.74091" lon="6.60798"><time>2000-01-01T01:25:29.000Z</time></trkpt><trkpt lat="43.741" lon="6.60771"><ele>1272</ele><time>2000-01-01T01:25:39.000Z</time></trkpt><trkpt lat="43.74106" lon="6.6075"><time>2000-01-01T01:25:49.000Z</time></trkpt><trkpt lat="43.74107" lon="6.60738"><ele>1273</ele><time>2000-01-01T01:25:59.000Z</time></trkpt><trkpt lat="43.74118" lon="6.60751"><time>2000-01-01T01:26:09.000Z</time></trkpt><trkpt lat="43.7412" lon="6.60761"><ele>1275</ele><time>2000-01-01T01:26:19.000Z</time></trkpt><trkpt lat="43.74137" lon="6.60792"><ele>1289</ele><time>2000-01-01T01:26:29.000Z</time></trkpt><trkpt lat="43.74139" lon="6.60773"><time>2000-01-01T01:26:39.000Z</time></trkpt><trkpt lat="43.74143" lon="6.60778"><time>2000-01-01T01:26:49.000Z</time></trkpt><trkpt lat="43.74151" lon="6.60799"><ele>1289</ele><time>2000-01-01T01:26:59.000Z</time></trkpt><trkpt lat="43.74158" lon="6.60829"><ele>1298</ele><time>2000-01-01T01:27:09.000Z</time></trkpt><trkpt lat="43.74168" lon="6.60797"><ele>1307</ele><time>2000-01-01T01:27:19.000Z</time></trkpt><trkpt lat="43.74179" lon="6.60762"><ele>1309</ele><time>2000-01-01T01:27:29.000Z</time></trkpt><trkpt lat="43.74182" lon="6.60769"><time>2000-01-01T01:27:39.000Z</time></trkpt><trkpt lat="43.74188" lon="6.60742"><ele>1309</ele><time>2000-01-01T01:27:49.000Z</time></trkpt><trkpt lat="43.74191" lon="6.60729"><time>2000-01-01T01:27:59.000Z</time></trkpt><trkpt lat="43.74195" lon="6.60729"><time>2000-01-01T01:28:09.000Z</time></trkpt><trkpt lat="43.74203" lon="6.60765"><ele>1327</ele><time>2000-01-01T01:28:19.000Z</time></trkpt><trkpt lat="43.74207" lon="6.6076"><time>2000-01-01T01:28:29.000Z</time></trkpt><trkpt lat="43.74211" lon="6.60768"><time>2000-01-01T01:28:39.000Z</time></trkpt><trkpt lat="43.74214" lon="6.60763"><time>2000-01-01T01:28:49.000Z</time></trkpt><trkpt lat="43.74219" lon="6.6074"><ele>1345</ele><time>2000-01-01T01:28:59.000Z</time></trkpt><trkpt lat="43.74223" lon="6.6073"><time>2000-01-01T01:29:09.000Z</time></trkpt><trkpt lat="43.74223" lon="6.60717"><time>2000-01-01T01:29:19.000Z</time></trkpt><trkpt lat="43.74222" lon="6.60707"><ele>1348</ele><time>2000-01-01T01:29:29.000Z</time></trkpt><trkpt lat="43.74225" lon="6.60677"><ele>1348</ele><time>2000-01-01T01:29:39.000Z</time></trkpt><trkpt lat="43.74228" lon="6.60653"><time>2000-01-01T01:29:49.000Z</time></trkpt><trkpt lat="43.74228" lon="6.60629"><ele>1348</ele><time>2000-01-01T01:29:59.000Z</time></trkpt><trkpt lat="43.74228" lon="6.6061"><time>2000-01-01T01:30:09.000Z</time></trkpt><trkpt lat="43.7423" lon="6.60605"><time>2000-01-01T01:30:19.000Z</time></trkpt><trkpt lat="43.74238" lon="6.60624"><ele>1348</ele><time>2000-01-01T01:30:29.000Z</time></trkpt><trkpt lat="43.74243" lon="6.60606"><time>2000-01-01T01:30:39.000Z</time></trkpt><trkpt lat="43.74251" lon="6.60578"><ele>1353</ele><time>2000-01-01T01:30:49.000Z</time></trkpt><trkpt lat="43.74263" lon="6.60545"><ele>1359</ele><time>2000-01-01T01:30:59.000Z</time></trkpt><trkpt lat="43.74275" lon="6.60514"><ele>1371</ele><time>2000-01-01T01:31:09.000Z</time></trkpt><trkpt lat="43.74281" lon="6.60502"><time>2000-01-01T01:31:19.000Z</time></trkpt><trkpt lat="43.74282" lon="6.60499"><time>2000-01-01T01:31:29.000Z</time></trkpt><trkpt lat="43.74284" lon="6.60501"><time>2000-01-01T01:31:39.000Z</time></trkpt><trkpt lat="43.74284" lon="6.60528"><ele>1371</ele><time>2000-01-01T01:31:49.000Z</time></trkpt><trkpt lat="43.74287" lon="6.60534"><time>2000-01-01T01:31:59.000Z</time></trkpt><trkpt lat="43.74297" lon="6.60509"><ele>1371</ele><time>2000-01-01T01:32:09.000Z</time></trkpt><trkpt lat="43.743" lon="6.60516"><time>2000-01-01T01:32:19.000Z</time></trkpt><trkpt lat="43.74305" lon="6.60508"><time>2000-01-01T01:32:29.000Z</time></trkpt><trkpt lat="43.74319" lon="6.60489"><ele>1388</ele><time>2000-01-01T01:32:39.000Z</time></trkpt><trkpt lat="43.74328" lon="6.60484"><time>2000-01-01T01:32:49.000Z</time></trkpt><trkpt lat="43.7436" lon="6.60465"><ele>1407</ele><time>2000-01-01T01:32:59.000Z</time></trkpt><trkpt lat="43.74387" lon="6.60452"><ele>1417</ele><time>2000-01-01T01:33:09.000Z</time></trkpt><trkpt lat="43.74405" lon="6.60432"><ele>1420</ele><time>2000-01-01T01:33:19.000Z</time></trkpt><trkpt lat="43.74436" lon="6.6042"><ele>1424</ele><time>2000-01-01T01:33:29.000Z</time></trkpt><trkpt lat="43.7447" lon="6.60405"><ele>1451</ele><time>2000-01-01T01:33:39.000Z</time></trkpt><trkpt lat="43.745" lon="6.60385"><ele>1455</ele><time>2000-01-01T01:33:49.000Z</time></trkpt><trkpt lat="43.74528" lon="6.60339"><ele>1455</ele><time>2000-01-01T01:33:59.000Z</time></trkpt><trkpt lat="43.74531" lon="6.60286"><ele>1460</ele><time>2000-01-01T01:34:09.000Z</time></trkpt><trkpt lat="43.74529" lon="6.60225"><ele>1463</ele><time>2000-01-01T01:34:19.000Z</time></trkpt><trkpt lat="43.74527" lon="6.60205"><time>2000-01-01T01:34:29.000Z</time></trkpt><trkpt lat="43.74511" lon="6.60154"><ele>1463</ele><time>2000-01-01T01:34:39.000Z</time></trkpt><trkpt lat="43.74502" lon="6.60106"><ele>1463</ele><time>2000-01-01T01:34:49.000Z</time></trkpt><trkpt lat="43.74496" lon="6.60053"><ele>1461</ele><time>2000-01-01T01:34:59.000Z</time></trkpt><trkpt lat="43.74497" lon="6.60025"><ele>1459</ele><time>2000-01-01T01:35:09.000Z</time></trkpt><trkpt lat="43.74502" lon="6.59975"><ele>1459</ele><time>2000-01-01T01:35:19.000Z</time></trkpt><trkpt lat="43.74494" lon="6.59936"><ele>1459</ele><time>2000-01-01T01:35:29.000Z</time></trkpt><trkpt lat="43.74482" lon="6.59876"><ele>1458</ele><time>2000-01-01T01:35:39.000Z</time></trkpt><trkpt lat="43.74473" lon="6.59842"><ele>1456</ele><time>2000-01-01T01:35:49.000Z</time></trkpt><trkpt lat="43.74462" lon="6.59801"><ele>1454</ele><time>2000-01-01T01:35:59.000Z</time></trkpt><trkpt lat="43.74448" lon="6.5975"><ele>1446</ele><time>2000-01-01T01:36:09.000Z</time></trkpt><trkpt lat="43.7445" lon="6.59719"><ele>1445</ele><time>2000-01-01T01:36:19.000Z</time></trkpt><trkpt lat="43.74442" lon="6.59682"><ele>1445</ele><time>2000-01-01T01:36:29.000Z</time></trkpt><trkpt lat="43.74429" lon="6.59629"><ele>1437</ele><time>2000-01-01T01:36:39.000Z</time></trkpt><trkpt lat="43.74424" lon="6.59593"><ele>1437</ele><time>2000-01-01T01:36:49.000Z</time></trkpt><trkpt lat="43.74418" lon="6.59566"><ele>1437</ele><time>2000-01-01T01:36:59.000Z</time></trkpt><trkpt lat="43.7441" lon="6.59515"><ele>1445</ele><time>2000-01-01T01:37:09.000Z</time></trkpt><trkpt lat="43.74404" lon="6.59485"><ele>1444</ele><time>2000-01-01T01:37:19.000Z</time></trkpt><trkpt lat="43.74397" lon="6.59455"><ele>1444</ele><time>2000-01-01T01:37:29.000Z</time></trkpt><trkpt lat="43.74392" lon="6.59429"><ele>1442</ele><time>2000-01-01T01:37:39.000Z</time></trkpt><trkpt lat="43.74388" lon="6.59394"><ele>1440</ele><time>2000-01-01T01:37:49.000Z</time></trkpt><trkpt lat="43.74384" lon="6.59356"><ele>1438</ele><time>2000-01-01T01:37:59.000Z</time></trkpt><trkpt lat="43.74382" lon="6.59316"><ele>1434</ele><time>2000-01-01T01:38:09.000Z</time></trkpt><trkpt lat="43.74378" lon="6.59259"><ele>1432</ele><time>2000-01-01T01:38:19.000Z</time></trkpt><trkpt lat="43.74378" lon="6.59226"><ele>1432</ele><time>2000-01-01T01:38:29.000Z</time></trkpt><trkpt lat="43.74377" lon="6.59198"><ele>1431</ele><time>2000-01-01T01:38:39.000Z</time></trkpt><trkpt lat="43.74377" lon="6.59169"><ele>1430</ele><time>2000-01-01T01:38:49.000Z</time></trkpt><trkpt lat="43.74374" lon="6.59136"><ele>1426</ele><time>2000-01-01T01:38:59.000Z</time></trkpt><trkpt lat="43.74371" lon="6.59109"><ele>1421</ele><time>2000-01-01T01:39:09.000Z</time></trkpt><trkpt lat="43.74368" lon="6.59092"><time>2000-01-01T01:39:19.000Z</time></trkpt><trkpt lat="43.74363" lon="6.59074"><ele>1418</ele><time>2000-01-01T01:39:29.000Z</time></trkpt><trkpt lat="43.74358" lon="6.59057"><time>2000-01-01T01:39:39.000Z</time></trkpt><trkpt lat="43.74354" lon="6.59039"><ele>1415</ele><time>2000-01-01T01:39:49.000Z</time></trkpt><trkpt lat="43.74352" lon="6.59032"><time>2000-01-01T01:39:59.000Z</time></trkpt><trkpt lat="43.74349" lon="6.59013"><ele>1416</ele><time>2000-01-01T01:40:09.000Z</time></trkpt><trkpt lat="43.74346" lon="6.58995"><time>2000-01-01T01:40:19.000Z</time></trkpt><trkpt lat="43.74344" lon="6.58983"><ele>1415</ele><time>2000-01-01T01:40:29.000Z</time></trkpt><trkpt lat="43.74339" lon="6.58968"><time>2000-01-01T01:40:39.000Z</time></trkpt><trkpt lat="43.74335" lon="6.58955"><ele>1414</ele><time>2000-01-01T01:40:49.000Z</time></trkpt><trkpt lat="43.74331" lon="6.58941"><time>2000-01-01T01:40:59.000Z</time></trkpt><trkpt lat="43.74328" lon="6.58928"><ele>1411</ele><time>2000-01-01T01:41:09.000Z</time></trkpt><trkpt lat="43.74315" lon="6.58913"><time>2000-01-01T01:41:19.000Z</time></trkpt><trkpt lat="43.74304" lon="6.58907"><ele>1396</ele><time>2000-01-01T01:41:29.000Z</time></trkpt><trkpt lat="43.74295" lon="6.58897"><time>2000-01-01T01:41:39.000Z</time></trkpt><trkpt lat="43.74289" lon="6.5889"><time>2000-01-01T01:41:49.000Z</time></trkpt><trkpt lat="43.74283" lon="6.58878"><ele>1390</ele><time>2000-01-01T01:41:59.000Z</time></trkpt><trkpt lat="43.74279" lon="6.58862"><time>2000-01-01T01:42:09.000Z</time></trkpt><trkpt lat="43.74276" lon="6.5884"><ele>1382</ele><time>2000-01-01T01:42:19.000Z</time></trkpt><trkpt lat="43.74279" lon="6.58809"><ele>1377</ele><time>2000-01-01T01:42:29.000Z</time></trkpt><trkpt lat="43.74282" lon="6.58788"><time>2000-01-01T01:42:39.000Z</time></trkpt><trkpt lat="43.74282" lon="6.5876"><ele>1367</ele><time>2000-01-01T01:42:49.000Z</time></trkpt><trkpt lat="43.74283" lon="6.58749"><time>2000-01-01T01:42:59.000Z</time></trkpt><trkpt lat="43.74287" lon="6.58729"><ele>1362</ele><time>2000-01-01T01:43:09.000Z</time></trkpt><trkpt lat="43.74286" lon="6.58703"><time>2000-01-01T01:43:19.000Z</time></trkpt><trkpt lat="43.74291" lon="6.58682"><ele>1353</ele><time>2000-01-01T01:43:29.000Z</time></trkpt><trkpt lat="43.74293" lon="6.58669"><time>2000-01-01T01:43:39.000Z</time></trkpt><trkpt lat="43.74294" lon="6.58635"><ele>1351</ele><time>2000-01-01T01:43:49.000Z</time></trkpt><trkpt lat="43.74294" lon="6.58618"><time>2000-01-01T01:43:59.000Z</time></trkpt><trkpt lat="43.74288" lon="6.58606"><ele>1348</ele><time>2000-01-01T01:44:09.000Z</time></trkpt><trkpt lat="43.74282" lon="6.58593"><time>2000-01-01T01:44:19.000Z</time></trkpt><trkpt lat="43.74274" lon="6.58582"><ele>1347</ele><time>2000-01-01T01:44:29.000Z</time></trkpt><trkpt lat="43.7427" lon="6.58569"><time>2000-01-01T01:44:39.000Z</time></trkpt><trkpt lat="43.74269" lon="6.58562"><time>2000-01-01T01:44:49.000Z</time></trkpt><trkpt lat="43.74268" lon="6.58548"><ele>1350</ele><time>2000-01-01T01:44:59.000Z</time></trkpt><trkpt lat="43.74267" lon="6.5854"><time>2000-01-01T01:45:09.000Z</time></trkpt><trkpt lat="43.74268" lon="6.58525"><time>2000-01-01T01:45:19.000Z</time></trkpt><trkpt lat="43.74262" lon="6.58512"><ele>1354</ele><time>2000-01-01T01:45:29.000Z</time></trkpt><trkpt lat="43.7426" lon="6.58508"><time>2000-01-01T01:45:39.000Z</time></trkpt><trkpt lat="43.74251" lon="6.58504"><time>2000-01-01T01:45:49.000Z</time></trkpt><trkpt lat="43.74237" lon="6.58504"><ele>1354</ele><time>2000-01-01T01:45:59.000Z</time></trkpt><trkpt lat="43.74233" lon="6.58505"><time>2000-01-01T01:46:09.000Z</time></trkpt><trkpt lat="43.74211" lon="6.58519"><ele>1354</ele><time>2000-01-01T01:46:19.000Z</time></trkpt><trkpt lat="43.74188" lon="6.58535"><ele>1335</ele><time>2000-01-01T01:46:29.000Z</time></trkpt><trkpt lat="43.74176" lon="6.58545"><time>2000-01-01T01:46:39.000Z</time></trkpt><trkpt lat="43.74163" lon="6.58551"><ele>1332</ele><time>2000-01-01T01:46:49.000Z</time></trkpt><trkpt lat="43.74152" lon="6.58556"><time>2000-01-01T01:46:59.000Z</time></trkpt><trkpt lat="43.74142" lon="6.58565"><ele>1325</ele><time>2000-01-01T01:47:09.000Z</time></trkpt><trkpt lat="43.74125" lon="6.58571"><time>2000-01-01T01:47:19.000Z</time></trkpt><trkpt lat="43.74116" lon="6.58584"><ele>1316</ele><time>2000-01-01T01:47:29.000Z</time></trkpt><trkpt lat="43.74118" lon="6.58619"><ele>1311</ele><time>2000-01-01T01:47:39.000Z</time></trkpt><trkpt lat="43.74113" lon="6.58627"><time>2000-01-01T01:47:49.000Z</time></trkpt><trkpt lat="43.74106" lon="6.58636"><time>2000-01-01T01:47:59.000Z</time></trkpt><trkpt lat="43.74098" lon="6.58636"><ele>1299</ele><time>2000-01-01T01:48:09.000Z</time></trkpt><trkpt lat="43.7409" lon="6.58637"><time>2000-01-01T01:48:19.000Z</time></trkpt><trkpt lat="43.74086" lon="6.58641"><time>2000-01-01T01:48:29.000Z</time></trkpt><trkpt lat="43.74088" lon="6.58658"><ele>1299</ele><time>2000-01-01T01:48:39.000Z</time></trkpt><trkpt lat="43.7409" lon="6.58672"><time>2000-01-01T01:48:49.000Z</time></trkpt><trkpt lat="43.74094" lon="6.58686"><ele>1296</ele><time>2000-01-01T01:48:59.000Z</time></trkpt><trkpt lat="43.74091" lon="6.58695"><time>2000-01-01T01:49:09.000Z</time></trkpt><trkpt lat="43.74087" lon="6.58698"><time>2000-01-01T01:49:19.000Z</time></trkpt><trkpt lat="43.74076" lon="6.58696"><ele>1295</ele><time>2000-01-01T01:49:29.000Z</time></trkpt><trkpt lat="43.74064" lon="6.58693"><time>2000-01-01T01:49:39.000Z</time></trkpt><trkpt lat="43.74051" lon="6.58686"><ele>1294</ele><time>2000-01-01T01:49:49.000Z</time></trkpt><trkpt lat="43.74041" lon="6.58683"><time>2000-01-01T01:49:59.000Z</time></trkpt><trkpt lat="43.74031" lon="6.58681"><ele>1289</ele><time>2000-01-01T01:50:09.000Z</time></trkpt><trkpt lat="43.74022" lon="6.58683"><time>2000-01-01T01:50:19.000Z</time></trkpt><trkpt lat="43.74015" lon="6.5869"><time>2000-01-01T01:50:29.000Z</time></trkpt><trkpt lat="43.74014" lon="6.5871"><ele>1279</ele><time>2000-01-01T01:50:39.000Z</time></trkpt><trkpt lat="43.74014" lon="6.58726"><time>2000-01-01T01:50:49.000Z</time></trkpt><trkpt lat="43.74015" lon="6.5874"><ele>1279</ele><time>2000-01-01T01:50:59.000Z</time></trkpt><trkpt lat="43.74006" lon="6.58752"><time>2000-01-01T01:51:09.000Z</time></trkpt><trkpt lat="43.74001" lon="6.58758"><time>2000-01-01T01:51:19.000Z</time></trkpt><trkpt lat="43.73983" lon="6.58758"><ele>1268</ele><time>2000-01-01T01:51:29.000Z</time></trkpt><trkpt lat="43.73968" lon="6.58758"><time>2000-01-01T01:51:39.000Z</time></trkpt><trkpt lat="43.73966" lon="6.58762"><time>2000-01-01T01:51:49.000Z</time></trkpt><trkpt lat="43.73968" lon="6.58768"><ele>1268</ele><time>2000-01-01T01:51:59.000Z</time></trkpt><trkpt lat="43.73977" lon="6.58775"><time>2000-01-01T01:52:09.000Z</time></trkpt><trkpt lat="43.73981" lon="6.58782"><time>2000-01-01T01:52:19.000Z</time></trkpt><trkpt lat="43.73977" lon="6.58785"><ele>1263</ele><time>2000-01-01T01:52:29.000Z</time></trkpt><trkpt lat="43.73968" lon="6.58785"><time>2000-01-01T01:52:39.000Z</time></trkpt><trkpt lat="43.73967" lon="6.58786"><time>2000-01-01T01:52:49.000Z</time></trkpt><trkpt lat="43.73967" lon="6.58789"><time>2000-01-01T01:52:59.000Z</time></trkpt><trkpt lat="43.7397" lon="6.58792"><time>2000-01-01T01:53:09.000Z</time></trkpt><trkpt lat="43.73981" lon="6.58799"><ele>1263</ele><time>2000-01-01T01:53:19.000Z</time></trkpt><trkpt lat="43.73984" lon="6.58809"><time>2000-01-01T01:53:29.000Z</time></trkpt><trkpt lat="43.73993" lon="6.58815"><time>2000-01-01T01:53:39.000Z</time></trkpt><trkpt lat="43.73993" lon="6.58818"><ele>1262</ele><time>2000-01-01T01:53:49.000Z</time></trkpt><trkpt lat="43.73986" lon="6.58823"><time>2000-01-01T01:53:59.000Z</time></trkpt><trkpt lat="43.73985" lon="6.58826"><time>2000-01-01T01:54:09.000Z</time></trkpt><trkpt lat="43.73983" lon="6.58832"><time>2000-01-01T01:54:19.000Z</time></trkpt><trkpt lat="43.73977" lon="6.58844"><ele>1247</ele><time>2000-01-01T01:54:29.000Z</time></trkpt><trkpt lat="43.73974" lon="6.5885"><time>2000-01-01T01:54:39.000Z</time></trkpt><trkpt lat="43.73973" lon="6.58856"><time>2000-01-01T01:54:49.000Z</time></trkpt><trkpt lat="43.7397" lon="6.58857"><time>2000-01-01T01:54:59.000Z</time></trkpt><trkpt lat="43.73967" lon="6.58861"><time>2000-01-01T01:55:09.000Z</time></trkpt><trkpt lat="43.73966" lon="6.58868"><ele>1242</ele><time>2000-01-01T01:55:19.000Z</time></trkpt><trkpt lat="43.73961" lon="6.58874"><time>2000-01-01T01:55:29.000Z</time></trkpt><trkpt lat="43.73958" lon="6.58884"><time>2000-01-01T01:55:39.000Z</time></trkpt><trkpt lat="43.73955" lon="6.5889"><ele>1226</ele><time>2000-01-01T01:55:49.000Z</time></trkpt><trkpt lat="43.73953" lon="6.58897"><time>2000-01-01T01:55:59.000Z</time></trkpt><trkpt lat="43.73952" lon="6.58904"><time>2000-01-01T01:56:09.000Z</time></trkpt><trkpt lat="43.73948" lon="6.58911"><time>2000-01-01T01:56:19.000Z</time></trkpt><trkpt lat="43.73945" lon="6.58915"><ele>1222</ele><time>2000-01-01T01:56:29.000Z</time></trkpt><trkpt lat="43.73943" lon="6.58912"><time>2000-01-01T01:56:39.000Z</time></trkpt><trkpt lat="43.73942" lon="6.58898"><time>2000-01-01T01:56:49.000Z</time></trkpt><trkpt lat="43.7394" lon="6.58893"><time>2000-01-01T01:56:59.000Z</time></trkpt><trkpt lat="43.73939" lon="6.58894"><time>2000-01-01T01:57:09.000Z</time></trkpt><trkpt lat="43.73933" lon="6.5891"><ele>1201</ele><time>2000-01-01T01:57:19.000Z</time></trkpt><trkpt lat="43.73929" lon="6.58924"><time>2000-01-01T01:57:29.000Z</time></trkpt><trkpt lat="43.73923" lon="6.58947"><ele>1200</ele><time>2000-01-01T01:57:39.000Z</time></trkpt><trkpt lat="43.73918" lon="6.5897"><time>2000-01-01T01:57:49.000Z</time></trkpt><trkpt lat="43.73917" lon="6.58969"><time>2000-01-01T01:57:59.000Z</time></trkpt><trkpt lat="43.73916" lon="6.58961"><ele>1200</ele><time>2000-01-01T01:58:09.000Z</time></trkpt><trkpt lat="43.73916" lon="6.58953"><time>2000-01-01T01:58:19.000Z</time></trkpt><trkpt lat="43.73912" lon="6.58932"><ele>1193</ele><time>2000-01-01T01:58:29.000Z</time></trkpt><trkpt lat="43.73905" lon="6.58905"><ele>1192</ele><time>2000-01-01T01:58:39.000Z</time></trkpt><trkpt lat="43.73899" lon="6.58879"><time>2000-01-01T01:58:49.000Z</time></trkpt><trkpt lat="43.73889" lon="6.58864"><ele>1192</ele><time>2000-01-01T01:58:59.000Z</time></trkpt><trkpt lat="43.73871" lon="6.58837"><ele>1176</ele><time>2000-01-01T01:59:09.000Z</time></trkpt><trkpt lat="43.73858" lon="6.58816"><time>2000-01-01T01:59:19.000Z</time></trkpt><trkpt lat="43.73849" lon="6.58801"><ele>1168</ele><time>2000-01-01T01:59:29.000Z</time></trkpt><trkpt lat="43.73845" lon="6.58795"><time>2000-01-01T01:59:39.000Z</time></trkpt><trkpt lat="43.73841" lon="6.58789"><time>2000-01-01T01:59:49.000Z</time></trkpt><trkpt lat="43.73836" lon="6.58784"><time>2000-01-01T01:59:59.000Z</time></trkpt><trkpt lat="43.73834" lon="6.58777"><ele>1161</ele><time>2000-01-01T02:00:09.000Z</time></trkpt><trkpt lat="43.7383" lon="6.58774"><time>2000-01-01T02:00:19.000Z</time></trkpt><trkpt lat="43.7383" lon="6.58771"><time>2000-01-01T02:00:29.000Z</time></trkpt><trkpt lat="43.73826" lon="6.5877"><time>2000-01-01T02:00:39.000Z</time></trkpt><trkpt lat="43.73824" lon="6.58772"><time>2000-01-01T02:00:49.000Z</time></trkpt><trkpt lat="43.73815" lon="6.58751"><ele>1145</ele><time>2000-01-01T02:00:59.000Z</time></trkpt><trkpt lat="43.73813" lon="6.58742"><time>2000-01-01T02:01:09.000Z</time></trkpt><trkpt lat="43.73809" lon="6.58712"><ele>1142</ele><time>2000-01-01T02:01:19.000Z</time></trkpt><trkpt lat="43.73808" lon="6.58712"><time>2000-01-01T02:01:29.000Z</time></trkpt><trkpt lat="43.73805" lon="6.58715"><time>2000-01-01T02:01:39.000Z</time></trkpt><trkpt lat="43.73804" lon="6.58727"><time>2000-01-01T02:01:49.000Z</time></trkpt><trkpt lat="43.738" lon="6.58735"><ele>1131</ele><time>2000-01-01T02:01:59.000Z</time></trkpt><trkpt lat="43.73797" lon="6.58737"><time>2000-01-01T02:02:09.000Z</time></trkpt><trkpt lat="43.73794" lon="6.58733"><time>2000-01-01T02:02:19.000Z</time></trkpt><trkpt lat="43.73794" lon="6.58726"><time>2000-01-01T02:02:29.000Z</time></trkpt><trkpt lat="43.73791" lon="6.58711"><ele>1131</ele><time>2000-01-01T02:02:39.000Z</time></trkpt><trkpt lat="43.7379" lon="6.58695"><time>2000-01-01T02:02:49.000Z</time></trkpt><trkpt lat="43.73789" lon="6.58679"><ele>1137</ele><time>2000-01-01T02:02:59.000Z</time></trkpt><trkpt lat="43.73783" lon="6.58666"><time>2000-01-01T02:03:09.000Z</time></trkpt><trkpt lat="43.7378" lon="6.5866"><time>2000-01-01T02:03:19.000Z</time></trkpt><trkpt lat="43.73778" lon="6.58649"><ele>1131</ele><time>2000-01-01T02:03:29.000Z</time></trkpt><trkpt lat="43.73772" lon="6.58638"><time>2000-01-01T02:03:39.000Z</time></trkpt><trkpt lat="43.73759" lon="6.58619"><ele>1126</ele><time>2000-01-01T02:03:49.000Z</time></trkpt><trkpt lat="43.73752" lon="6.58611"><time>2000-01-01T02:03:59.000Z</time></trkpt><trkpt lat="43.73748" lon="6.58606"><time>2000-01-01T02:04:09.000Z</time></trkpt><trkpt lat="43.7374" lon="6.58591"><ele>1109</ele><time>2000-01-01T02:04:19.000Z</time></trkpt><trkpt lat="43.73737" lon="6.58582"><time>2000-01-01T02:04:29.000Z</time></trkpt><trkpt lat="43.73734" lon="6.58576"><time>2000-01-01T02:04:39.000Z</time></trkpt><trkpt lat="43.73732" lon="6.58574"><time>2000-01-01T02:04:49.000Z</time></trkpt><trkpt lat="43.73731" lon="6.58567"><time>2000-01-01T02:04:59.000Z</time></trkpt><trkpt lat="43.73726" lon="6.58557"><ele>1109</ele><time>2000-01-01T02:05:09.000Z</time></trkpt><trkpt lat="43.7372" lon="6.58546"><time>2000-01-01T02:05:19.000Z</time></trkpt><trkpt lat="43.73716" lon="6.58537"><time>2000-01-01T02:05:29.000Z</time></trkpt><trkpt lat="43.73712" lon="6.58523"><ele>1109</ele><time>2000-01-01T02:05:39.000Z</time></trkpt><trkpt lat="43.7371" lon="6.58518"><time>2000-01-01T02:05:49.000Z</time></trkpt><trkpt lat="43.73707" lon="6.58512"><time>2000-01-01T02:05:59.000Z</time></trkpt><trkpt lat="43.73703" lon="6.58493"><ele>1094</ele><time>2000-01-01T02:06:09.000Z</time></trkpt><trkpt lat="43.73698" lon="6.58483"><time>2000-01-01T02:06:19.000Z</time></trkpt><trkpt lat="43.73693" lon="6.58465"><ele>1090</ele><time>2000-01-01T02:06:29.000Z</time></trkpt><trkpt lat="43.73692" lon="6.58461"><time>2000-01-01T02:06:39.000Z</time></trkpt><trkpt lat="43.73688" lon="6.58461"><time>2000-01-01T02:06:49.000Z</time></trkpt><trkpt lat="43.73683" lon="6.58459"><time>2000-01-01T02:06:59.000Z</time></trkpt><trkpt lat="43.73677" lon="6.58462"><time>2000-01-01T02:07:09.000Z</time></trkpt><trkpt lat="43.73672" lon="6.58456"><ele>1077</ele><time>2000-01-01T02:07:19.000Z</time></trkpt><trkpt lat="43.73671" lon="6.58456"><time>2000-01-01T02:07:29.000Z</time></trkpt><trkpt lat="43.73668" lon="6.58465"><time>2000-01-01T02:07:39.000Z</time></trkpt><trkpt lat="43.73659" lon="6.58466"><time>2000-01-01T02:07:49.000Z</time></trkpt><trkpt lat="43.73649" lon="6.58468"><ele>1071</ele><time>2000-01-01T02:07:59.000Z</time></trkpt><trkpt lat="43.73648" lon="6.58468"><time>2000-01-01T02:08:09.000Z</time></trkpt><trkpt lat="43.73638" lon="6.5848"><time>2000-01-01T02:08:19.000Z</time></trkpt><trkpt lat="43.73628" lon="6.58484"><ele>1061</ele><time>2000-01-01T02:08:29.000Z</time></trkpt><trkpt lat="43.7362" lon="6.58482"><time>2000-01-01T02:08:39.000Z</time></trkpt><trkpt lat="43.73608" lon="6.58473"><ele>1061</ele><time>2000-01-01T02:08:49.000Z</time></trkpt><trkpt lat="43.73594" lon="6.58483"><time>2000-01-01T02:08:59.000Z</time></trkpt><trkpt lat="43.73588" lon="6.58485"><ele>1059</ele><time>2000-01-01T02:09:09.000Z</time></trkpt><trkpt lat="43.73583" lon="6.5849"><time>2000-01-01T02:09:19.000Z</time></trkpt><trkpt lat="43.7358" lon="6.58495"><time>2000-01-01T02:09:29.000Z</time></trkpt><trkpt lat="43.73576" lon="6.58503"><time>2000-01-01T02:09:39.000Z</time></trkpt><trkpt lat="43.73573" lon="6.58521"><ele>1058</ele><time>2000-01-01T02:09:49.000Z</time></trkpt><trkpt lat="43.73573" lon="6.58529"><time>2000-01-01T02:09:59.000Z</time></trkpt><trkpt lat="43.73572" lon="6.58542"><time>2000-01-01T02:10:09.000Z</time></trkpt><trkpt lat="43.7357" lon="6.58549"><ele>1058</ele><time>2000-01-01T02:10:19.000Z</time></trkpt><trkpt lat="43.73566" lon="6.58555"><time>2000-01-01T02:10:29.000Z</time></trkpt><trkpt lat="43.73556" lon="6.58564"><time>2000-01-01T02:10:39.000Z</time></trkpt><trkpt lat="43.73552" lon="6.58545"><ele>1054</ele><time>2000-01-01T02:10:49.000Z</time></trkpt><trkpt lat="43.73545" lon="6.58512"><ele>1050</ele><time>2000-01-01T02:10:59.000Z</time></trkpt><trkpt lat="43.73537" lon="6.58476"><ele>1050</ele><time>2000-01-01T02:11:09.000Z</time></trkpt><trkpt lat="43.73525" lon="6.58412"><ele>1052</ele><time>2000-01-01T02:11:19.000Z</time></trkpt><trkpt lat="43.73522" lon="6.58348"><ele>1054</ele><time>2000-01-01T02:11:29.000Z</time></trkpt><trkpt lat="43.73521" lon="6.58312"><ele>1055</ele><time>2000-01-01T02:11:39.000Z</time></trkpt><trkpt lat="43.73521" lon="6.58285"><ele>1056</ele><time>2000-01-01T02:11:49.000Z</time></trkpt><trkpt lat="43.73518" lon="6.5826"><time>2000-01-01T02:11:59.000Z</time></trkpt><trkpt lat="43.73517" lon="6.58219"><ele>1056</ele><time>2000-01-01T02:12:09.000Z</time></trkpt><trkpt lat="43.73519" lon="6.58183"><ele>1056</ele><time>2000-01-01T02:12:19.000Z</time></trkpt><trkpt lat="43.7352" lon="6.58151"><ele>1060</ele><time>2000-01-01T02:12:29.000Z</time></trkpt><trkpt lat="43.73524" lon="6.5812"><ele>1061</ele><time>2000-01-01T02:12:39.000Z</time></trkpt><trkpt lat="43.73526" lon="6.58082"><ele>1062</ele><time>2000-01-01T02:12:49.000Z</time></trkpt><trkpt lat="43.73527" lon="6.58069"><time>2000-01-01T02:12:59.000Z</time></trkpt><trkpt lat="43.73529" lon="6.58046"><ele>1062</ele><time>2000-01-01T02:13:09.000Z</time></trkpt><trkpt lat="43.7353" lon="6.58032"><time>2000-01-01T02:13:19.000Z</time></trkpt><trkpt lat="43.73532" lon="6.58019"><time>2000-01-01T02:13:29.000Z</time></trkpt><trkpt lat="43.73531" lon="6.57975"><ele>1063</ele><time>2000-01-01T02:13:39.000Z</time></trkpt><trkpt lat="43.73533" lon="6.57927"><ele>1063</ele><time>2000-01-01T02:13:49.000Z</time></trkpt><trkpt lat="43.73535" lon="6.57898"><ele>1065</ele><time>2000-01-01T02:13:59.000Z</time></trkpt><trkpt lat="43.73535" lon="6.57877"><time>2000-01-01T02:14:09.000Z</time></trkpt><trkpt lat="43.73533" lon="6.57853"><ele>1067</ele><time>2000-01-01T02:14:19.000Z</time></trkpt><trkpt lat="43.73527" lon="6.57822"><ele>1068</ele><time>2000-01-01T02:14:29.000Z</time></trkpt><trkpt lat="43.73524" lon="6.5781"><time>2000-01-01T02:14:39.000Z</time></trkpt><trkpt lat="43.73516" lon="6.57781"><ele>1068</ele><time>2000-01-01T02:14:49.000Z</time></trkpt><trkpt lat="43.73514" lon="6.57773"><time>2000-01-01T02:14:59.000Z</time></trkpt><trkpt lat="43.73503" lon="6.57742"><ele>1071</ele><time>2000-01-01T02:15:09.000Z</time></trkpt><trkpt lat="43.73495" lon="6.57718"><time>2000-01-01T02:15:19.000Z</time></trkpt><trkpt lat="43.73493" lon="6.57712"><ele>1071</ele><time>2000-01-01T02:15:29.000Z</time></trkpt><trkpt lat="43.73493" lon="6.57707"><time>2000-01-01T02:15:39.000Z</time></trkpt><trkpt lat="43.73489" lon="6.57692"><time>2000-01-01T02:15:49.000Z</time></trkpt><trkpt lat="43.73485" lon="6.57683"><ele>1069</ele><time>2000-01-01T02:15:59.000Z</time></trkpt><trkpt lat="43.73484" lon="6.57672"><time>2000-01-01T02:16:09.000Z</time></trkpt><trkpt lat="43.73483" lon="6.57659"><time>2000-01-01T02:16:19.000Z</time></trkpt><trkpt lat="43.73482" lon="6.57641"><ele>1067</ele><time>2000-01-01T02:16:29.000Z</time></trkpt><trkpt lat="43.73481" lon="6.57627"><time>2000-01-01T02:16:39.000Z</time></trkpt><trkpt lat="43.73482" lon="6.57599"><ele>1066</ele><time>2000-01-01T02:16:49.000Z</time></trkpt><trkpt lat="43.73482" lon="6.57591"><time>2000-01-01T02:16:59.000Z</time></trkpt><trkpt lat="43.7348" lon="6.57568"><ele>1064</ele><time>2000-01-01T02:17:09.000Z</time></trkpt><trkpt lat="43.73479" lon="6.57553"><time>2000-01-01T02:17:19.000Z</time></trkpt><trkpt lat="43.73479" lon="6.57541"><time>2000-01-01T02:17:29.000Z</time></trkpt><trkpt lat="43.73478" lon="6.5752"><ele>1065</ele><time>2000-01-01T02:17:39.000Z</time></trkpt><trkpt lat="43.73476" lon="6.57498"><time>2000-01-01T02:17:49.000Z</time></trkpt><trkpt lat="43.73472" lon="6.57474"><ele>1067</ele><time>2000-01-01T02:17:59.000Z</time></trkpt><trkpt lat="43.73467" lon="6.57448"><time>2000-01-01T02:18:09.000Z</time></trkpt><trkpt lat="43.7346" lon="6.57423"><ele>1067</ele><time>2000-01-01T02:18:19.000Z</time></trkpt><trkpt lat="43.73452" lon="6.57392"><ele>1068</ele><time>2000-01-01T02:18:29.000Z</time></trkpt><trkpt lat="43.73449" lon="6.57379"><time>2000-01-01T02:18:39.000Z</time></trkpt><trkpt lat="43.73449" lon="6.57348"><ele>1066</ele><time>2000-01-01T02:18:49.000Z</time></trkpt><trkpt lat="43.73447" lon="6.57338"><time>2000-01-01T02:18:59.000Z</time></trkpt><trkpt lat="43.7344" lon="6.5732"><ele>1066</ele><time>2000-01-01T02:19:09.000Z</time></trkpt><trkpt lat="43.73432" lon="6.57304"><time>2000-01-01T02:19:19.000Z</time></trkpt><trkpt lat="43.73429" lon="6.57296"><ele>1066</ele><time>2000-01-01T02:19:29.000Z</time></trkpt><trkpt lat="43.73427" lon="6.57281"><time>2000-01-01T02:19:39.000Z</time></trkpt><trkpt lat="43.73426" lon="6.5726"><ele>1067</ele><time>2000-01-01T02:19:49.000Z</time></trkpt><trkpt lat="43.73423" lon="6.57225"><ele>1069</ele><time>2000-01-01T02:19:59.000Z</time></trkpt><trkpt lat="43.73423" lon="6.57208"><time>2000-01-01T02:20:09.000Z</time></trkpt><trkpt lat="43.73418" lon="6.57141"><ele>1069</ele><time>2000-01-01T02:20:19.000Z</time></trkpt><trkpt lat="43.73418" lon="6.57107"><ele>1069</ele><time>2000-01-01T02:20:29.000Z</time></trkpt><trkpt lat="43.73418" lon="6.57096"><time>2000-01-01T02:20:39.000Z</time></trkpt><trkpt lat="43.73421" lon="6.57053"><ele>1068</ele><time>2000-01-01T02:20:49.000Z</time></trkpt><trkpt lat="43.73424" lon="6.57015"><ele>1064</ele><time>2000-01-01T02:20:59.000Z</time></trkpt><trkpt lat="43.73429" lon="6.56985"><ele>1062</ele><time>2000-01-01T02:21:09.000Z</time></trkpt><trkpt lat="43.73429" lon="6.56967"><time>2000-01-01T02:21:19.000Z</time></trkpt><trkpt lat="43.73431" lon="6.56941"><ele>1062</ele><time>2000-01-01T02:21:29.000Z</time></trkpt><trkpt lat="43.73432" lon="6.56926"><time>2000-01-01T02:21:39.000Z</time></trkpt><trkpt lat="43.73437" lon="6.56891"><ele>1064</ele><time>2000-01-01T02:21:49.000Z</time></trkpt><trkpt lat="43.73439" lon="6.56867"><time>2000-01-01T02:21:59.000Z</time></trkpt><trkpt lat="43.73443" lon="6.56853"><ele>1063</ele><time>2000-01-01T02:22:09.000Z</time></trkpt><trkpt lat="43.73447" lon="6.56847"><time>2000-01-01T02:22:19.000Z</time></trkpt><trkpt lat="43.73452" lon="6.56829"><ele>1063</ele><time>2000-01-01T02:22:29.000Z</time></trkpt><trkpt lat="43.73453" lon="6.5682"><time>2000-01-01T02:22:39.000Z</time></trkpt><trkpt lat="43.73451" lon="6.56809"><time>2000-01-01T02:22:49.000Z</time></trkpt><trkpt lat="43.73447" lon="6.56803"><ele>1063</ele><time>2000-01-01T02:22:59.000Z</time></trkpt><trkpt lat="43.73441" lon="6.56806"><time>2000-01-01T02:23:09.000Z</time></trkpt><trkpt lat="43.73431" lon="6.56816"><time>2000-01-01T02:23:19.000Z</time></trkpt><trkpt lat="43.73421" lon="6.56823"><ele>1063</ele><time>2000-01-01T02:23:29.000Z</time></trkpt><trkpt lat="43.73398" lon="6.56837"><ele>1066</ele><time>2000-01-01T02:23:39.000Z</time></trkpt><trkpt lat="43.73377" lon="6.56842"><ele>1070</ele><time>2000-01-01T02:23:49.000Z</time></trkpt><trkpt lat="43.73365" lon="6.56837"><time>2000-01-01T02:23:59.000Z</time></trkpt><trkpt lat="43.73354" lon="6.56828"><ele>1070</ele><time>2000-01-01T02:24:09.000Z</time></trkpt><trkpt lat="43.73346" lon="6.56824"><time>2000-01-01T02:24:19.000Z</time></trkpt><trkpt lat="43.73337" lon="6.56824"><time>2000-01-01T02:24:29.000Z</time></trkpt><trkpt lat="43.73323" lon="6.56819"><ele>1071</ele><time>2000-01-01T02:24:39.000Z</time></trkpt><trkpt lat="43.73299" lon="6.56821"><ele>1071</ele><time>2000-01-01T02:24:49.000Z</time></trkpt><trkpt lat="43.73281" lon="6.56824"><time>2000-01-01T02:24:59.000Z</time></trkpt><trkpt lat="43.73261" lon="6.56825"><ele>1071</ele><time>2000-01-01T02:25:09.000Z</time></trkpt><trkpt lat="43.73245" lon="6.56829"><time>2000-01-01T02:25:19.000Z</time></trkpt><trkpt lat="43.73237" lon="6.56826"><ele>1076</ele><time>2000-01-01T02:25:29.000Z</time></trkpt><trkpt lat="43.73227" lon="6.56827"><time>2000-01-01T02:25:39.000Z</time></trkpt><trkpt lat="43.73217" lon="6.56831"><ele>1076</ele><time>2000-01-01T02:25:49.000Z</time></trkpt><trkpt lat="43.73197" lon="6.56836"><ele>1076</ele><time>2000-01-01T02:25:59.000Z</time></trkpt><trkpt lat="43.73218" lon="6.56822"><ele>1076</ele><time>2000-01-01T02:26:09.000Z</time></trkpt><trkpt lat="43.73224" lon="6.56818"><time>2000-01-01T02:26:19.000Z</time></trkpt><trkpt lat="43.73272" lon="6.56789"><ele>1084</ele><time>2000-01-01T02:26:29.000Z</time></trkpt><trkpt lat="43.73295" lon="6.56757"><ele>1089</ele><time>2000-01-01T02:26:39.000Z</time></trkpt><trkpt lat="43.73317" lon="6.5672"><ele>1095</ele><time>2000-01-01T02:26:49.000Z</time></trkpt><trkpt lat="43.73348" lon="6.56677"><ele>1100</ele><time>2000-01-01T02:26:59.000Z</time></trkpt><trkpt lat="43.73361" lon="6.56647"><ele>1100</ele><time>2000-01-01T02:27:09.000Z</time></trkpt><trkpt lat="43.73375" lon="6.56615"><ele>1103</ele><time>2000-01-01T02:27:19.000Z</time></trkpt><trkpt lat="43.73378" lon="6.56608"><time>2000-01-01T02:27:29.000Z</time></trkpt><trkpt lat="43.73382" lon="6.56603"><time>2000-01-01T02:27:39.000Z</time></trkpt><trkpt lat="43.73388" lon="6.56593"><ele>1105</ele><time>2000-01-01T02:27:49.000Z</time></trkpt><trkpt lat="43.73391" lon="6.56588"><time>2000-01-01T02:27:59.000Z</time></trkpt><trkpt lat="43.73404" lon="6.56571"><ele>1105</ele><time>2000-01-01T02:28:09.000Z</time></trkpt><trkpt lat="43.73406" lon="6.56566"><time>2000-01-01T02:28:19.000Z</time></trkpt><trkpt lat="43.7341" lon="6.56551"><time>2000-01-01T02:28:29.000Z</time></trkpt><trkpt lat="43.73415" lon="6.56541"><ele>1102</ele><time>2000-01-01T02:28:39.000Z</time></trkpt><trkpt lat="43.73422" lon="6.56528"><time>2000-01-01T02:28:49.000Z</time></trkpt><trkpt lat="43.73431" lon="6.56518"><ele>1102</ele><time>2000-01-01T02:28:59.000Z</time></trkpt><trkpt lat="43.73443" lon="6.56512"><time>2000-01-01T02:29:09.000Z</time></trkpt><trkpt lat="43.73453" lon="6.56508"><ele>1103</ele><time>2000-01-01T02:29:19.000Z</time></trkpt><trkpt lat="43.73461" lon="6.56502"><time>2000-01-01T02:29:29.000Z</time></trkpt><trkpt lat="43.73498" lon="6.56473"><ele>1109</ele><time>2000-01-01T02:29:39.000Z</time></trkpt><trkpt lat="43.73531" lon="6.56449"><ele>1112</ele><time>2000-01-01T02:29:49.000Z</time></trkpt><trkpt lat="43.73554" lon="6.56434"><ele>1112</ele><time>2000-01-01T02:29:59.000Z</time></trkpt><trkpt lat="43.73582" lon="6.56417"><ele>1108</ele><time>2000-01-01T02:30:09.000Z</time></trkpt><trkpt lat="43.73597" lon="6.564"><ele>1113</ele><time>2000-01-01T02:30:19.000Z</time></trkpt><trkpt lat="43.73612" lon="6.56387"><time>2000-01-01T02:30:29.000Z</time></trkpt><trkpt lat="43.7362" lon="6.56383"><ele>1110</ele><time>2000-01-01T02:30:39.000Z</time></trkpt><trkpt lat="43.7365" lon="6.56377"><ele>1115</ele><time>2000-01-01T02:30:49.000Z</time></trkpt><trkpt lat="43.73669" lon="6.56374"><time>2000-01-01T02:30:59.000Z</time></trkpt><trkpt lat="43.73687" lon="6.56368"><ele>1120</ele><time>2000-01-01T02:31:09.000Z</time></trkpt><trkpt lat="43.73695" lon="6.56365"><time>2000-01-01T02:31:19.000Z</time></trkpt><trkpt lat="43.73713" lon="6.56353"><ele>1127</ele><time>2000-01-01T02:31:29.000Z</time></trkpt><trkpt lat="43.73735" lon="6.56337"><ele>1135</ele><time>2000-01-01T02:31:39.000Z</time></trkpt><trkpt lat="43.73751" lon="6.56327"><time>2000-01-01T02:31:49.000Z</time></trkpt><trkpt lat="43.73759" lon="6.56326"><ele>1143</ele><time>2000-01-01T02:31:59.000Z</time></trkpt><trkpt lat="43.73763" lon="6.56325"><time>2000-01-01T02:32:09.000Z</time></trkpt><trkpt lat="43.73781" lon="6.5631"><ele>1144</ele><time>2000-01-01T02:32:19.000Z</time></trkpt><trkpt lat="43.73796" lon="6.56289"><ele>1146</ele><time>2000-01-01T02:32:29.000Z</time></trkpt><trkpt lat="43.73813" lon="6.56268"><ele>1158</ele><time>2000-01-01T02:32:39.000Z</time></trkpt><trkpt lat="43.73821" lon="6.56257"><time>2000-01-01T02:32:49.000Z</time></trkpt><trkpt lat="43.73824" lon="6.56253"><time>2000-01-01T02:32:59.000Z</time></trkpt><trkpt lat="43.7383" lon="6.56249"><ele>1167</ele><time>2000-01-01T02:33:09.000Z</time></trkpt><trkpt lat="43.73839" lon="6.56247"><time>2000-01-01T02:33:19.000Z</time></trkpt><trkpt lat="43.73848" lon="6.56248"><time>2000-01-01T02:33:29.000Z</time></trkpt><trkpt lat="43.73851" lon="6.5625"><ele>1172</ele><time>2000-01-01T02:33:39.000Z</time></trkpt><trkpt lat="43.73855" lon="6.56258"><time>2000-01-01T02:33:49.000Z</time></trkpt><trkpt lat="43.73861" lon="6.56262"><time>2000-01-01T02:33:59.000Z</time></trkpt><trkpt lat="43.73882" lon="6.56266"><ele>1177</ele><time>2000-01-01T02:34:09.000Z</time></trkpt><trkpt lat="43.73897" lon="6.5627"><time>2000-01-01T02:34:19.000Z</time></trkpt><trkpt lat="43.73925" lon="6.56282"><ele>1180</ele><time>2000-01-01T02:34:29.000Z</time></trkpt><trkpt lat="43.73941" lon="6.56291"><time>2000-01-01T02:34:39.000Z</time></trkpt><trkpt lat="43.73956" lon="6.56304"><ele>1184</ele><time>2000-01-01T02:34:49.000Z</time></trkpt><trkpt lat="43.73966" lon="6.56313"><time>2000-01-01T02:34:59.000Z</time></trkpt><trkpt lat="43.73981" lon="6.56326"><ele>1189</ele><time>2000-01-01T02:35:09.000Z</time></trkpt><trkpt lat="43.73996" lon="6.56346"><ele>1189</ele><time>2000-01-01T02:35:19.000Z</time></trkpt><trkpt lat="43.74002" lon="6.56352"><time>2000-01-01T02:35:29.000Z</time></trkpt><trkpt lat="43.74014" lon="6.56371"><ele>1189</ele><time>2000-01-01T02:35:39.000Z</time></trkpt><trkpt lat="43.74029" lon="6.56392"><ele>1179</ele><time>2000-01-01T02:35:49.000Z</time></trkpt><trkpt lat="43.74035" lon="6.564"><time>2000-01-01T02:35:59.000Z</time></trkpt><trkpt lat="43.74038" lon="6.56411"><time>2000-01-01T02:36:09.000Z</time></trkpt><trkpt lat="43.74041" lon="6.5642"><ele>1175</ele><time>2000-01-01T02:36:19.000Z</time></trkpt><trkpt lat="43.74044" lon="6.56437"><time>2000-01-01T02:36:29.000Z</time></trkpt><trkpt lat="43.74045" lon="6.56444"><time>2000-01-01T02:36:39.000Z</time></trkpt><trkpt lat="43.74052" lon="6.56459"><ele>1169</ele><time>2000-01-01T02:36:49.000Z</time></trkpt><trkpt lat="43.74057" lon="6.5647"><time>2000-01-01T02:36:59.000Z</time></trkpt><trkpt lat="43.7406" lon="6.56486"><ele>1168</ele><time>2000-01-01T02:37:09.000Z</time></trkpt><trkpt lat="43.74064" lon="6.56503"><time>2000-01-01T02:37:19.000Z</time></trkpt><trkpt lat="43.74068" lon="6.56512"><ele>1168</ele><time>2000-01-01T02:37:29.000Z</time></trkpt><trkpt lat="43.74074" lon="6.56521"><time>2000-01-01T02:37:39.000Z</time></trkpt><trkpt lat="43.74083" lon="6.56527"><time>2000-01-01T02:37:49.000Z</time></trkpt><trkpt lat="43.74092" lon="6.5653"><ele>1168</ele><time>2000-01-01T02:37:59.000Z</time></trkpt><trkpt lat="43.74101" lon="6.5653"><time>2000-01-01T02:38:09.000Z</time></trkpt><trkpt lat="43.74118" lon="6.56529"><ele>1165</ele><time>2000-01-01T02:38:19.000Z</time></trkpt><trkpt lat="43.74136" lon="6.56523"><time>2000-01-01T02:38:29.000Z</time></trkpt><trkpt lat="43.74144" lon="6.56522"><ele>1157</ele><time>2000-01-01T02:38:39.000Z</time></trkpt><trkpt lat="43.74153" lon="6.56523"><time>2000-01-01T02:38:49.000Z</time></trkpt><trkpt lat="43.7417" lon="6.56531"><ele>1146</ele><time>2000-01-01T02:38:59.000Z</time></trkpt><trkpt lat="43.74178" lon="6.56535"><time>2000-01-01T02:39:09.000Z</time></trkpt><trkpt lat="43.74194" lon="6.56549"><ele>1139</ele><time>2000-01-01T02:39:19.000Z</time></trkpt><trkpt lat="43.74203" lon="6.56556"><time>2000-01-01T02:39:29.000Z</time></trkpt><trkpt lat="43.7422" lon="6.56567"><ele>1139</ele><time>2000-01-01T02:39:39.000Z</time></trkpt><trkpt lat="43.74229" lon="6.56573"><time>2000-01-01T02:39:49.000Z</time></trkpt><trkpt lat="43.74243" lon="6.56586"><ele>1138</ele><time>2000-01-01T02:39:59.000Z</time></trkpt><trkpt lat="43.74258" lon="6.56595"><time>2000-01-01T02:40:09.000Z</time></trkpt><trkpt lat="43.74276" lon="6.56601"><ele>1134</ele><time>2000-01-01T02:40:19.000Z</time></trkpt><trkpt lat="43.74291" lon="6.56603"><time>2000-01-01T02:40:29.000Z</time></trkpt><trkpt lat="43.74305" lon="6.56599"><ele>1125</ele><time>2000-01-01T02:40:39.000Z</time></trkpt><trkpt lat="43.7431" lon="6.56597"><time>2000-01-01T02:40:49.000Z</time></trkpt><trkpt lat="43.74364" lon="6.56649"><ele>1122</ele><time>2000-01-01T02:40:59.000Z</time></trkpt><trkpt lat="43.74393" lon="6.56673"><ele>1120</ele><time>2000-01-01T02:41:09.000Z</time></trkpt><trkpt lat="43.74421" lon="6.56697"><ele>1118</ele><time>2000-01-01T02:41:19.000Z</time></trkpt><trkpt lat="43.74455" lon="6.56726"><ele>1118</ele><time>2000-01-01T02:41:29.000Z</time></trkpt><trkpt lat="43.74478" lon="6.56746"><ele>1115</ele><time>2000-01-01T02:41:39.000Z</time></trkpt><trkpt lat="43.74507" lon="6.56771"><ele>1112</ele><time>2000-01-01T02:41:49.000Z</time></trkpt><trkpt lat="43.74524" lon="6.56809"><ele>1111</ele><time>2000-01-01T02:41:59.000Z</time></trkpt><trkpt lat="43.74535" lon="6.56828"><time>2000-01-01T02:42:09.000Z</time></trkpt><trkpt lat="43.74552" lon="6.5688"><ele>1104</ele><time>2000-01-01T02:42:19.000Z</time></trkpt><trkpt lat="43.74563" lon="6.56937"><ele>1098</ele><time>2000-01-01T02:42:29.000Z</time></trkpt><trkpt lat="43.74566" lon="6.56951"><time>2000-01-01T02:42:39.000Z</time></trkpt><trkpt lat="43.74581" lon="6.56987"><ele>1088</ele><time>2000-01-01T02:42:49.000Z</time></trkpt><trkpt lat="43.74588" lon="6.57018"><ele>1083</ele><time>2000-01-01T02:42:59.000Z</time></trkpt><trkpt lat="43.74591" lon="6.57048"><ele>1082</ele><time>2000-01-01T02:43:09.000Z</time></trkpt><trkpt lat="43.74602" lon="6.57083"><ele>1082</ele><time>2000-01-01T02:43:19.000Z</time></trkpt><trkpt lat="43.74618" lon="6.57114"><ele>1081</ele><time>2000-01-01T02:43:29.000Z</time></trkpt><trkpt lat="43.74634" lon="6.57131"><ele>1081</ele><time>2000-01-01T02:43:39.000Z</time></trkpt><trkpt lat="43.74667" lon="6.57155"><ele>1079</ele><time>2000-01-01T02:43:49.000Z</time></trkpt><trkpt lat="43.74692" lon="6.57166"><ele>1077</ele><time>2000-01-01T02:43:59.000Z</time></trkpt><trkpt lat="43.74724" lon="6.5718"><ele>1076</ele><time>2000-01-01T02:44:09.000Z</time></trkpt><trkpt lat="43.74757" lon="6.57192"><ele>1076</ele><time>2000-01-01T02:44:19.000Z</time></trkpt><trkpt lat="43.74763" lon="6.57202"><time>2000-01-01T02:44:29.000Z</time></trkpt><trkpt lat="43.74772" lon="6.57232"><ele>1075</ele><time>2000-01-01T02:44:39.000Z</time></trkpt><trkpt lat="43.74765" lon="6.5726"><ele>1072</ele><time>2000-01-01T02:44:49.000Z</time></trkpt><trkpt lat="43.74753" lon="6.57289"><ele>1071</ele><time>2000-01-01T02:44:59.000Z</time></trkpt><trkpt lat="43.74756" lon="6.57303"><time>2000-01-01T02:45:09.000Z</time></trkpt><trkpt lat="43.74781" lon="6.57347"><ele>1069</ele><time>2000-01-01T02:45:19.000Z</time></trkpt><trkpt lat="43.74794" lon="6.57362"><time>2000-01-01T02:45:29.000Z</time></trkpt><trkpt lat="43.7485" lon="6.57401"><ele>1051</ele><time>2000-01-01T02:45:39.000Z</time></trkpt><trkpt lat="43.74873" lon="6.57413"><ele>1050</ele><time>2000-01-01T02:45:49.000Z</time></trkpt><trkpt lat="43.74898" lon="6.57426"><ele>1046</ele><time>2000-01-01T02:45:59.000Z</time></trkpt><trkpt lat="43.74929" lon="6.57445"><ele>1045</ele><time>2000-01-01T02:46:09.000Z</time></trkpt><trkpt lat="43.74962" lon="6.57478"><ele>1040</ele><time>2000-01-01T02:46:19.000Z</time></trkpt><trkpt lat="43.74991" lon="6.57512"><ele>1039</ele><time>2000-01-01T02:46:29.000Z</time></trkpt><trkpt lat="43.75009" lon="6.57537"><ele>1039</ele><time>2000-01-01T02:46:39.000Z</time></trkpt><trkpt lat="43.75029" lon="6.57566"><ele>1040</ele><time>2000-01-01T02:46:49.000Z</time></trkpt><trkpt lat="43.75046" lon="6.57587"><ele>1035</ele><time>2000-01-01T02:46:59.000Z</time></trkpt><trkpt lat="43.75063" lon="6.57593"><time>2000-01-01T02:47:09.000Z</time></trkpt><trkpt lat="43.75074" lon="6.57597"><ele>1033</ele><time>2000-01-01T02:47:19.000Z</time></trkpt><trkpt lat="43.7509" lon="6.57612"><ele>1031</ele><time>2000-01-01T02:47:29.000Z</time></trkpt><trkpt lat="43.75109" lon="6.57623"><ele>1028</ele><time>2000-01-01T02:47:39.000Z</time></trkpt><trkpt lat="43.75116" lon="6.5763"><time>2000-01-01T02:47:49.000Z</time></trkpt><trkpt lat="43.75132" lon="6.57674"><ele>1026</ele><time>2000-01-01T02:47:59.000Z</time></trkpt><trkpt lat="43.75141" lon="6.57706"><ele>1026</ele><time>2000-01-01T02:48:09.000Z</time></trkpt><trkpt lat="43.75151" lon="6.57742"><ele>1035</ele><time>2000-01-01T02:48:19.000Z</time></trkpt><trkpt lat="43.7516" lon="6.57767"><ele>1035</ele><time>2000-01-01T02:48:29.000Z</time></trkpt><trkpt lat="43.75173" lon="6.57784"><time>2000-01-01T02:48:39.000Z</time></trkpt><trkpt lat="43.75214" lon="6.57807"><ele>1031</ele><time>2000-01-01T02:48:49.000Z</time></trkpt><trkpt lat="43.7524" lon="6.57815"><ele>1028</ele><time>2000-01-01T02:48:59.000Z</time></trkpt><trkpt lat="43.75274" lon="6.57824"><ele>1025</ele><time>2000-01-01T02:49:09.000Z</time></trkpt><trkpt lat="43.75313" lon="6.57849"><ele>1021</ele><time>2000-01-01T02:49:19.000Z</time></trkpt><trkpt lat="43.75336" lon="6.57863"><ele>1021</ele><time>2000-01-01T02:49:29.000Z</time></trkpt><trkpt lat="43.7536" lon="6.57877"><ele>1010</ele><time>2000-01-01T02:49:39.000Z</time></trkpt><trkpt lat="43.75393" lon="6.57885"><ele>1008</ele><time>2000-01-01T02:49:49.000Z</time></trkpt><trkpt lat="43.7541" lon="6.57894"><time>2000-01-01T02:49:59.000Z</time></trkpt><trkpt lat="43.75423" lon="6.57909"><ele>1009</ele><time>2000-01-01T02:50:09.000Z</time></trkpt><trkpt lat="43.7543" lon="6.57924"><time>2000-01-01T02:50:19.000Z</time></trkpt><trkpt lat="43.75439" lon="6.57922"><ele>1010</ele><time>2000-01-01T02:50:29.000Z</time></trkpt><trkpt lat="43.75455" lon="6.57939"><ele>1010</ele><time>2000-01-01T02:50:39.000Z</time></trkpt><trkpt lat="43.75475" lon="6.57951"><ele>1005</ele><time>2000-01-01T02:50:49.000Z</time></trkpt><trkpt lat="43.75492" lon="6.57975"><ele>1000</ele><time>2000-01-01T02:50:59.000Z</time></trkpt><trkpt lat="43.75511" lon="6.58002"><ele>997</ele><time>2000-01-01T02:51:09.000Z</time></trkpt><trkpt lat="43.75522" lon="6.58008"><time>2000-01-01T02:51:19.000Z</time></trkpt><trkpt lat="43.75536" lon="6.58011"><ele>988</ele><time>2000-01-01T02:51:29.000Z</time></trkpt><trkpt lat="43.75548" lon="6.58018"><time>2000-01-01T02:51:39.000Z</time></trkpt><trkpt lat="43.75561" lon="6.58039"><ele>980</ele><time>2000-01-01T02:51:49.000Z</time></trkpt><trkpt lat="43.75591" lon="6.58058"><ele>971</ele><time>2000-01-01T02:51:59.000Z</time></trkpt><trkpt lat="43.75604" lon="6.58072"><time>2000-01-01T02:52:09.000Z</time></trkpt><trkpt lat="43.75612" lon="6.58085"><ele>963</ele><time>2000-01-01T02:52:19.000Z</time></trkpt><trkpt lat="43.75614" lon="6.58104"><time>2000-01-01T02:52:29.000Z</time></trkpt><trkpt lat="43.75609" lon="6.58114"><ele>963</ele><time>2000-01-01T02:52:39.000Z</time></trkpt><trkpt lat="43.75588" lon="6.58125"><ele>959</ele><time>2000-01-01T02:52:49.000Z</time></trkpt><trkpt lat="43.75583" lon="6.5813"><time>2000-01-01T02:52:59.000Z</time></trkpt><trkpt lat="43.75581" lon="6.58138"><time>2000-01-01T02:53:09.000Z</time></trkpt><trkpt lat="43.75602" lon="6.58189"><ele>955</ele><time>2000-01-01T02:53:19.000Z</time></trkpt><trkpt lat="43.75606" lon="6.582"><time>2000-01-01T02:53:29.000Z</time></trkpt><trkpt lat="43.75609" lon="6.58235"><ele>955</ele><time>2000-01-01T02:53:39.000Z</time></trkpt><trkpt lat="43.75611" lon="6.5825"><time>2000-01-01T02:53:49.000Z</time></trkpt><trkpt lat="43.75624" lon="6.58284"><ele>955</ele><time>2000-01-01T02:53:59.000Z</time></trkpt><trkpt lat="43.75628" lon="6.58312"><ele>953</ele><time>2000-01-01T02:54:09.000Z</time></trkpt><trkpt lat="43.75632" lon="6.58357"><ele>953</ele><time>2000-01-01T02:54:19.000Z</time></trkpt><trkpt lat="43.75639" lon="6.58395"><ele>953</ele><time>2000-01-01T02:54:29.000Z</time></trkpt><trkpt lat="43.75647" lon="6.58428"><ele>956</ele><time>2000-01-01T02:54:39.000Z</time></trkpt><trkpt lat="43.75656" lon="6.58463"><ele>956</ele><time>2000-01-01T02:54:49.000Z</time></trkpt><trkpt lat="43.75673" lon="6.58504"><ele>956</ele><time>2000-01-01T02:54:59.000Z</time></trkpt><trkpt lat="43.75687" lon="6.5854"><ele>956</ele><time>2000-01-01T02:55:09.000Z</time></trkpt><trkpt lat="43.75699" lon="6.58585"><ele>954</ele><time>2000-01-01T02:55:19.000Z</time></trkpt><trkpt lat="43.75711" lon="6.58627"><ele>946</ele><time>2000-01-01T02:55:29.000Z</time></trkpt><trkpt lat="43.75721" lon="6.58644"><time>2000-01-01T02:55:39.000Z</time></trkpt><trkpt lat="43.7573" lon="6.58655"><ele>946</ele><time>2000-01-01T02:55:49.000Z</time></trkpt><trkpt lat="43.75756" lon="6.58671"><ele>946</ele><time>2000-01-01T02:55:59.000Z</time></trkpt><trkpt lat="43.75792" lon="6.58693"><ele>941</ele><time>2000-01-01T02:56:09.000Z</time></trkpt><trkpt lat="43.75797" lon="6.58693"><time>2000-01-01T02:56:19.000Z</time></trkpt><trkpt lat="43.75807" lon="6.587"><time>2000-01-01T02:56:29.000Z</time></trkpt><trkpt lat="43.75821" lon="6.58718"><ele>936</ele><time>2000-01-01T02:56:39.000Z</time></trkpt><trkpt lat="43.75836" lon="6.58747"><ele>935</ele><time>2000-01-01T02:56:49.000Z</time></trkpt><trkpt lat="43.75854" lon="6.58767"><ele>935</ele><time>2000-01-01T02:56:59.000Z</time></trkpt><trkpt lat="43.75858" lon="6.58774"><time>2000-01-01T02:57:09.000Z</time></trkpt><trkpt lat="43.7586" lon="6.58789"><time>2000-01-01T02:57:19.000Z</time></trkpt><trkpt lat="43.75865" lon="6.58792"><ele>934</ele><time>2000-01-01T02:57:29.000Z</time></trkpt><trkpt lat="43.7585" lon="6.58836"><ele>934</ele><time>2000-01-01T02:57:39.000Z</time></trkpt><trkpt lat="43.75843" lon="6.58878"><ele>937</ele><time>2000-01-01T02:57:49.000Z</time></trkpt><trkpt lat="43.7584" lon="6.58915"><ele>944</ele><time>2000-01-01T02:57:59.000Z</time></trkpt><trkpt lat="43.75831" lon="6.58956"><ele>948</ele><time>2000-01-01T02:58:09.000Z</time></trkpt><trkpt lat="43.75824" lon="6.58989"><ele>951</ele><time>2000-01-01T02:58:19.000Z</time></trkpt><trkpt lat="43.75817" lon="6.59023"><ele>952</ele><time>2000-01-01T02:58:29.000Z</time></trkpt><trkpt lat="43.75812" lon="6.5904"><time>2000-01-01T02:58:39.000Z</time></trkpt><trkpt lat="43.75804" lon="6.59053"><ele>952</ele><time>2000-01-01T02:58:49.000Z</time></trkpt><trkpt lat="43.7578" lon="6.59072"><ele>952</ele><time>2000-01-01T02:58:59.000Z</time></trkpt><trkpt lat="43.75742" lon="6.59098"><ele>949</ele><time>2000-01-01T02:59:09.000Z</time></trkpt><trkpt lat="43.75714" lon="6.59116"><ele>949</ele><time>2000-01-01T02:59:19.000Z</time></trkpt><trkpt lat="43.75708" lon="6.59127"><time>2000-01-01T02:59:29.000Z</time></trkpt><trkpt lat="43.75703" lon="6.59146"><ele>949</ele><time>2000-01-01T02:59:39.000Z</time></trkpt><trkpt lat="43.75701" lon="6.59208"><ele>958</ele><time>2000-01-01T02:59:49.000Z</time></trkpt><trkpt lat="43.75702" lon="6.59234"><time>2000-01-01T02:59:59.000Z</time></trkpt><trkpt lat="43.75726" lon="6.59367"><ele>968</ele><time>2000-01-01T03:00:09.000Z</time></trkpt><trkpt lat="43.7573" lon="6.59397"><ele>969</ele><time>2000-01-01T03:00:19.000Z</time></trkpt><trkpt lat="43.75729" lon="6.59426"><ele>972</ele><time>2000-01-01T03:00:29.000Z</time></trkpt><trkpt lat="43.7573" lon="6.59442"><time>2000-01-01T03:00:39.000Z</time></trkpt><trkpt lat="43.75727" lon="6.5955"><ele>980</ele><time>2000-01-01T03:00:49.000Z</time></trkpt><trkpt lat="43.7573" lon="6.596"><ele>983</ele><time>2000-01-01T03:00:59.000Z</time></trkpt><trkpt lat="43.75736" lon="6.5966"><ele>981</ele><time>2000-01-01T03:01:09.000Z</time></trkpt><trkpt lat="43.75746" lon="6.59717"><ele>983</ele><time>2000-01-01T03:01:19.000Z</time></trkpt><trkpt lat="43.75753" lon="6.59742"><ele>986</ele><time>2000-01-01T03:01:29.000Z</time></trkpt><trkpt lat="43.75758" lon="6.59778"><ele>989</ele><time>2000-01-01T03:01:39.000Z</time></trkpt><trkpt lat="43.75764" lon="6.5982"><ele>999</ele><time>2000-01-01T03:01:49.000Z</time></trkpt><trkpt lat="43.75766" lon="6.59876"><ele>997</ele><time>2000-01-01T03:01:59.000Z</time></trkpt><trkpt lat="43.75771" lon="6.59923"><ele>997</ele><time>2000-01-01T03:02:09.000Z</time></trkpt><trkpt lat="43.75774" lon="6.59951"><ele>997</ele><time>2000-01-01T03:02:19.000Z</time></trkpt><trkpt lat="43.75777" lon="6.59987"><ele>998</ele><time>2000-01-01T03:02:29.000Z</time></trkpt><trkpt lat="43.7578" lon="6.60029"><ele>1006</ele><time>2000-01-01T03:02:39.000Z</time></trkpt><trkpt lat="43.75789" lon="6.60061"><ele>1010</ele><time>2000-01-01T03:02:49.000Z</time></trkpt><trkpt lat="43.75798" lon="6.60092"><ele>1010</ele><time>2000-01-01T03:02:59.000Z</time></trkpt><trkpt lat="43.75811" lon="6.60146"><ele>1016</ele><time>2000-01-01T03:03:09.000Z</time></trkpt><trkpt lat="43.75818" lon="6.60178"><ele>1017</ele><time>2000-01-01T03:03:19.000Z</time></trkpt><trkpt lat="43.75823" lon="6.60215"><ele>1019</ele><time>2000-01-01T03:03:29.000Z</time></trkpt><trkpt lat="43.7583" lon="6.60262"><ele>1021</ele><time>2000-01-01T03:03:39.000Z</time></trkpt><trkpt lat="43.75836" lon="6.60318"><ele>1029</ele><time>2000-01-01T03:03:49.000Z</time></trkpt><trkpt lat="43.75837" lon="6.60356"><ele>1037</ele><time>2000-01-01T03:03:59.000Z</time></trkpt><trkpt lat="43.75843" lon="6.60402"><ele>1038</ele><time>2000-01-01T03:04:09.000Z</time></trkpt><trkpt lat="43.75845" lon="6.60425"><time>2000-01-01T03:04:19.000Z</time></trkpt><trkpt lat="43.75838" lon="6.6046"><ele>1044</ele><time>2000-01-01T03:04:29.000Z</time></trkpt><trkpt lat="43.75838" lon="6.60475"><time>2000-01-01T03:04:39.000Z</time></trkpt><trkpt lat="43.75848" lon="6.60547"><ele>1055</ele><time>2000-01-01T03:04:49.000Z</time></trkpt><trkpt lat="43.75854" lon="6.60589"><ele>1056</ele><time>2000-01-01T03:04:59.000Z</time></trkpt><trkpt lat="43.75854" lon="6.6064"><ele>1066</ele><time>2000-01-01T03:05:09.000Z</time></trkpt><trkpt lat="43.75852" lon="6.60663"><time>2000-01-01T03:05:19.000Z</time></trkpt><trkpt lat="43.75854" lon="6.60704"><ele>1076</ele><time>2000-01-01T03:05:29.000Z</time></trkpt><trkpt lat="43.75859" lon="6.60761"><ele>1083</ele><time>2000-01-01T03:05:39.000Z</time></trkpt><trkpt lat="43.75871" lon="6.60804"><ele>1104</ele><time>2000-01-01T03:05:49.000Z</time></trkpt><trkpt lat="43.7588" lon="6.60862"><ele>1114</ele><time>2000-01-01T03:05:59.000Z</time></trkpt><trkpt lat="43.75879" lon="6.60871"><time>2000-01-01T03:06:09.000Z</time></trkpt><trkpt lat="43.7587" lon="6.60897"><ele>1118</ele><time>2000-01-01T03:06:19.000Z</time></trkpt><trkpt lat="43.75871" lon="6.60906"><time>2000-01-01T03:06:29.000Z</time></trkpt><trkpt lat="43.759" lon="6.60986"><ele>1122</ele><time>2000-01-01T03:06:39.000Z</time></trkpt><trkpt lat="43.75904" lon="6.61014"><ele>1126</ele><time>2000-01-01T03:06:49.000Z</time></trkpt><trkpt lat="43.75906" lon="6.61034"><time>2000-01-01T03:06:59.000Z</time></trkpt><trkpt lat="43.75906" lon="6.61051"><ele>1141</ele><time>2000-01-01T03:07:09.000Z</time></trkpt><trkpt lat="43.75905" lon="6.61083"><ele>1148</ele><time>2000-01-01T03:07:19.000Z</time></trkpt><trkpt lat="43.75906" lon="6.61105"><time>2000-01-01T03:07:29.000Z</time></trkpt><trkpt lat="43.7591" lon="6.61134"><ele>1150</ele><time>2000-01-01T03:07:39.000Z</time></trkpt><trkpt lat="43.75911" lon="6.6114"><time>2000-01-01T03:07:49.000Z</time></trkpt><trkpt lat="43.75912" lon="6.61152"><time>2000-01-01T03:07:59.000Z</time></trkpt><trkpt lat="43.75919" lon="6.61177"><ele>1152</ele><time>2000-01-01T03:08:09.000Z</time></trkpt><trkpt lat="43.75923" lon="6.6119"><time>2000-01-01T03:08:19.000Z</time></trkpt><trkpt lat="43.75923" lon="6.61201"><time>2000-01-01T03:08:29.000Z</time></trkpt><trkpt lat="43.75919" lon="6.61223"><ele>1159</ele><time>2000-01-01T03:08:39.000Z</time></trkpt><trkpt lat="43.75915" lon="6.61244"><time>2000-01-01T03:08:49.000Z</time></trkpt><trkpt lat="43.75914" lon="6.61255"><ele>1167</ele><time>2000-01-01T03:08:59.000Z</time></trkpt><trkpt lat="43.75914" lon="6.61264"><time>2000-01-01T03:09:09.000Z</time></trkpt><trkpt lat="43.75917" lon="6.61278"><time>2000-01-01T03:09:19.000Z</time></trkpt><trkpt lat="43.75921" lon="6.6129"><ele>1173</ele><time>2000-01-01T03:09:29.000Z</time></trkpt><trkpt lat="43.7592" lon="6.61315"><time>2000-01-01T03:09:39.000Z</time></trkpt><trkpt lat="43.75919" lon="6.61335"><ele>1181</ele><time>2000-01-01T03:09:49.000Z</time></trkpt><trkpt lat="43.75921" lon="6.61361"><time>2000-01-01T03:09:59.000Z</time></trkpt><trkpt lat="43.75923" lon="6.61378"><ele>1182</ele><time>2000-01-01T03:10:09.000Z</time></trkpt><trkpt lat="43.75922" lon="6.61406"><ele>1182</ele><time>2000-01-01T03:10:19.000Z</time></trkpt><trkpt lat="43.75922" lon="6.61413"><time>2000-01-01T03:10:29.000Z</time></trkpt><trkpt lat="43.75918" lon="6.6144"><ele>1183</ele><time>2000-01-01T03:10:39.000Z</time></trkpt><trkpt lat="43.75914" lon="6.61459"><time>2000-01-01T03:10:49.000Z</time></trkpt><trkpt lat="43.75912" lon="6.61472"><ele>1188</ele><time>2000-01-01T03:10:59.000Z</time></trkpt><trkpt lat="43.75912" lon="6.61483"><time>2000-01-01T03:11:09.000Z</time></trkpt><trkpt lat="43.75905" lon="6.61513"><ele>1205</ele><time>2000-01-01T03:11:19.000Z</time></trkpt><trkpt lat="43.759" lon="6.6153"><time>2000-01-01T03:11:29.000Z</time></trkpt><trkpt lat="43.75887" lon="6.61562"><ele>1212</ele><time>2000-01-01T03:11:39.000Z</time></trkpt><trkpt lat="43.75871" lon="6.61597"><ele>1225</ele><time>2000-01-01T03:11:49.000Z</time></trkpt><trkpt lat="43.7586" lon="6.61623"><ele>1227</ele><time>2000-01-01T03:11:59.000Z</time></trkpt><trkpt lat="43.75854" lon="6.61644"><time>2000-01-01T03:12:09.000Z</time></trkpt><trkpt lat="43.75839" lon="6.61721"><ele>1256</ele><time>2000-01-01T03:12:19.000Z</time></trkpt><trkpt lat="43.75823" lon="6.61762"><ele>1261</ele><time>2000-01-01T03:12:29.000Z</time></trkpt><trkpt lat="43.75813" lon="6.61799"><ele>1276</ele><time>2000-01-01T03:12:39.000Z</time></trkpt><trkpt lat="43.75809" lon="6.61815"><time>2000-01-01T03:12:49.000Z</time></trkpt><trkpt lat="43.75804" lon="6.61879"><ele>1280</ele><time>2000-01-01T03:12:59.000Z</time></trkpt><trkpt lat="43.75801" lon="6.61906"><ele>1283</ele><time>2000-01-01T03:13:09.000Z</time></trkpt><trkpt lat="43.75796" lon="6.61923"><time>2000-01-01T03:13:19.000Z</time></trkpt><trkpt lat="43.75783" lon="6.61941"><ele>1290</ele><time>2000-01-01T03:13:29.000Z</time></trkpt><trkpt lat="43.75777" lon="6.6195"><time>2000-01-01T03:13:39.000Z</time></trkpt><trkpt lat="43.75767" lon="6.61975"><ele>1289</ele><time>2000-01-01T03:13:49.000Z</time></trkpt><trkpt lat="43.75757" lon="6.62002"><ele>1289</ele><time>2000-01-01T03:13:59.000Z</time></trkpt><trkpt lat="43.75737" lon="6.62022"><ele>1281</ele><time>2000-01-01T03:14:09.000Z</time></trkpt><trkpt lat="43.75726" lon="6.62042"><time>2000-01-01T03:14:19.000Z</time></trkpt><trkpt lat="43.75723" lon="6.62047"><ele>1281</ele><time>2000-01-01T03:14:29.000Z</time></trkpt><trkpt lat="43.75717" lon="6.6205"><time>2000-01-01T03:14:39.000Z</time></trkpt><trkpt lat="43.75682" lon="6.6206"><ele>1275</ele><time>2000-01-01T03:14:49.000Z</time></trkpt><trkpt lat="43.75658" lon="6.62069"><ele>1270</ele><time>2000-01-01T03:14:59.000Z</time></trkpt><trkpt lat="43.75634" lon="6.62076"><ele>1270</ele><time>2000-01-01T03:15:09.000Z</time></trkpt><trkpt lat="43.75628" lon="6.62076"><time>2000-01-01T03:15:19.000Z</time></trkpt><trkpt lat="43.75607" lon="6.62064"><ele>1270</ele><time>2000-01-01T03:15:29.000Z</time></trkpt><trkpt lat="43.75587" lon="6.62061"><ele>1269</ele><time>2000-01-01T03:15:39.000Z</time></trkpt><trkpt lat="43.75577" lon="6.62061"><time>2000-01-01T03:15:49.000Z</time></trkpt><trkpt lat="43.75553" lon="6.62067"><ele>1269</ele><time>2000-01-01T03:15:59.000Z</time></trkpt><trkpt lat="43.75545" lon="6.62066"><time>2000-01-01T03:16:09.000Z</time></trkpt><trkpt lat="43.75534" lon="6.62061"><time>2000-01-01T03:16:19.000Z</time></trkpt><trkpt lat="43.75519" lon="6.62058"><ele>1261</ele><time>2000-01-01T03:16:29.000Z</time></trkpt><trkpt lat="43.75498" lon="6.62061"><ele>1261</ele><time>2000-01-01T03:16:39.000Z</time></trkpt><trkpt lat="43.75484" lon="6.62059"><time>2000-01-01T03:16:49.000Z</time></trkpt><trkpt lat="43.75467" lon="6.62059"><ele>1257</ele><time>2000-01-01T03:16:59.000Z</time></trkpt><trkpt lat="43.75448" lon="6.62063"><time>2000-01-01T03:17:09.000Z</time></trkpt><trkpt lat="43.75439" lon="6.62065"><ele>1255</ele><time>2000-01-01T03:17:19.000Z</time></trkpt><trkpt lat="43.75415" lon="6.62075"><ele>1247</ele><time>2000-01-01T03:17:29.000Z</time></trkpt><trkpt lat="43.7539" lon="6.62086"><ele>1243</ele><time>2000-01-01T03:17:39.000Z</time></trkpt><trkpt lat="43.75383" lon="6.62088"><time>2000-01-01T03:17:49.000Z</time></trkpt><trkpt lat="43.75319" lon="6.62098"><ele>1231</ele><time>2000-01-01T03:17:59.000Z</time></trkpt><trkpt lat="43.75301" lon="6.62098"><time>2000-01-01T03:18:09.000Z</time></trkpt><trkpt lat="43.75287" lon="6.62091"><ele>1234</ele><time>2000-01-01T03:18:19.000Z</time></trkpt><trkpt lat="43.75276" lon="6.62075"><time>2000-01-01T03:18:29.000Z</time></trkpt><trkpt lat="43.75269" lon="6.62064"><ele>1229</ele><time>2000-01-01T03:18:39.000Z</time></trkpt><trkpt lat="43.75265" lon="6.62059"><time>2000-01-01T03:18:49.000Z</time></trkpt><trkpt lat="43.75261" lon="6.62057"><time>2000-01-01T03:18:59.000Z</time></trkpt><trkpt lat="43.75255" lon="6.62059"><time>2000-01-01T03:19:09.000Z</time></trkpt><trkpt lat="43.75236" lon="6.62072"><ele>1225</ele><time>2000-01-01T03:19:19.000Z</time></trkpt><trkpt lat="43.7523" lon="6.62076"><time>2000-01-01T03:19:29.000Z</time></trkpt><trkpt lat="43.75215" lon="6.62084"><ele>1225</ele><time>2000-01-01T03:19:39.000Z</time></trkpt><trkpt lat="43.75206" lon="6.62086"><time>2000-01-01T03:19:49.000Z</time></trkpt><trkpt lat="43.75197" lon="6.62085"><time>2000-01-01T03:19:59.000Z</time></trkpt><trkpt lat="43.75194" lon="6.62084"><ele>1224</ele><time>2000-01-01T03:20:09.000Z</time></trkpt><trkpt lat="43.75168" lon="6.62074"><ele>1228</ele><time>2000-01-01T03:20:19.000Z</time></trkpt><trkpt lat="43.75159" lon="6.6207"><time>2000-01-01T03:20:29.000Z</time></trkpt><trkpt lat="43.75134" lon="6.62057"><ele>1225</ele><time>2000-01-01T03:20:39.000Z</time></trkpt><trkpt lat="43.75128" lon="6.62052"><time>2000-01-01T03:20:49.000Z</time></trkpt><trkpt lat="43.75123" lon="6.62051"><time>2000-01-01T03:20:59.000Z</time></trkpt><trkpt lat="43.75109" lon="6.62056"><ele>1223</ele><time>2000-01-01T03:21:09.000Z</time></trkpt><trkpt lat="43.75102" lon="6.62059"><time>2000-01-01T03:21:19.000Z</time></trkpt><trkpt lat="43.75086" lon="6.62062"><ele>1214</ele><time>2000-01-01T03:21:29.000Z</time></trkpt><trkpt lat="43.75054" lon="6.62062"><ele>1211</ele><time>2000-01-01T03:21:39.000Z</time></trkpt><trkpt lat="43.75027" lon="6.62061"><ele>1208</ele><time>2000-01-01T03:21:49.000Z</time></trkpt><trkpt lat="43.75023" lon="6.62061"><time>2000-01-01T03:21:59.000Z</time></trkpt><trkpt lat="43.75003" lon="6.62056"><ele>1206</ele><time>2000-01-01T03:22:09.000Z</time></trkpt><trkpt lat="43.74998" lon="6.62054"><time>2000-01-01T03:22:19.000Z</time></trkpt><trkpt lat="43.74987" lon="6.62055"><time>2000-01-01T03:22:29.000Z</time></trkpt><trkpt lat="43.74967" lon="6.62061"><ele>1199</ele><time>2000-01-01T03:22:39.000Z</time></trkpt><trkpt lat="43.74964" lon="6.62062"><time>2000-01-01T03:22:49.000Z</time></trkpt><trkpt lat="43.74956" lon="6.62062"><time>2000-01-01T03:22:59.000Z</time></trkpt><trkpt lat="43.74943" lon="6.6206"><ele>1192</ele><time>2000-01-01T03:23:09.000Z</time></trkpt><trkpt lat="43.74925" lon="6.62053"><time>2000-01-01T03:23:19.000Z</time></trkpt><trkpt lat="43.74917" lon="6.6205"><ele>1191</ele><time>2000-01-01T03:23:29.000Z</time></trkpt><trkpt lat="43.74892" lon="6.62048"><ele>1191</ele><time>2000-01-01T03:23:39.000Z</time></trkpt><trkpt lat="43.74879" lon="6.62047"><time>2000-01-01T03:23:49.000Z</time></trkpt><trkpt lat="43.74874" lon="6.62046"><time>2000-01-01T03:23:59.000Z</time></trkpt><trkpt lat="43.74867" lon="6.62043"><ele>1186</ele><time>2000-01-01T03:24:09.000Z</time></trkpt><trkpt lat="43.74862" lon="6.62037"><time>2000-01-01T03:24:19.000Z</time></trkpt><trkpt lat="43.74859" lon="6.62037"><time>2000-01-01T03:24:29.000Z</time></trkpt><trkpt lat="43.74857" lon="6.62041"><time>2000-01-01T03:24:39.000Z</time></trkpt><trkpt lat="43.74861" lon="6.62046"><time>2000-01-01T03:24:49.000Z</time></trkpt><trkpt lat="43.74871" lon="6.62054"><ele>1186</ele><time>2000-01-01T03:24:59.000Z</time></trkpt><trkpt lat="43.74889" lon="6.62065"><ele>1186</ele><time>2000-01-01T03:25:09.000Z</time></trkpt><trkpt lat="43.74903" lon="6.62071"><time>2000-01-01T03:25:19.000Z</time></trkpt><trkpt lat="43.74912" lon="6.62079"><ele>1180</ele><time>2000-01-01T03:25:29.000Z</time></trkpt><trkpt lat="43.7492" lon="6.62091"><time>2000-01-01T03:25:39.000Z</time></trkpt><trkpt lat="43.74925" lon="6.62106"><ele>1172</ele><time>2000-01-01T03:25:49.000Z</time></trkpt><trkpt lat="43.74928" lon="6.62116"><time>2000-01-01T03:25:59.000Z</time></trkpt><trkpt lat="43.74931" lon="6.62128"><time>2000-01-01T03:26:09.000Z</time></trkpt><trkpt lat="43.74938" lon="6.62137"><ele>1175</ele><time>2000-01-01T03:26:19.000Z</time></trkpt><trkpt lat="43.74945" lon="6.62145"><time>2000-01-01T03:26:29.000Z</time></trkpt><trkpt lat="43.7495" lon="6.62147"><time>2000-01-01T03:26:39.000Z</time></trkpt><trkpt lat="43.74952" lon="6.62148"><time>2000-01-01T03:26:49.000Z</time></trkpt><trkpt lat="43.74966" lon="6.6215"><ele>1174</ele><time>2000-01-01T03:26:59.000Z</time></trkpt><trkpt lat="43.7498" lon="6.62154"><time>2000-01-01T03:27:09.000Z</time></trkpt><trkpt lat="43.74991" lon="6.62161"><ele>1173</ele><time>2000-01-01T03:27:19.000Z</time></trkpt><trkpt lat="43.75002" lon="6.6217"><time>2000-01-01T03:27:29.000Z</time></trkpt><trkpt lat="43.75014" lon="6.6218"><ele>1173</ele><time>2000-01-01T03:27:39.000Z</time></trkpt><trkpt lat="43.75038" lon="6.62185"><ele>1166</ele><time>2000-01-01T03:27:49.000Z</time></trkpt><trkpt lat="43.75048" lon="6.62188"><time>2000-01-01T03:27:59.000Z</time></trkpt><trkpt lat="43.75061" lon="6.62193"><ele>1165</ele><time>2000-01-01T03:28:09.000Z</time></trkpt><trkpt lat="43.75073" lon="6.62201"><time>2000-01-01T03:28:19.000Z</time></trkpt><trkpt lat="43.75083" lon="6.62208"><ele>1164</ele><time>2000-01-01T03:28:29.000Z</time></trkpt><trkpt lat="43.75098" lon="6.62214"><time>2000-01-01T03:28:39.000Z</time></trkpt><trkpt lat="43.75115" lon="6.6222"><ele>1160</ele><time>2000-01-01T03:28:49.000Z</time></trkpt><trkpt lat="43.75119" lon="6.62222"><time>2000-01-01T03:28:59.000Z</time></trkpt><trkpt lat="43.75139" lon="6.62234"><ele>1156</ele><time>2000-01-01T03:29:09.000Z</time></trkpt><trkpt lat="43.75155" lon="6.62243"><time>2000-01-01T03:29:19.000Z</time></trkpt><trkpt lat="43.75188" lon="6.62267"><ele>1150</ele><time>2000-01-01T03:29:29.000Z</time></trkpt><trkpt lat="43.75194" lon="6.62277"><time>2000-01-01T03:29:39.000Z</time></trkpt><trkpt lat="43.75198" lon="6.62293"><ele>1149</ele><time>2000-01-01T03:29:49.000Z</time></trkpt><trkpt lat="43.75206" lon="6.62315"><time>2000-01-01T03:29:59.000Z</time></trkpt><trkpt lat="43.75213" lon="6.62331"><ele>1137</ele><time>2000-01-01T03:30:09.000Z</time></trkpt><trkpt lat="43.75219" lon="6.62339"><time>2000-01-01T03:30:19.000Z</time></trkpt><trkpt lat="43.7523" lon="6.62352"><ele>1127</ele><time>2000-01-01T03:30:29.000Z</time></trkpt><trkpt lat="43.75243" lon="6.62362"><time>2000-01-01T03:30:39.000Z</time></trkpt><trkpt lat="43.75255" lon="6.62367"><ele>1126</ele><time>2000-01-01T03:30:49.000Z</time></trkpt><trkpt lat="43.75268" lon="6.62369"><time>2000-01-01T03:30:59.000Z</time></trkpt><trkpt lat="43.75277" lon="6.62368"><ele>1126</ele><time>2000-01-01T03:31:09.000Z</time></trkpt><trkpt lat="43.75297" lon="6.62365"><ele>1126</ele><time>2000-01-01T03:31:19.000Z</time></trkpt><trkpt lat="43.75301" lon="6.62364"><time>2000-01-01T03:31:29.000Z</time></trkpt><trkpt lat="43.75308" lon="6.62366"><time>2000-01-01T03:31:39.000Z</time></trkpt><trkpt lat="43.75271" lon="6.62395"><ele>1116</ele><time>2000-01-01T03:31:49.000Z</time></trkpt><trkpt lat="43.75253" lon="6.62408"><ele>1115</ele><time>2000-01-01T03:31:59.000Z</time></trkpt><trkpt lat="43.75226" lon="6.6242"><ele>1114</ele><time>2000-01-01T03:32:09.000Z</time></trkpt><trkpt lat="43.75188" lon="6.62437"><ele>1113</ele><time>2000-01-01T03:32:19.000Z</time></trkpt><trkpt lat="43.75172" lon="6.62458"><ele>1110</ele><time>2000-01-01T03:32:29.000Z</time></trkpt><trkpt lat="43.75168" lon="6.62486"><ele>1109</ele><time>2000-01-01T03:32:39.000Z</time></trkpt><trkpt lat="43.75181" lon="6.6252"><ele>1107</ele><time>2000-01-01T03:32:49.000Z</time></trkpt><trkpt lat="43.75198" lon="6.62565"><ele>1102</ele><time>2000-01-01T03:32:59.000Z</time></trkpt><trkpt lat="43.75196" lon="6.626"><ele>1102</ele><time>2000-01-01T03:33:09.000Z</time></trkpt><trkpt lat="43.75183" lon="6.62614"><time>2000-01-01T03:33:19.000Z</time></trkpt><trkpt lat="43.75179" lon="6.62643"><ele>1112</ele><time>2000-01-01T03:33:29.000Z</time></trkpt><trkpt lat="43.75164" lon="6.62694"><ele>1112</ele><time>2000-01-01T03:33:39.000Z</time></trkpt><trkpt lat="43.75161" lon="6.62739"><ele>1102</ele><time>2000-01-01T03:33:49.000Z</time></trkpt><trkpt lat="43.7517" lon="6.62776"><ele>1085</ele><time>2000-01-01T03:33:59.000Z</time></trkpt><trkpt lat="43.75163" lon="6.62812"><ele>1075</ele><time>2000-01-01T03:34:09.000Z</time></trkpt><trkpt lat="43.75142" lon="6.62849"><ele>1073</ele><time>2000-01-01T03:34:19.000Z</time></trkpt><trkpt lat="43.75124" lon="6.62864"><ele>1071</ele><time>2000-01-01T03:34:29.000Z</time></trkpt><trkpt lat="43.75104" lon="6.62867"><ele>1071</ele><time>2000-01-01T03:34:39.000Z</time></trkpt><trkpt lat="43.75077" lon="6.62879"><ele>1067</ele><time>2000-01-01T03:34:49.000Z</time></trkpt><trkpt lat="43.7507" lon="6.6289"><time>2000-01-01T03:34:59.000Z</time></trkpt><trkpt lat="43.75064" lon="6.62914"><ele>1064</ele><time>2000-01-01T03:35:09.000Z</time></trkpt><trkpt lat="43.75048" lon="6.62941"><ele>1061</ele><time>2000-01-01T03:35:19.000Z</time></trkpt><trkpt lat="43.75029" lon="6.62966"><ele>1065</ele><time>2000-01-01T03:35:29.000Z</time></trkpt><trkpt lat="43.75029" lon="6.62987"><time>2000-01-01T03:35:39.000Z</time></trkpt><trkpt lat="43.75037" lon="6.63023"><ele>1066</ele><time>2000-01-01T03:35:49.000Z</time></trkpt><trkpt lat="43.75054" lon="6.63037"><ele>1066</ele><time>2000-01-01T03:35:59.000Z</time></trkpt><trkpt lat="43.75085" lon="6.6304"><ele>1066</ele><time>2000-01-01T03:36:09.000Z</time></trkpt><trkpt lat="43.75124" lon="6.6305"><ele>1066</ele><time>2000-01-01T03:36:19.000Z</time></trkpt><trkpt lat="43.75139" lon="6.63056"><time>2000-01-01T03:36:29.000Z</time></trkpt><trkpt lat="43.75169" lon="6.63076"><ele>1066</ele><time>2000-01-01T03:36:39.000Z</time></trkpt><trkpt lat="43.75187" lon="6.63074"><time>2000-01-01T03:36:49.000Z</time></trkpt><trkpt lat="43.7522" lon="6.63087"><ele>1067</ele><time>2000-01-01T03:36:59.000Z</time></trkpt><trkpt lat="43.75266" lon="6.63103"><ele>1069</ele><time>2000-01-01T03:37:09.000Z</time></trkpt><trkpt lat="43.75285" lon="6.63106"><time>2000-01-01T03:37:19.000Z</time></trkpt><trkpt lat="43.753" lon="6.631"><ele>1063</ele><time>2000-01-01T03:37:29.000Z</time></trkpt><trkpt lat="43.75323" lon="6.63087"><ele>1057</ele><time>2000-01-01T03:37:39.000Z</time></trkpt><trkpt lat="43.75341" lon="6.63085"><time>2000-01-01T03:37:49.000Z</time></trkpt><trkpt lat="43.75346" lon="6.63084"><ele>1057</ele><time>2000-01-01T03:37:59.000Z</time></trkpt><trkpt lat="43.75362" lon="6.63087"><time>2000-01-01T03:38:09.000Z</time></trkpt><trkpt lat="43.75391" lon="6.63099"><ele>1056</ele><time>2000-01-01T03:38:19.000Z</time></trkpt><trkpt lat="43.75409" lon="6.63108"><ele>1055</ele><time>2000-01-01T03:38:29.000Z</time></trkpt><trkpt lat="43.7543" lon="6.63117"><ele>1054</ele><time>2000-01-01T03:38:39.000Z</time></trkpt><trkpt lat="43.75444" lon="6.63131"><time>2000-01-01T03:38:49.000Z</time></trkpt><trkpt lat="43.75468" lon="6.63163"><ele>1054</ele><time>2000-01-01T03:38:59.000Z</time></trkpt><trkpt lat="43.75492" lon="6.63194"><ele>1050</ele><time>2000-01-01T03:39:09.000Z</time></trkpt><trkpt lat="43.75513" lon="6.63221"><ele>1046</ele><time>2000-01-01T03:39:19.000Z</time></trkpt><trkpt lat="43.7552" lon="6.6323"><time>2000-01-01T03:39:29.000Z</time></trkpt><trkpt lat="43.7553" lon="6.63245"><ele>1043</ele><time>2000-01-01T03:39:39.000Z</time></trkpt><trkpt lat="43.75549" lon="6.63274"><ele>1041</ele><time>2000-01-01T03:39:49.000Z</time></trkpt><trkpt lat="43.7556" lon="6.6329"><time>2000-01-01T03:39:59.000Z</time></trkpt><trkpt lat="43.75564" lon="6.63297"><ele>1039</ele><time>2000-01-01T03:40:09.000Z</time></trkpt><trkpt lat="43.75576" lon="6.63312"><time>2000-01-01T03:40:19.000Z</time></trkpt><trkpt lat="43.75581" lon="6.63319"><ele>1037</ele><time>2000-01-01T03:40:29.000Z</time></trkpt><trkpt lat="43.75581" lon="6.63326"><time>2000-01-01T03:40:39.000Z</time></trkpt><trkpt lat="43.75585" lon="6.63348"><ele>1033</ele><time>2000-01-01T03:40:49.000Z</time></trkpt><trkpt lat="43.75586" lon="6.63367"><time>2000-01-01T03:40:59.000Z</time></trkpt><trkpt lat="43.75586" lon="6.6339"><ele>1032</ele><time>2000-01-01T03:41:09.000Z</time></trkpt><trkpt lat="43.75586" lon="6.63433"><ele>1032</ele><time>2000-01-01T03:41:19.000Z</time></trkpt><trkpt lat="43.75586" lon="6.63462"><ele>1032</ele><time>2000-01-01T03:41:29.000Z</time></trkpt><trkpt lat="43.75589" lon="6.63505"><ele>1032</ele><time>2000-01-01T03:41:39.000Z</time></trkpt><trkpt lat="43.7559" lon="6.63522"><time>2000-01-01T03:41:49.000Z</time></trkpt><trkpt lat="43.75591" lon="6.63543"><ele>1034</ele><time>2000-01-01T03:41:59.000Z</time></trkpt><trkpt lat="43.75595" lon="6.63568"><time>2000-01-01T03:42:09.000Z</time></trkpt><trkpt lat="43.75597" lon="6.6359"><ele>1033</ele><time>2000-01-01T03:42:19.000Z</time></trkpt><trkpt lat="43.75601" lon="6.63642"><ele>1033</ele><time>2000-01-01T03:42:29.000Z</time></trkpt><trkpt lat="43.75603" lon="6.63669"><time>2000-01-01T03:42:39.000Z</time></trkpt><trkpt lat="43.75603" lon="6.63692"><ele>1037</ele><time>2000-01-01T03:42:49.000Z</time></trkpt><trkpt lat="43.75604" lon="6.63711"><time>2000-01-01T03:42:59.000Z</time></trkpt><trkpt lat="43.75607" lon="6.63736"><ele>1041</ele><time>2000-01-01T03:43:09.000Z</time></trkpt><trkpt lat="43.75618" lon="6.63775"><ele>1045</ele><time>2000-01-01T03:43:19.000Z</time></trkpt><trkpt lat="43.75625" lon="6.63797"><time>2000-01-01T03:43:29.000Z</time></trkpt><trkpt lat="43.75628" lon="6.63812"><ele>1046</ele><time>2000-01-01T03:43:39.000Z</time></trkpt><trkpt lat="43.75637" lon="6.63854"><ele>1049</ele><time>2000-01-01T03:43:49.000Z</time></trkpt><trkpt lat="43.75644" lon="6.63887"><ele>1049</ele><time>2000-01-01T03:43:59.000Z</time></trkpt><trkpt lat="43.75645" lon="6.63914"><ele>1048</ele><time>2000-01-01T03:44:09.000Z</time></trkpt><trkpt lat="43.75647" lon="6.63938"><time>2000-01-01T03:44:19.000Z</time></trkpt><trkpt lat="43.75647" lon="6.63945"><ele>1048</ele><time>2000-01-01T03:44:29.000Z</time></trkpt><trkpt lat="43.75643" lon="6.63987"><ele>1045</ele><time>2000-01-01T03:44:39.000Z</time></trkpt><trkpt lat="43.75642" lon="6.64001"><time>2000-01-01T03:44:49.000Z</time></trkpt><trkpt lat="43.75641" lon="6.64015"><ele>1041</ele><time>2000-01-01T03:44:59.000Z</time></trkpt><trkpt lat="43.75641" lon="6.64043"><ele>1037</ele><time>2000-01-01T03:45:09.000Z</time></trkpt><trkpt lat="43.75642" lon="6.64074"><ele>1036</ele><time>2000-01-01T03:45:19.000Z</time></trkpt><trkpt lat="43.75642" lon="6.64085"><time>2000-01-01T03:45:29.000Z</time></trkpt><trkpt lat="43.75642" lon="6.6412"><ele>1034</ele><time>2000-01-01T03:45:39.000Z</time></trkpt><trkpt lat="43.75642" lon="6.64136"><time>2000-01-01T03:45:49.000Z</time></trkpt><trkpt lat="43.75641" lon="6.6415"><ele>1034</ele><time>2000-01-01T03:45:59.000Z</time></trkpt><trkpt lat="43.7564" lon="6.64172"><time>2000-01-01T03:46:09.000Z</time></trkpt><trkpt lat="43.75637" lon="6.64201"><ele>1040</ele><time>2000-01-01T03:46:19.000Z</time></trkpt><trkpt lat="43.75635" lon="6.64224"><time>2000-01-01T03:46:29.000Z</time></trkpt><trkpt lat="43.75634" lon="6.64239"><ele>1046</ele><time>2000-01-01T03:46:39.000Z</time></trkpt><trkpt lat="43.75633" lon="6.64248"><time>2000-01-01T03:46:49.000Z</time></trkpt><trkpt lat="43.75632" lon="6.6428"><ele>1054</ele><time>2000-01-01T03:46:59.000Z</time></trkpt><trkpt lat="43.75631" lon="6.64291"><time>2000-01-01T03:47:09.000Z</time></trkpt><trkpt lat="43.75627" lon="6.64322"><ele>1059</ele><time>2000-01-01T03:47:19.000Z</time></trkpt><trkpt lat="43.75624" lon="6.64344"><time>2000-01-01T03:47:29.000Z</time></trkpt><trkpt lat="43.75623" lon="6.64352"><ele>1060</ele><time>2000-01-01T03:47:39.000Z</time></trkpt><trkpt lat="43.75625" lon="6.64393"><ele>1065</ele><time>2000-01-01T03:47:49.000Z</time></trkpt><trkpt lat="43.75626" lon="6.64416"><time>2000-01-01T03:47:59.000Z</time></trkpt><trkpt lat="43.75627" lon="6.64423"><ele>1070</ele><time>2000-01-01T03:48:09.000Z</time></trkpt><trkpt lat="43.75627" lon="6.64453"><ele>1072</ele><time>2000-01-01T03:48:19.000Z</time></trkpt><trkpt lat="43.75623" lon="6.6448"><ele>1075</ele><time>2000-01-01T03:48:29.000Z</time></trkpt><trkpt lat="43.75624" lon="6.64502"><time>2000-01-01T03:48:39.000Z</time></trkpt><trkpt lat="43.7563" lon="6.64525"><ele>1075</ele><time>2000-01-01T03:48:49.000Z</time></trkpt><trkpt lat="43.75631" lon="6.64542"><time>2000-01-01T03:48:59.000Z</time></trkpt><trkpt lat="43.75631" lon="6.64553"><ele>1076</ele><time>2000-01-01T03:49:09.000Z</time></trkpt><trkpt lat="43.7563" lon="6.64558"><time>2000-01-01T03:49:19.000Z</time></trkpt><trkpt lat="43.75627" lon="6.64585"><ele>1076</ele><time>2000-01-01T03:49:29.000Z</time></trkpt><trkpt lat="43.75627" lon="6.64588"><time>2000-01-01T03:49:39.000Z</time></trkpt><trkpt lat="43.75628" lon="6.646"><time>2000-01-01T03:49:49.000Z</time></trkpt><trkpt lat="43.75636" lon="6.64621"><ele>1077</ele><time>2000-01-01T03:49:59.000Z</time></trkpt><trkpt lat="43.75644" lon="6.64638"><time>2000-01-01T03:50:09.000Z</time></trkpt><trkpt lat="43.75653" lon="6.64657"><ele>1083</ele><time>2000-01-01T03:50:19.000Z</time></trkpt><trkpt lat="43.75657" lon="6.64665"><time>2000-01-01T03:50:29.000Z</time></trkpt><trkpt lat="43.75663" lon="6.64681"><ele>1085</ele><time>2000-01-01T03:50:39.000Z</time></trkpt><trkpt lat="43.75667" lon="6.64693"><time>2000-01-01T03:50:49.000Z</time></trkpt><trkpt lat="43.75671" lon="6.64704"><time>2000-01-01T03:50:59.000Z</time></trkpt><trkpt lat="43.75674" lon="6.64711"><ele>1086</ele><time>2000-01-01T03:51:09.000Z</time></trkpt><trkpt lat="43.75683" lon="6.64726"><time>2000-01-01T03:51:19.000Z</time></trkpt><trkpt lat="43.7569" lon="6.64742"><ele>1080</ele><time>2000-01-01T03:51:29.000Z</time></trkpt><trkpt lat="43.75694" lon="6.64768"><ele>1080</ele><time>2000-01-01T03:51:39.000Z</time></trkpt><trkpt lat="43.75696" lon="6.6478"><time>2000-01-01T03:51:49.000Z</time></trkpt><trkpt lat="43.75699" lon="6.64806"><ele>1080</ele><time>2000-01-01T03:51:59.000Z</time></trkpt><trkpt lat="43.75704" lon="6.6482"><time>2000-01-01T03:52:09.000Z</time></trkpt><trkpt lat="43.75718" lon="6.64846"><ele>1084</ele><time>2000-01-01T03:52:19.000Z</time></trkpt><trkpt lat="43.75726" lon="6.64864"><time>2000-01-01T03:52:29.000Z</time></trkpt><trkpt lat="43.75735" lon="6.64885"><ele>1084</ele><time>2000-01-01T03:52:39.000Z</time></trkpt><trkpt lat="43.75749" lon="6.64914"><ele>1084</ele><time>2000-01-01T03:52:49.000Z</time></trkpt><trkpt lat="43.75763" lon="6.64942"><ele>1077</ele><time>2000-01-01T03:52:59.000Z</time></trkpt><trkpt lat="43.75773" lon="6.64961"><time>2000-01-01T03:53:09.000Z</time></trkpt><trkpt lat="43.7578" lon="6.64974"><ele>1070</ele><time>2000-01-01T03:53:19.000Z</time></trkpt><trkpt lat="43.75792" lon="6.64993"><time>2000-01-01T03:53:29.000Z</time></trkpt><trkpt lat="43.75802" lon="6.65006"><ele>1071</ele><time>2000-01-01T03:53:39.000Z</time></trkpt><trkpt lat="43.7582" lon="6.65032"><ele>1073</ele><time>2000-01-01T03:53:49.000Z</time></trkpt><trkpt lat="43.75833" lon="6.65051"><ele>1073</ele><time>2000-01-01T03:53:59.000Z</time></trkpt><trkpt lat="43.75846" lon="6.6507"><time>2000-01-01T03:54:09.000Z</time></trkpt><trkpt lat="43.75856" lon="6.65085"><ele>1072</ele><time>2000-01-01T03:54:19.000Z</time></trkpt><trkpt lat="43.75865" lon="6.651"><time>2000-01-01T03:54:29.000Z</time></trkpt><trkpt lat="43.75871" lon="6.65112"><ele>1072</ele><time>2000-01-01T03:54:39.000Z</time></trkpt><trkpt lat="43.75878" lon="6.65131"><time>2000-01-01T03:54:49.000Z</time></trkpt><trkpt lat="43.75884" lon="6.65145"><ele>1071</ele><time>2000-01-01T03:54:59.000Z</time></trkpt><trkpt lat="43.75887" lon="6.65152"><time>2000-01-01T03:55:09.000Z</time></trkpt><trkpt lat="43.75898" lon="6.65174"><ele>1072</ele><time>2000-01-01T03:55:19.000Z</time></trkpt><trkpt lat="43.7592" lon="6.6522"><ele>1073</ele><time>2000-01-01T03:55:29.000Z</time></trkpt><trkpt lat="43.75936" lon="6.65253"><ele>1072</ele><time>2000-01-01T03:55:39.000Z</time></trkpt><trkpt lat="43.7594" lon="6.65261"><time>2000-01-01T03:55:49.000Z</time></trkpt><trkpt lat="43.75952" lon="6.65292"><ele>1071</ele><time>2000-01-01T03:55:59.000Z</time></trkpt><trkpt lat="43.75964" lon="6.65326"><ele>1064</ele><time>2000-01-01T03:56:09.000Z</time></trkpt><trkpt lat="43.75973" lon="6.65347"><time>2000-01-01T03:56:19.000Z</time></trkpt><trkpt lat="43.75983" lon="6.65372"><ele>1064</ele><time>2000-01-01T03:56:29.000Z</time></trkpt><trkpt lat="43.75987" lon="6.65385"><time>2000-01-01T03:56:39.000Z</time></trkpt><trkpt lat="43.75991" lon="6.65397"><ele>1062</ele><time>2000-01-01T03:56:49.000Z</time></trkpt><trkpt lat="43.76004" lon="6.65429"><ele>1064</ele><time>2000-01-01T03:56:59.000Z</time></trkpt><trkpt lat="43.76014" lon="6.6546"><ele>1066</ele><time>2000-01-01T03:57:09.000Z</time></trkpt><trkpt lat="43.76022" lon="6.65483"><time>2000-01-01T03:57:19.000Z</time></trkpt><trkpt lat="43.76032" lon="6.6553"><ele>1066</ele><time>2000-01-01T03:57:29.000Z</time></trkpt><trkpt lat="43.76042" lon="6.65583"><ele>1062</ele><time>2000-01-01T03:57:39.000Z</time></trkpt><trkpt lat="43.76044" lon="6.65598"><time>2000-01-01T03:57:49.000Z</time></trkpt><trkpt lat="43.7605" lon="6.65636"><ele>1062</ele><time>2000-01-01T03:57:59.000Z</time></trkpt><trkpt lat="43.76058" lon="6.65685"><ele>1062</ele><time>2000-01-01T03:58:09.000Z</time></trkpt><trkpt lat="43.7606" lon="6.65699"><time>2000-01-01T03:58:19.000Z</time></trkpt><trkpt lat="43.76071" lon="6.65735"><ele>1056</ele><time>2000-01-01T03:58:29.000Z</time></trkpt><trkpt lat="43.76086" lon="6.65773"><ele>1051</ele><time>2000-01-01T03:58:39.000Z</time></trkpt><trkpt lat="43.76098" lon="6.65796"><ele>1051</ele><time>2000-01-01T03:58:49.000Z</time></trkpt><trkpt lat="43.76087" lon="6.65785"><time>2000-01-01T03:58:59.000Z</time></trkpt><trkpt lat="43.76075" lon="6.65767"><ele>1058</ele><time>2000-01-01T03:59:09.000Z</time></trkpt><trkpt lat="43.76064" lon="6.65754"><time>2000-01-01T03:59:19.000Z</time></trkpt><trkpt lat="43.76058" lon="6.65748"><ele>1066</ele><time>2000-01-01T03:59:29.000Z</time></trkpt><trkpt lat="43.76052" lon="6.65746"><time>2000-01-01T03:59:39.000Z</time></trkpt><trkpt lat="43.76045" lon="6.65746"><time>2000-01-01T03:59:49.000Z</time></trkpt><trkpt lat="43.76041" lon="6.65751"><time>2000-01-01T03:59:59.000Z</time></trkpt><trkpt lat="43.76038" lon="6.65756"><ele>1072</ele><time>2000-01-01T04:00:09.000Z</time></trkpt><trkpt lat="43.76034" lon="6.65772"><time>2000-01-01T04:00:19.000Z</time></trkpt><trkpt lat="43.76028" lon="6.65786"><ele>1072</ele><time>2000-01-01T04:00:29.000Z</time></trkpt><trkpt lat="43.76012" lon="6.65825"><ele>1077</ele><time>2000-01-01T04:00:39.000Z</time></trkpt><trkpt lat="43.76006" lon="6.65841"><time>2000-01-01T04:00:49.000Z</time></trkpt><trkpt lat="43.75997" lon="6.65865"><ele>1083</ele><time>2000-01-01T04:00:59.000Z</time></trkpt><trkpt lat="43.75993" lon="6.65881"><time>2000-01-01T04:01:09.000Z</time></trkpt><trkpt lat="43.75977" lon="6.65935"><ele>1086</ele><time>2000-01-01T04:01:19.000Z</time></trkpt><trkpt lat="43.7597" lon="6.65958"><time>2000-01-01T04:01:29.000Z</time></trkpt><trkpt lat="43.75965" lon="6.65976"><ele>1089</ele><time>2000-01-01T04:01:39.000Z</time></trkpt><trkpt lat="43.75961" lon="6.65995"><time>2000-01-01T04:01:49.000Z</time></trkpt><trkpt lat="43.75952" lon="6.66017"><ele>1101</ele><time>2000-01-01T04:01:59.000Z</time></trkpt><trkpt lat="43.75931" lon="6.66046"><ele>1106</ele><time>2000-01-01T04:02:09.000Z</time></trkpt><trkpt lat="43.75922" lon="6.66056"><time>2000-01-01T04:02:19.000Z</time></trkpt><trkpt lat="43.75896" lon="6.66089"><ele>1113</ele><time>2000-01-01T04:02:29.000Z</time></trkpt><trkpt lat="43.75862" lon="6.6613"><ele>1122</ele><time>2000-01-01T04:02:39.000Z</time></trkpt><trkpt lat="43.75832" lon="6.66166"><ele>1144</ele><time>2000-01-01T04:02:49.000Z</time></trkpt><trkpt lat="43.75822" lon="6.66179"><time>2000-01-01T04:02:59.000Z</time></trkpt><trkpt lat="43.75818" lon="6.66185"><time>2000-01-01T04:03:09.000Z</time></trkpt><trkpt lat="43.75817" lon="6.66187"><ele>1161</ele><time>2000-01-01T04:03:19.000Z</time></trkpt><trkpt lat="43.75813" lon="6.66229"><ele>1168</ele><time>2000-01-01T04:03:29.000Z</time></trkpt><trkpt lat="43.75809" lon="6.66276"><ele>1168</ele><time>2000-01-01T04:03:39.000Z</time></trkpt><trkpt lat="43.75807" lon="6.66297"><time>2000-01-01T04:03:49.000Z</time></trkpt><trkpt lat="43.75804" lon="6.66314"><ele>1177</ele><time>2000-01-01T04:03:59.000Z</time></trkpt><trkpt lat="43.75785" lon="6.66358"><ele>1186</ele><time>2000-01-01T04:04:09.000Z</time></trkpt><trkpt lat="43.75775" lon="6.6638"><time>2000-01-01T04:04:19.000Z</time></trkpt><trkpt lat="43.7577" lon="6.66392"><ele>1198</ele><time>2000-01-01T04:04:29.000Z</time></trkpt><trkpt lat="43.75758" lon="6.66408"><time>2000-01-01T04:04:39.000Z</time></trkpt><trkpt lat="43.75744" lon="6.66423"><ele>1201</ele><time>2000-01-01T04:04:49.000Z</time></trkpt><trkpt lat="43.75738" lon="6.6643"><time>2000-01-01T04:04:59.000Z</time></trkpt><trkpt lat="43.75717" lon="6.66436"><ele>1206</ele><time>2000-01-01T04:05:09.000Z</time></trkpt><trkpt lat="43.75713" lon="6.6643"><time>2000-01-01T04:05:19.000Z</time></trkpt><trkpt lat="43.75699" lon="6.66427"><ele>1208</ele><time>2000-01-01T04:05:29.000Z</time></trkpt><trkpt lat="43.75693" lon="6.66423"><time>2000-01-01T04:05:39.000Z</time></trkpt><trkpt lat="43.75692" lon="6.6642"><time>2000-01-01T04:05:49.000Z</time></trkpt><trkpt lat="43.75692" lon="6.66406"><time>2000-01-01T04:05:59.000Z</time></trkpt><trkpt lat="43.75692" lon="6.66392"><ele>1208</ele><time>2000-01-01T04:06:09.000Z</time></trkpt><trkpt lat="43.75696" lon="6.66373"><time>2000-01-01T04:06:19.000Z</time></trkpt><trkpt lat="43.75696" lon="6.66364"><ele>1208</ele><time>2000-01-01T04:06:29.000Z</time></trkpt><trkpt lat="43.75687" lon="6.66325"><ele>1219</ele><time>2000-01-01T04:06:39.000Z</time></trkpt><trkpt lat="43.7568" lon="6.66306"><time>2000-01-01T04:06:49.000Z</time></trkpt><trkpt lat="43.75672" lon="6.66296"><ele>1236</ele><time>2000-01-01T04:06:59.000Z</time></trkpt><trkpt lat="43.75666" lon="6.66288"><time>2000-01-01T04:07:09.000Z</time></trkpt><trkpt lat="43.75657" lon="6.66264"><ele>1239</ele><time>2000-01-01T04:07:19.000Z</time></trkpt><trkpt lat="43.75654" lon="6.66255"><time>2000-01-01T04:07:29.000Z</time></trkpt><trkpt lat="43.75646" lon="6.66216"><ele>1243</ele><time>2000-01-01T04:07:39.000Z</time></trkpt><trkpt lat="43.75642" lon="6.66198"><time>2000-01-01T04:07:49.000Z</time></trkpt><trkpt lat="43.75642" lon="6.66192"><time>2000-01-01T04:07:59.000Z</time></trkpt><trkpt lat="43.75642" lon="6.66163"><ele>1254</ele><time>2000-01-01T04:08:09.000Z</time></trkpt><trkpt lat="43.75655" lon="6.66135"><ele>1262</ele><time>2000-01-01T04:08:19.000Z</time></trkpt><trkpt lat="43.75675" lon="6.66103"><ele>1264</ele><time>2000-01-01T04:08:29.000Z</time></trkpt><trkpt lat="43.75678" lon="6.66096"><time>2000-01-01T04:08:39.000Z</time></trkpt><trkpt lat="43.75677" lon="6.6609"><time>2000-01-01T04:08:49.000Z</time></trkpt><trkpt lat="43.75672" lon="6.66085"><time>2000-01-01T04:08:59.000Z</time></trkpt><trkpt lat="43.75656" lon="6.66079"><ele>1284</ele><time>2000-01-01T04:09:09.000Z</time></trkpt><trkpt lat="43.75638" lon="6.6609"><ele>1284</ele><time>2000-01-01T04:09:19.000Z</time></trkpt><trkpt lat="43.75625" lon="6.66105"><time>2000-01-01T04:09:29.000Z</time></trkpt><trkpt lat="43.75611" lon="6.66123"><ele>1285</ele><time>2000-01-01T04:09:39.000Z</time></trkpt><trkpt lat="43.75599" lon="6.66143"><time>2000-01-01T04:09:49.000Z</time></trkpt><trkpt lat="43.75586" lon="6.66166"><ele>1295</ele><time>2000-01-01T04:09:59.000Z</time></trkpt><trkpt lat="43.75583" lon="6.66172"><time>2000-01-01T04:10:09.000Z</time></trkpt><trkpt lat="43.75571" lon="6.66174"><time>2000-01-01T04:10:19.000Z</time></trkpt><trkpt lat="43.75568" lon="6.66168"><ele>1313</ele><time>2000-01-01T04:10:29.000Z</time></trkpt><trkpt lat="43.75561" lon="6.6613"><ele>1336</ele><time>2000-01-01T04:10:39.000Z</time></trkpt><trkpt lat="43.75554" lon="6.66085"><ele>1338</ele><time>2000-01-01T04:10:49.000Z</time></trkpt><trkpt lat="43.75549" lon="6.66047"><ele>1361</ele><time>2000-01-01T04:10:59.000Z</time></trkpt><trkpt lat="43.75546" lon="6.66012"><ele>1372</ele><time>2000-01-01T04:11:09.000Z</time></trkpt><trkpt lat="43.75544" lon="6.65995"><time>2000-01-01T04:11:19.000Z</time></trkpt><trkpt lat="43.75535" lon="6.65987"><ele>1383</ele><time>2000-01-01T04:11:29.000Z</time></trkpt><trkpt lat="43.75525" lon="6.6599"><time>2000-01-01T04:11:39.000Z</time></trkpt><trkpt lat="43.75521" lon="6.65992"><time>2000-01-01T04:11:49.000Z</time></trkpt><trkpt lat="43.75508" lon="6.66009"><ele>1380</ele><time>2000-01-01T04:11:59.000Z</time></trkpt><trkpt lat="43.75493" lon="6.66034"><ele>1391</ele><time>2000-01-01T04:12:09.000Z</time></trkpt><trkpt lat="43.75483" lon="6.66051"><time>2000-01-01T04:12:19.000Z</time></trkpt><trkpt lat="43.75481" lon="6.66058"><ele>1393</ele><time>2000-01-01T04:12:29.000Z</time></trkpt><trkpt lat="43.75461" lon="6.66104"><ele>1395</ele><time>2000-01-01T04:12:39.000Z</time></trkpt><trkpt lat="43.75455" lon="6.6612"><time>2000-01-01T04:12:49.000Z</time></trkpt><trkpt lat="43.75452" lon="6.66125"><time>2000-01-01T04:12:59.000Z</time></trkpt><trkpt lat="43.75446" lon="6.66129"><ele>1418</ele><time>2000-01-01T04:13:09.000Z</time></trkpt><trkpt lat="43.75439" lon="6.66123"><time>2000-01-01T04:13:19.000Z</time></trkpt><trkpt lat="43.75427" lon="6.6608"><ele>1429</ele><time>2000-01-01T04:13:29.000Z</time></trkpt><trkpt lat="43.75417" lon="6.66014"><ele>1430</ele><time>2000-01-01T04:13:39.000Z</time></trkpt><trkpt lat="43.75411" lon="6.65978"><ele>1431</ele><time>2000-01-01T04:13:49.000Z</time></trkpt><trkpt lat="43.75406" lon="6.65945"><ele>1445</ele><time>2000-01-01T04:13:59.000Z</time></trkpt><trkpt lat="43.75405" lon="6.65887"><ele>1446</ele><time>2000-01-01T04:14:09.000Z</time></trkpt><trkpt lat="43.75405" lon="6.65833"><ele>1444</ele><time>2000-01-01T04:14:19.000Z</time></trkpt><trkpt lat="43.75402" lon="6.65803"><ele>1442</ele><time>2000-01-01T04:14:29.000Z</time></trkpt><trkpt lat="43.75401" lon="6.65783"><time>2000-01-01T04:14:39.000Z</time></trkpt><trkpt lat="43.754" lon="6.65776"><ele>1442</ele><time>2000-01-01T04:14:49.000Z</time></trkpt><trkpt lat="43.75393" lon="6.65755"><time>2000-01-01T04:14:59.000Z</time></trkpt><trkpt lat="43.75386" lon="6.65741"><ele>1442</ele><time>2000-01-01T04:15:09.000Z</time></trkpt><trkpt lat="43.75373" lon="6.6573"><time>2000-01-01T04:15:19.000Z</time></trkpt><trkpt lat="43.75369" lon="6.65727"><ele>1449</ele><time>2000-01-01T04:15:29.000Z</time></trkpt><trkpt lat="43.75337" lon="6.65714"><ele>1460</ele><time>2000-01-01T04:15:39.000Z</time></trkpt><trkpt lat="43.7532" lon="6.65692"><ele>1470</ele><time>2000-01-01T04:15:49.000Z</time></trkpt><trkpt lat="43.75295" lon="6.6566"><ele>1470</ele><time>2000-01-01T04:15:59.000Z</time></trkpt><trkpt lat="43.75273" lon="6.65634"><ele>1470</ele><time>2000-01-01T04:16:09.000Z</time></trkpt><trkpt lat="43.75266" lon="6.65622"><time>2000-01-01T04:16:19.000Z</time></trkpt><trkpt lat="43.75257" lon="6.65605"><ele>1476</ele><time>2000-01-01T04:16:29.000Z</time></trkpt><trkpt lat="43.75242" lon="6.65571"><ele>1482</ele><time>2000-01-01T04:16:39.000Z</time></trkpt><trkpt lat="43.75235" lon="6.65554"><time>2000-01-01T04:16:49.000Z</time></trkpt><trkpt lat="43.75231" lon="6.65545"><ele>1497</ele><time>2000-01-01T04:16:59.000Z</time></trkpt><trkpt lat="43.75223" lon="6.65532"><time>2000-01-01T04:17:09.000Z</time></trkpt><trkpt lat="43.75211" lon="6.65512"><ele>1499</ele><time>2000-01-01T04:17:19.000Z</time></trkpt><trkpt lat="43.75203" lon="6.65499"><time>2000-01-01T04:17:29.000Z</time></trkpt><trkpt lat="43.75197" lon="6.65489"><ele>1504</ele><time>2000-01-01T04:17:39.000Z</time></trkpt><trkpt lat="43.7519" lon="6.65479"><time>2000-01-01T04:17:49.000Z</time></trkpt><trkpt lat="43.75185" lon="6.65472"><time>2000-01-01T04:17:59.000Z</time></trkpt><trkpt lat="43.75181" lon="6.65467"><ele>1505</ele><time>2000-01-01T04:18:09.000Z</time></trkpt><trkpt lat="43.75174" lon="6.65457"><time>2000-01-01T04:18:19.000Z</time></trkpt><trkpt lat="43.75172" lon="6.65454"><time>2000-01-01T04:18:29.000Z</time></trkpt><trkpt lat="43.75169" lon="6.65452"><time>2000-01-01T04:18:39.000Z</time></trkpt><trkpt lat="43.75164" lon="6.65449"><ele>1504</ele><time>2000-01-01T04:18:49.000Z</time></trkpt><trkpt lat="43.75159" lon="6.65445"><time>2000-01-01T04:18:59.000Z</time></trkpt><trkpt lat="43.75154" lon="6.65442"><time>2000-01-01T04:19:09.000Z</time></trkpt><trkpt lat="43.75152" lon="6.65439"><time>2000-01-01T04:19:19.000Z</time></trkpt><trkpt lat="43.75149" lon="6.65435"><time>2000-01-01T04:19:29.000Z</time></trkpt><trkpt lat="43.75146" lon="6.6543"><ele>1504</ele><time>2000-01-01T04:19:39.000Z</time></trkpt><trkpt lat="43.75144" lon="6.65426"><time>2000-01-01T04:19:49.000Z</time></trkpt><trkpt lat="43.75142" lon="6.65422"><time>2000-01-01T04:19:59.000Z</time></trkpt><trkpt lat="43.7514" lon="6.65414"><time>2000-01-01T04:20:09.000Z</time></trkpt><trkpt lat="43.75138" lon="6.65407"><time>2000-01-01T04:20:19.000Z</time></trkpt><trkpt lat="43.75129" lon="6.65413"><ele>1516</ele><time>2000-01-01T04:20:29.000Z</time></trkpt><trkpt lat="43.75126" lon="6.65424"><time>2000-01-01T04:20:39.000Z</time></trkpt><trkpt lat="43.75119" lon="6.65439"><ele>1516</ele><time>2000-01-01T04:20:49.000Z</time></trkpt><trkpt lat="43.75108" lon="6.65447"><time>2000-01-01T04:20:59.000Z</time></trkpt><trkpt lat="43.75104" lon="6.65441"><time>2000-01-01T04:21:09.000Z</time></trkpt><trkpt lat="43.75098" lon="6.6544"><ele>1528</ele><time>2000-01-01T04:21:19.000Z</time></trkpt><trkpt lat="43.75089" lon="6.65447"><time>2000-01-01T04:21:29.000Z</time></trkpt><trkpt lat="43.75084" lon="6.65454"><time>2000-01-01T04:21:39.000Z</time></trkpt><trkpt lat="43.7507" lon="6.65477"><ele>1547</ele><time>2000-01-01T04:21:49.000Z</time></trkpt><trkpt lat="43.75065" lon="6.65489"><time>2000-01-01T04:21:59.000Z</time></trkpt><trkpt lat="43.75063" lon="6.655"><time>2000-01-01T04:22:09.000Z</time></trkpt><trkpt lat="43.75069" lon="6.655"><ele>1547</ele><time>2000-01-01T04:22:19.000Z</time></trkpt><trkpt lat="43.75074" lon="6.65508"><time>2000-01-01T04:22:29.000Z</time></trkpt><trkpt lat="43.75076" lon="6.65515"><time>2000-01-01T04:22:39.000Z</time></trkpt><trkpt lat="43.75074" lon="6.65525"><ele>1548</ele><time>2000-01-01T04:22:49.000Z</time></trkpt><trkpt lat="43.75071" lon="6.65531"><time>2000-01-01T04:22:59.000Z</time></trkpt><trkpt lat="43.75068" lon="6.65543"><time>2000-01-01T04:23:09.000Z</time></trkpt><trkpt lat="43.75065" lon="6.65559"><ele>1562</ele><time>2000-01-01T04:23:19.000Z</time></trkpt><trkpt lat="43.75062" lon="6.65575"><time>2000-01-01T04:23:29.000Z</time></trkpt><trkpt lat="43.75057" lon="6.65593"><ele>1566</ele><time>2000-01-01T04:23:39.000Z</time></trkpt><trkpt lat="43.75046" lon="6.65609"><time>2000-01-01T04:23:49.000Z</time></trkpt><trkpt lat="43.75036" lon="6.6563"><ele>1580</ele><time>2000-01-01T04:23:59.000Z</time></trkpt><trkpt lat="43.75025" lon="6.65653"><ele>1584</ele><time>2000-01-01T04:24:09.000Z</time></trkpt><trkpt lat="43.75017" lon="6.65681"><ele>1603</ele><time>2000-01-01T04:24:19.000Z</time></trkpt><trkpt lat="43.75005" lon="6.65699"><time>2000-01-01T04:24:29.000Z</time></trkpt><trkpt lat="43.74987" lon="6.65718"><ele>1609</ele><time>2000-01-01T04:24:39.000Z</time></trkpt><trkpt lat="43.74968" lon="6.65727"><ele>1609</ele><time>2000-01-01T04:24:49.000Z</time></trkpt><trkpt lat="43.74954" lon="6.65732"><time>2000-01-01T04:24:59.000Z</time></trkpt><trkpt lat="43.74934" lon="6.65738"><ele>1615</ele><time>2000-01-01T04:25:09.000Z</time></trkpt><trkpt lat="43.74916" lon="6.65739"><time>2000-01-01T04:25:19.000Z</time></trkpt><trkpt lat="43.74894" lon="6.65748"><ele>1622</ele><time>2000-01-01T04:25:29.000Z</time></trkpt><trkpt lat="43.74867" lon="6.65752"><ele>1626</ele><time>2000-01-01T04:25:39.000Z</time></trkpt><trkpt lat="43.74847" lon="6.6576"><ele>1629</ele><time>2000-01-01T04:25:49.000Z</time></trkpt><trkpt lat="43.74834" lon="6.65755"><time>2000-01-01T04:25:59.000Z</time></trkpt><trkpt lat="43.74823" lon="6.65756"><ele>1629</ele><time>2000-01-01T04:26:09.000Z</time></trkpt><trkpt lat="43.74812" lon="6.65751"><time>2000-01-01T04:26:19.000Z</time></trkpt><trkpt lat="43.748" lon="6.65744"><ele>1630</ele><time>2000-01-01T04:26:29.000Z</time></trkpt><trkpt lat="43.7479" lon="6.65739"><time>2000-01-01T04:26:39.000Z</time></trkpt><trkpt lat="43.74783" lon="6.65732"><time>2000-01-01T04:26:49.000Z</time></trkpt><trkpt lat="43.74766" lon="6.65724"><ele>1630</ele><time>2000-01-01T04:26:59.000Z</time></trkpt><trkpt lat="43.74748" lon="6.65716"><time>2000-01-01T04:27:09.000Z</time></trkpt><trkpt lat="43.74727" lon="6.65707"><ele>1626</ele><time>2000-01-01T04:27:19.000Z</time></trkpt><trkpt lat="43.74709" lon="6.657"><time>2000-01-01T04:27:29.000Z</time></trkpt><trkpt lat="43.74697" lon="6.65688"><ele>1625</ele><time>2000-01-01T04:27:39.000Z</time></trkpt><trkpt lat="43.74685" lon="6.65671"><time>2000-01-01T04:27:49.000Z</time></trkpt><trkpt lat="43.74678" lon="6.65653"><ele>1627</ele><time>2000-01-01T04:27:59.000Z</time></trkpt><trkpt lat="43.74672" lon="6.65638"><time>2000-01-01T04:28:09.000Z</time></trkpt><trkpt lat="43.74661" lon="6.6562"><ele>1629</ele><time>2000-01-01T04:28:19.000Z</time></trkpt><trkpt lat="43.74647" lon="6.6562"><time>2000-01-01T04:28:29.000Z</time></trkpt><trkpt lat="43.74637" lon="6.65619"><ele>1630</ele><time>2000-01-01T04:28:39.000Z</time></trkpt><trkpt lat="43.74622" lon="6.6561"><time>2000-01-01T04:28:49.000Z</time></trkpt><trkpt lat="43.74609" lon="6.65599"><ele>1636</ele><time>2000-01-01T04:28:59.000Z</time></trkpt><trkpt lat="43.74594" lon="6.65585"><time>2000-01-01T04:29:09.000Z</time></trkpt><trkpt lat="43.7458" lon="6.65569"><ele>1643</ele><time>2000-01-01T04:29:19.000Z</time></trkpt><trkpt lat="43.7457" lon="6.65558"><time>2000-01-01T04:29:29.000Z</time></trkpt><trkpt lat="43.74559" lon="6.65545"><ele>1648</ele><time>2000-01-01T04:29:39.000Z</time></trkpt><trkpt lat="43.74547" lon="6.65527"><time>2000-01-01T04:29:49.000Z</time></trkpt><trkpt lat="43.74539" lon="6.65512"><ele>1656</ele><time>2000-01-01T04:29:59.000Z</time></trkpt><trkpt lat="43.74529" lon="6.65497"><time>2000-01-01T04:30:09.000Z</time></trkpt><trkpt lat="43.7452" lon="6.65483"><ele>1662</ele><time>2000-01-01T04:30:19.000Z</time></trkpt><trkpt lat="43.74514" lon="6.65475"><time>2000-01-01T04:30:29.000Z</time></trkpt><trkpt lat="43.74505" lon="6.65465"><ele>1666</ele><time>2000-01-01T04:30:39.000Z</time></trkpt><trkpt lat="43.74498" lon="6.65454"><time>2000-01-01T04:30:49.000Z</time></trkpt><trkpt lat="43.74488" lon="6.65436"><ele>1674</ele><time>2000-01-01T04:30:59.000Z</time></trkpt><trkpt lat="43.74481" lon="6.65423"><time>2000-01-01T04:31:09.000Z</time></trkpt><trkpt lat="43.74477" lon="6.6541"><ele>1674</ele><time>2000-01-01T04:31:19.000Z</time></trkpt><trkpt lat="43.74477" lon="6.65399"><time>2000-01-01T04:31:29.000Z</time></trkpt><trkpt lat="43.74478" lon="6.65387"><time>2000-01-01T04:31:39.000Z</time></trkpt><trkpt lat="43.74481" lon="6.65373"><ele>1675</ele><time>2000-01-01T04:31:49.000Z</time></trkpt><trkpt lat="43.74484" lon="6.65363"><time>2000-01-01T04:31:59.000Z</time></trkpt><trkpt lat="43.74488" lon="6.65356"><time>2000-01-01T04:32:09.000Z</time></trkpt><trkpt lat="43.74497" lon="6.65347"><ele>1675</ele><time>2000-01-01T04:32:19.000Z</time></trkpt><trkpt lat="43.7449" lon="6.65336"><time>2000-01-01T04:32:29.000Z</time></trkpt><trkpt lat="43.7447" lon="6.65303"><ele>1675</ele><time>2000-01-01T04:32:39.000Z</time></trkpt><trkpt lat="43.7445" lon="6.65273"><ele>1667</ele><time>2000-01-01T04:32:49.000Z</time></trkpt><trkpt lat="43.74425" lon="6.65226"><ele>1646</ele><time>2000-01-01T04:32:59.000Z</time></trkpt><trkpt lat="43.74403" lon="6.65188"><ele>1644</ele><time>2000-01-01T04:33:09.000Z</time></trkpt><trkpt lat="43.74385" lon="6.65157"><ele>1642</ele><time>2000-01-01T04:33:19.000Z</time></trkpt><trkpt lat="43.74369" lon="6.65132"><ele>1642</ele><time>2000-01-01T04:33:29.000Z</time></trkpt><trkpt lat="43.74363" lon="6.6512"><time>2000-01-01T04:33:39.000Z</time></trkpt><trkpt lat="43.74299" lon="6.65045"><ele>1637</ele><time>2000-01-01T04:33:49.000Z</time></trkpt><trkpt lat="43.74285" lon="6.65027"><time>2000-01-01T04:33:59.000Z</time></trkpt><trkpt lat="43.74224" lon="6.64936"><ele>1632</ele><time>2000-01-01T04:34:09.000Z</time></trkpt><trkpt lat="43.7419" lon="6.64889"><ele>1628</ele><time>2000-01-01T04:34:19.000Z</time></trkpt><trkpt lat="43.74168" lon="6.64863"><ele>1622</ele><time>2000-01-01T04:34:29.000Z</time></trkpt><trkpt lat="43.74132" lon="6.64821"><ele>1612</ele><time>2000-01-01T04:34:39.000Z</time></trkpt><trkpt lat="43.74112" lon="6.648"><ele>1605</ele><time>2000-01-01T04:34:49.000Z</time></trkpt><trkpt lat="43.74092" lon="6.64777"><ele>1596</ele><time>2000-01-01T04:34:59.000Z</time></trkpt><trkpt lat="43.7407" lon="6.64756"><ele>1587</ele><time>2000-01-01T04:35:09.000Z</time></trkpt><trkpt lat="43.74044" lon="6.64731"><ele>1574</ele><time>2000-01-01T04:35:19.000Z</time></trkpt><trkpt lat="43.74013" lon="6.64707"><ele>1557</ele><time>2000-01-01T04:35:29.000Z</time></trkpt><trkpt lat="43.73992" lon="6.64677"><ele>1556</ele><time>2000-01-01T04:35:39.000Z</time></trkpt><trkpt lat="43.73965" lon="6.64645"><ele>1552</ele><time>2000-01-01T04:35:49.000Z</time></trkpt><trkpt lat="43.73972" lon="6.64611"><ele>1549</ele><time>2000-01-01T04:35:59.000Z</time></trkpt><trkpt lat="43.73968" lon="6.64587"><time>2000-01-01T04:36:09.000Z</time></trkpt><trkpt lat="43.73986" lon="6.64559"><ele>1540</ele><time>2000-01-01T04:36:19.000Z</time></trkpt><trkpt lat="43.73989" lon="6.64523"><ele>1533</ele><time>2000-01-01T04:36:29.000Z</time></trkpt><trkpt lat="43.73987" lon="6.64493"><ele>1528</ele><time>2000-01-01T04:36:39.000Z</time></trkpt><trkpt lat="43.73995" lon="6.64454"><ele>1528</ele><time>2000-01-01T04:36:49.000Z</time></trkpt><trkpt lat="43.73993" lon="6.64426"><ele>1525</ele><time>2000-01-01T04:36:59.000Z</time></trkpt><trkpt lat="43.7399" lon="6.64405"><time>2000-01-01T04:37:09.000Z</time></trkpt><trkpt lat="43.73982" lon="6.64364"><ele>1513</ele><time>2000-01-01T04:37:19.000Z</time></trkpt><trkpt lat="43.7398" lon="6.64354"><time>2000-01-01T04:37:29.000Z</time></trkpt><trkpt lat="43.73981" lon="6.64346"><time>2000-01-01T04:37:39.000Z</time></trkpt><trkpt lat="43.73979" lon="6.64339"><time>2000-01-01T04:37:49.000Z</time></trkpt><trkpt lat="43.73981" lon="6.64334"><ele>1509</ele><time>2000-01-01T04:37:59.000Z</time></trkpt><trkpt lat="43.73981" lon="6.64323"><time>2000-01-01T04:38:09.000Z</time></trkpt><trkpt lat="43.73984" lon="6.64303"><ele>1501</ele><time>2000-01-01T04:38:19.000Z</time></trkpt><trkpt lat="43.73985" lon="6.64295"><time>2000-01-01T04:38:29.000Z</time></trkpt><trkpt lat="43.73989" lon="6.64284"><time>2000-01-01T04:38:39.000Z</time></trkpt><trkpt lat="43.73992" lon="6.6427"><ele>1487</ele><time>2000-01-01T04:38:49.000Z</time></trkpt><trkpt lat="43.73998" lon="6.64257"><time>2000-01-01T04:38:59.000Z</time></trkpt><trkpt lat="43.74006" lon="6.64246"><ele>1487</ele><time>2000-01-01T04:39:09.000Z</time></trkpt><trkpt lat="43.74011" lon="6.64238"><time>2000-01-01T04:39:19.000Z</time></trkpt><trkpt lat="43.74015" lon="6.64231"><time>2000-01-01T04:39:29.000Z</time></trkpt><trkpt lat="43.74016" lon="6.64225"><time>2000-01-01T04:39:39.000Z</time></trkpt><trkpt lat="43.7402" lon="6.64217"><ele>1481</ele><time>2000-01-01T04:39:49.000Z</time></trkpt><trkpt lat="43.7402" lon="6.64212"><time>2000-01-01T04:39:59.000Z</time></trkpt><trkpt lat="43.74025" lon="6.642"><time>2000-01-01T04:40:09.000Z</time></trkpt><trkpt lat="43.74027" lon="6.64192"><ele>1478</ele><time>2000-01-01T04:40:19.000Z</time></trkpt><trkpt lat="43.74027" lon="6.64185"><time>2000-01-01T04:40:29.000Z</time></trkpt><trkpt lat="43.7403" lon="6.64177"><time>2000-01-01T04:40:39.000Z</time></trkpt><trkpt lat="43.74035" lon="6.6417"><time>2000-01-01T04:40:49.000Z</time></trkpt><trkpt lat="43.74035" lon="6.64166"><ele>1474</ele><time>2000-01-01T04:40:59.000Z</time></trkpt><trkpt lat="43.74038" lon="6.64164"><time>2000-01-01T04:41:09.000Z</time></trkpt><trkpt lat="43.74041" lon="6.64162"><time>2000-01-01T04:41:19.000Z</time></trkpt><trkpt lat="43.74042" lon="6.64158"><time>2000-01-01T04:41:29.000Z</time></trkpt><trkpt lat="43.74044" lon="6.64152"><time>2000-01-01T04:41:39.000Z</time></trkpt><trkpt lat="43.74048" lon="6.64149"><time>2000-01-01T04:41:49.000Z</time></trkpt><trkpt lat="43.74052" lon="6.64142"><ele>1465</ele><time>2000-01-01T04:41:59.000Z</time></trkpt><trkpt lat="43.74057" lon="6.64138"><time>2000-01-01T04:42:09.000Z</time></trkpt><trkpt lat="43.74057" lon="6.64133"><time>2000-01-01T04:42:19.000Z</time></trkpt><trkpt lat="43.74061" lon="6.64126"><time>2000-01-01T04:42:29.000Z</time></trkpt><trkpt lat="43.74063" lon="6.64119"><ele>1462</ele><time>2000-01-01T04:42:39.000Z</time></trkpt><trkpt lat="43.74072" lon="6.6411"><time>2000-01-01T04:42:49.000Z</time></trkpt><trkpt lat="43.74078" lon="6.64099"><ele>1457</ele><time>2000-01-01T04:42:59.000Z</time></trkpt><trkpt lat="43.74086" lon="6.64099"><time>2000-01-01T04:43:09.000Z</time></trkpt><trkpt lat="43.74091" lon="6.641"><time>2000-01-01T04:43:19.000Z</time></trkpt><trkpt lat="43.74118" lon="6.64097"><ele>1456</ele><time>2000-01-01T04:43:29.000Z</time></trkpt><trkpt lat="43.74127" lon="6.64102"><time>2000-01-01T04:43:39.000Z</time></trkpt><trkpt lat="43.74134" lon="6.64097"><time>2000-01-01T04:43:49.000Z</time></trkpt><trkpt lat="43.74146" lon="6.64086"><ele>1453</ele><time>2000-01-01T04:43:59.000Z</time></trkpt><trkpt lat="43.74154" lon="6.64071"><time>2000-01-01T04:44:09.000Z</time></trkpt><trkpt lat="43.74166" lon="6.64061"><ele>1443</ele><time>2000-01-01T04:44:19.000Z</time></trkpt><trkpt lat="43.74186" lon="6.64063"><time>2000-01-01T04:44:29.000Z</time></trkpt><trkpt lat="43.74233" lon="6.64035"><ele>1436</ele><time>2000-01-01T04:44:39.000Z</time></trkpt><trkpt lat="43.74267" lon="6.63997"><ele>1434</ele><time>2000-01-01T04:44:49.000Z</time></trkpt><trkpt lat="43.74292" lon="6.6398"><ele>1433</ele><time>2000-01-01T04:44:59.000Z</time></trkpt><trkpt lat="43.74325" lon="6.63957"><ele>1438</ele><time>2000-01-01T04:45:09.000Z</time></trkpt><trkpt lat="43.74335" lon="6.63957"><time>2000-01-01T04:45:19.000Z</time></trkpt><trkpt lat="43.74353" lon="6.63971"><ele>1439</ele><time>2000-01-01T04:45:29.000Z</time></trkpt><trkpt lat="43.74362" lon="6.63972"><time>2000-01-01T04:45:39.000Z</time></trkpt><trkpt lat="43.74383" lon="6.63961"><ele>1437</ele><time>2000-01-01T04:45:49.000Z</time></trkpt><trkpt lat="43.74399" lon="6.63964"><time>2000-01-01T04:45:59.000Z</time></trkpt><trkpt lat="43.74405" lon="6.63958"><ele>1435</ele><time>2000-01-01T04:46:09.000Z</time></trkpt><trkpt lat="43.74411" lon="6.63957"><time>2000-01-01T04:46:19.000Z</time></trkpt><trkpt lat="43.74428" lon="6.63944"><ele>1427</ele><time>2000-01-01T04:46:29.000Z</time></trkpt><trkpt lat="43.74433" lon="6.63943"><time>2000-01-01T04:46:39.000Z</time></trkpt><trkpt lat="43.74436" lon="6.63937"><time>2000-01-01T04:46:49.000Z</time></trkpt><trkpt lat="43.7444" lon="6.63933"><time>2000-01-01T04:46:59.000Z</time></trkpt><trkpt lat="43.74443" lon="6.63926"><ele>1409</ele><time>2000-01-01T04:47:09.000Z</time></trkpt><trkpt lat="43.74448" lon="6.63922"><time>2000-01-01T04:47:19.000Z</time></trkpt><trkpt lat="43.74452" lon="6.63911"><time>2000-01-01T04:47:29.000Z</time></trkpt><trkpt lat="43.74453" lon="6.63904"><ele>1404</ele><time>2000-01-01T04:47:39.000Z</time></trkpt><trkpt lat="43.74459" lon="6.63899"><time>2000-01-01T04:47:49.000Z</time></trkpt><trkpt lat="43.74468" lon="6.63896"><time>2000-01-01T04:47:59.000Z</time></trkpt><trkpt lat="43.74474" lon="6.63892"><ele>1403</ele><time>2000-01-01T04:48:09.000Z</time></trkpt><trkpt lat="43.7449" lon="6.63881"><time>2000-01-01T04:48:19.000Z</time></trkpt><trkpt lat="43.74494" lon="6.63876"><ele>1403</ele><time>2000-01-01T04:48:29.000Z</time></trkpt><trkpt lat="43.74496" lon="6.63872"><time>2000-01-01T04:48:39.000Z</time></trkpt><trkpt lat="43.745" lon="6.63869"><time>2000-01-01T04:48:49.000Z</time></trkpt><trkpt lat="43.74506" lon="6.63872"><time>2000-01-01T04:48:59.000Z</time></trkpt><trkpt lat="43.74525" lon="6.63873"><ele>1402</ele><time>2000-01-01T04:49:09.000Z</time></trkpt><trkpt lat="43.74525" lon="6.63868"><time>2000-01-01T04:49:19.000Z</time></trkpt><trkpt lat="43.74525" lon="6.63855"><time>2000-01-01T04:49:29.000Z</time></trkpt><trkpt lat="43.74525" lon="6.63848"><time>2000-01-01T04:49:39.000Z</time></trkpt><trkpt lat="43.74523" lon="6.6384"><ele>1402</ele><time>2000-01-01T04:49:49.000Z</time></trkpt><trkpt lat="43.74518" lon="6.63829"><time>2000-01-01T04:49:59.000Z</time></trkpt><trkpt lat="43.74512" lon="6.63819"><time>2000-01-01T04:50:09.000Z</time></trkpt><trkpt lat="43.74496" lon="6.63796"><ele>1380</ele><time>2000-01-01T04:50:19.000Z</time></trkpt><trkpt lat="43.74484" lon="6.63788"><time>2000-01-01T04:50:29.000Z</time></trkpt><trkpt lat="43.74474" lon="6.63787"><ele>1377</ele><time>2000-01-01T04:50:39.000Z</time></trkpt><trkpt lat="43.74463" lon="6.63789"><time>2000-01-01T04:50:49.000Z</time></trkpt><trkpt lat="43.7445" lon="6.63795"><ele>1372</ele><time>2000-01-01T04:50:59.000Z</time></trkpt><trkpt lat="43.74443" lon="6.63799"><time>2000-01-01T04:51:09.000Z</time></trkpt><trkpt lat="43.74419" lon="6.63806"><ele>1372</ele><time>2000-01-01T04:51:19.000Z</time></trkpt><trkpt lat="43.74396" lon="6.63812"><ele>1374</ele><time>2000-01-01T04:51:29.000Z</time></trkpt><trkpt lat="43.74379" lon="6.63816"><time>2000-01-01T04:51:39.000Z</time></trkpt><trkpt lat="43.74365" lon="6.63825"><ele>1374</ele><time>2000-01-01T04:51:49.000Z</time></trkpt><trkpt lat="43.74354" lon="6.63837"><time>2000-01-01T04:51:59.000Z</time></trkpt><trkpt lat="43.74339" lon="6.63845"><ele>1374</ele><time>2000-01-01T04:52:09.000Z</time></trkpt><trkpt lat="43.74327" lon="6.63845"><time>2000-01-01T04:52:19.000Z</time></trkpt><trkpt lat="43.74313" lon="6.63844"><ele>1378</ele><time>2000-01-01T04:52:29.000Z</time></trkpt><trkpt lat="43.74297" lon="6.6384"><time>2000-01-01T04:52:39.000Z</time></trkpt><trkpt lat="43.74273" lon="6.63832"><ele>1377</ele><time>2000-01-01T04:52:49.000Z</time></trkpt><trkpt lat="43.7427" lon="6.63831"><time>2000-01-01T04:52:59.000Z</time></trkpt><trkpt lat="43.74255" lon="6.6383"><time>2000-01-01T04:53:09.000Z</time></trkpt><trkpt lat="43.74241" lon="6.63834"><ele>1377</ele><time>2000-01-01T04:53:19.000Z</time></trkpt><trkpt lat="43.74214" lon="6.63849"><ele>1373</ele><time>2000-01-01T04:53:29.000Z</time></trkpt><trkpt lat="43.74211" lon="6.63851"><time>2000-01-01T04:53:39.000Z</time></trkpt><trkpt lat="43.74191" lon="6.63856"><ele>1371</ele><time>2000-01-01T04:53:49.000Z</time></trkpt><trkpt lat="43.74171" lon="6.63859"><ele>1374</ele><time>2000-01-01T04:53:59.000Z</time></trkpt><trkpt lat="43.74161" lon="6.63858"><time>2000-01-01T04:54:09.000Z</time></trkpt><trkpt lat="43.74146" lon="6.63852"><ele>1369</ele><time>2000-01-01T04:54:19.000Z</time></trkpt><trkpt lat="43.74147" lon="6.63848"><time>2000-01-01T04:54:29.000Z</time></trkpt><trkpt lat="43.74152" lon="6.63843"><time>2000-01-01T04:54:39.000Z</time></trkpt><trkpt lat="43.74158" lon="6.63833"><time>2000-01-01T04:54:49.000Z</time></trkpt><trkpt lat="43.74161" lon="6.6383"><ele>1364</ele><time>2000-01-01T04:54:59.000Z</time></trkpt><trkpt lat="43.7416" lon="6.6382"><time>2000-01-01T04:55:09.000Z</time></trkpt><trkpt lat="43.74156" lon="6.63807"><time>2000-01-01T04:55:19.000Z</time></trkpt><trkpt lat="43.7415" lon="6.63797"><ele>1358</ele><time>2000-01-01T04:55:29.000Z</time></trkpt><trkpt lat="43.74147" lon="6.63792"><time>2000-01-01T04:55:39.000Z</time></trkpt><trkpt lat="43.74145" lon="6.63786"><time>2000-01-01T04:55:49.000Z</time></trkpt><trkpt lat="43.74141" lon="6.63779"><time>2000-01-01T04:55:59.000Z</time></trkpt><trkpt lat="43.74139" lon="6.63775"><ele>1358</ele><time>2000-01-01T04:56:09.000Z</time></trkpt><trkpt lat="43.74136" lon="6.63774"><time>2000-01-01T04:56:19.000Z</time></trkpt><trkpt lat="43.74134" lon="6.6377"><time>2000-01-01T04:56:29.000Z</time></trkpt><trkpt lat="43.74132" lon="6.63767"><time>2000-01-01T04:56:39.000Z</time></trkpt><trkpt lat="43.74127" lon="6.63765"><time>2000-01-01T04:56:49.000Z</time></trkpt><trkpt lat="43.7413" lon="6.63761"><time>2000-01-01T04:56:59.000Z</time></trkpt><trkpt lat="43.74132" lon="6.63756"><ele>1348</ele><time>2000-01-01T04:57:09.000Z</time></trkpt><trkpt lat="43.74133" lon="6.63753"><time>2000-01-01T04:57:19.000Z</time></trkpt><trkpt lat="43.74131" lon="6.63747"><time>2000-01-01T04:57:29.000Z</time></trkpt><trkpt lat="43.74127" lon="6.63739"><time>2000-01-01T04:57:39.000Z</time></trkpt><trkpt lat="43.74123" lon="6.63733"><ele>1334</ele><time>2000-01-01T04:57:49.000Z</time></trkpt><trkpt lat="43.74119" lon="6.63726"><time>2000-01-01T04:57:59.000Z</time></trkpt><trkpt lat="43.74116" lon="6.63723"><time>2000-01-01T04:58:09.000Z</time></trkpt><trkpt lat="43.74112" lon="6.63719"><time>2000-01-01T04:58:19.000Z</time></trkpt><trkpt lat="43.74106" lon="6.63717"><ele>1334</ele><time>2000-01-01T04:58:29.000Z</time></trkpt><trkpt lat="43.74102" lon="6.63717"><time>2000-01-01T04:58:39.000Z</time></trkpt><trkpt lat="43.74096" lon="6.63712"><time>2000-01-01T04:58:49.000Z</time></trkpt><trkpt lat="43.74086" lon="6.63706"><ele>1325</ele><time>2000-01-01T04:58:59.000Z</time></trkpt><trkpt lat="43.74079" lon="6.63701"><time>2000-01-01T04:59:09.000Z</time></trkpt><trkpt lat="43.74076" lon="6.637"><time>2000-01-01T04:59:19.000Z</time></trkpt><trkpt lat="43.7407" lon="6.63701"><time>2000-01-01T04:59:29.000Z</time></trkpt><trkpt lat="43.74067" lon="6.63702"><ele>1322</ele><time>2000-01-01T04:59:39.000Z</time></trkpt><trkpt lat="43.74054" lon="6.63702"><time>2000-01-01T04:59:49.000Z</time></trkpt><trkpt lat="43.74037" lon="6.63692"><ele>1319</ele><time>2000-01-01T04:59:59.000Z</time></trkpt><trkpt lat="43.74029" lon="6.63687"><time>2000-01-01T05:00:09.000Z</time></trkpt><trkpt lat="43.74019" lon="6.63684"><time>2000-01-01T05:00:19.000Z</time></trkpt><trkpt lat="43.74015" lon="6.63682"><ele>1307</ele><time>2000-01-01T05:00:29.000Z</time></trkpt><trkpt lat="43.74004" lon="6.63683"><time>2000-01-01T05:00:39.000Z</time></trkpt><trkpt lat="43.73995" lon="6.63675"><ele>1307</ele><time>2000-01-01T05:00:49.000Z</time></trkpt><trkpt lat="43.73991" lon="6.63672"><time>2000-01-01T05:00:59.000Z</time></trkpt><trkpt lat="43.73986" lon="6.63662"><time>2000-01-01T05:01:09.000Z</time></trkpt><trkpt lat="43.73983" lon="6.63653"><ele>1283</ele><time>2000-01-01T05:01:19.000Z</time></trkpt><trkpt lat="43.73979" lon="6.63648"><time>2000-01-01T05:01:29.000Z</time></trkpt><trkpt lat="43.73978" lon="6.63646"><time>2000-01-01T05:01:39.000Z</time></trkpt><trkpt lat="43.73964" lon="6.63639"><ele>1283</ele><time>2000-01-01T05:01:49.000Z</time></trkpt><trkpt lat="43.73955" lon="6.63636"><time>2000-01-01T05:01:59.000Z</time></trkpt><trkpt lat="43.73951" lon="6.63633"><time>2000-01-01T05:02:09.000Z</time></trkpt><trkpt lat="43.73937" lon="6.6363"><ele>1278</ele><time>2000-01-01T05:02:19.000Z</time></trkpt><trkpt lat="43.73934" lon="6.63629"><time>2000-01-01T05:02:29.000Z</time></trkpt><trkpt lat="43.73929" lon="6.63629"><time>2000-01-01T05:02:39.000Z</time></trkpt><trkpt lat="43.73917" lon="6.63633"><time>2000-01-01T05:02:49.000Z</time></trkpt><trkpt lat="43.73906" lon="6.63634"><ele>1274</ele><time>2000-01-01T05:02:59.000Z</time></trkpt><trkpt lat="43.73901" lon="6.63631"><time>2000-01-01T05:03:09.000Z</time></trkpt><trkpt lat="43.73896" lon="6.6363"><time>2000-01-01T05:03:19.000Z</time></trkpt><trkpt lat="43.73887" lon="6.6363"><ele>1274</ele><time>2000-01-01T05:03:29.000Z</time></trkpt><trkpt lat="43.73873" lon="6.63626"><time>2000-01-01T05:03:39.000Z</time></trkpt><trkpt lat="43.73868" lon="6.63626"><time>2000-01-01T05:03:49.000Z</time></trkpt><trkpt lat="43.73864" lon="6.63627"><ele>1265</ele><time>2000-01-01T05:03:59.000Z</time></trkpt><trkpt lat="43.7386" lon="6.63629"><time>2000-01-01T05:04:09.000Z</time></trkpt><trkpt lat="43.73853" lon="6.63629"><time>2000-01-01T05:04:19.000Z</time></trkpt><trkpt lat="43.73848" lon="6.6363"><time>2000-01-01T05:04:29.000Z</time></trkpt><trkpt lat="43.73845" lon="6.63632"><time>2000-01-01T05:04:39.000Z</time></trkpt><trkpt lat="43.73839" lon="6.63627"><ele>1252</ele><time>2000-01-01T05:04:49.000Z</time></trkpt><trkpt lat="43.73827" lon="6.63627"><time>2000-01-01T05:04:59.000Z</time></trkpt><trkpt lat="43.73819" lon="6.63626"><ele>1248</ele><time>2000-01-01T05:05:09.000Z</time></trkpt><trkpt lat="43.73812" lon="6.63626"><time>2000-01-01T05:05:19.000Z</time></trkpt><trkpt lat="43.73804" lon="6.63623"><time>2000-01-01T05:05:29.000Z</time></trkpt><trkpt lat="43.73799" lon="6.6362"><ele>1241</ele><time>2000-01-01T05:05:39.000Z</time></trkpt><trkpt lat="43.73789" lon="6.63622"><time>2000-01-01T05:05:49.000Z</time></trkpt><trkpt lat="43.73779" lon="6.63619"><ele>1241</ele><time>2000-01-01T05:05:59.000Z</time></trkpt><trkpt lat="43.73776" lon="6.63618"><time>2000-01-01T05:06:09.000Z</time></trkpt><trkpt lat="43.73771" lon="6.63618"><time>2000-01-01T05:06:19.000Z</time></trkpt><trkpt lat="43.7376" lon="6.63615"><time>2000-01-01T05:06:29.000Z</time></trkpt><trkpt lat="43.73754" lon="6.63612"><ele>1237</ele><time>2000-01-01T05:06:39.000Z</time></trkpt><trkpt lat="43.73745" lon="6.6361"><time>2000-01-01T05:06:49.000Z</time></trkpt><trkpt lat="43.7374" lon="6.63607"><time>2000-01-01T05:06:59.000Z</time></trkpt><trkpt lat="43.73741" lon="6.63603"><time>2000-01-01T05:07:09.000Z</time></trkpt><trkpt lat="43.73744" lon="6.63596"><ele>1235</ele><time>2000-01-01T05:07:19.000Z</time></trkpt><trkpt lat="43.73746" lon="6.63589"><time>2000-01-01T05:07:29.000Z</time></trkpt><trkpt lat="43.73749" lon="6.63585"><time>2000-01-01T05:07:39.000Z</time></trkpt><trkpt lat="43.73758" lon="6.63576"><ele>1235</ele><time>2000-01-01T05:07:49.000Z</time></trkpt><trkpt lat="43.73766" lon="6.63571"><time>2000-01-01T05:07:59.000Z</time></trkpt><trkpt lat="43.73775" lon="6.6356"><ele>1225</ele><time>2000-01-01T05:08:09.000Z</time></trkpt><trkpt lat="43.73778" lon="6.63559"><time>2000-01-01T05:08:19.000Z</time></trkpt><trkpt lat="43.73782" lon="6.63551"><time>2000-01-01T05:08:29.000Z</time></trkpt><trkpt lat="43.73767" lon="6.6354"><ele>1217</ele><time>2000-01-01T05:08:39.000Z</time></trkpt><trkpt lat="43.73761" lon="6.63535"><time>2000-01-01T05:08:49.000Z</time></trkpt><trkpt lat="43.73762" lon="6.63533"><time>2000-01-01T05:08:59.000Z</time></trkpt><trkpt lat="43.7377" lon="6.63527"><time>2000-01-01T05:09:09.000Z</time></trkpt><trkpt lat="43.73773" lon="6.63525"><ele>1217</ele><time>2000-01-01T05:09:19.000Z</time></trkpt><trkpt lat="43.73777" lon="6.63523"><time>2000-01-01T05:09:29.000Z</time></trkpt><trkpt lat="43.73785" lon="6.63515"><time>2000-01-01T05:09:39.000Z</time></trkpt><trkpt lat="43.73796" lon="6.63507"><ele>1214</ele><time>2000-01-01T05:09:49.000Z</time></trkpt><trkpt lat="43.73817" lon="6.63494"><ele>1212</ele><time>2000-01-01T05:09:59.000Z</time></trkpt><trkpt lat="43.73828" lon="6.63486"><time>2000-01-01T05:10:09.000Z</time></trkpt><trkpt lat="43.73847" lon="6.63482"><ele>1207</ele><time>2000-01-01T05:10:19.000Z</time></trkpt><trkpt lat="43.73852" lon="6.63482"><time>2000-01-01T05:10:29.000Z</time></trkpt><trkpt lat="43.73873" lon="6.63474"><ele>1206</ele><time>2000-01-01T05:10:39.000Z</time></trkpt><trkpt lat="43.73877" lon="6.63474"><time>2000-01-01T05:10:49.000Z</time></trkpt><trkpt lat="43.73883" lon="6.63472"><time>2000-01-01T05:10:59.000Z</time></trkpt><trkpt lat="43.73891" lon="6.6347"><time>2000-01-01T05:11:09.000Z</time></trkpt><trkpt lat="43.73898" lon="6.63467"><ele>1203</ele><time>2000-01-01T05:11:19.000Z</time></trkpt><trkpt lat="43.73906" lon="6.63465"><time>2000-01-01T05:11:29.000Z</time></trkpt><trkpt lat="43.73915" lon="6.63458"><time>2000-01-01T05:11:39.000Z</time></trkpt><trkpt lat="43.73924" lon="6.63456"><ele>1187</ele><time>2000-01-01T05:11:49.000Z</time></trkpt><trkpt lat="43.73922" lon="6.6345"><time>2000-01-01T05:11:59.000Z</time></trkpt><trkpt lat="43.7391" lon="6.63438"><time>2000-01-01T05:12:09.000Z</time></trkpt><trkpt lat="43.73908" lon="6.63437"><ele>1173</ele><time>2000-01-01T05:12:19.000Z</time></trkpt><trkpt lat="43.73906" lon="6.63433"><time>2000-01-01T05:12:29.000Z</time></trkpt><trkpt lat="43.73903" lon="6.63433"><time>2000-01-01T05:12:39.000Z</time></trkpt><trkpt lat="43.73894" lon="6.63422"><time>2000-01-01T05:12:49.000Z</time></trkpt><trkpt lat="43.73876" lon="6.63412"><ele>1172</ele><time>2000-01-01T05:12:59.000Z</time></trkpt><trkpt lat="43.73857" lon="6.63403"><time>2000-01-01T05:13:09.000Z</time></trkpt><trkpt lat="43.73849" lon="6.63398"><ele>1158</ele><time>2000-01-01T05:13:19.000Z</time></trkpt><trkpt lat="43.73839" lon="6.63389"><time>2000-01-01T05:13:29.000Z</time></trkpt><trkpt lat="43.73835" lon="6.63385"><time>2000-01-01T05:13:39.000Z</time></trkpt><trkpt lat="43.73827" lon="6.6338"><ele>1153</ele><time>2000-01-01T05:13:49.000Z</time></trkpt><trkpt lat="43.73823" lon="6.63377"><time>2000-01-01T05:13:59.000Z</time></trkpt><trkpt lat="43.73818" lon="6.6337"><time>2000-01-01T05:14:09.000Z</time></trkpt><trkpt lat="43.73811" lon="6.6336"><ele>1148</ele><time>2000-01-01T05:14:19.000Z</time></trkpt><trkpt lat="43.73808" lon="6.63357"><time>2000-01-01T05:14:29.000Z</time></trkpt><trkpt lat="43.73804" lon="6.63357"><time>2000-01-01T05:14:39.000Z</time></trkpt><trkpt lat="43.73799" lon="6.6336"><time>2000-01-01T05:14:49.000Z</time></trkpt><trkpt lat="43.73793" lon="6.63356"><time>2000-01-01T05:14:59.000Z</time></trkpt><trkpt lat="43.7379" lon="6.63346"><ele>1134</ele><time>2000-01-01T05:15:09.000Z</time></trkpt><trkpt lat="43.73788" lon="6.63337"><time>2000-01-01T05:15:19.000Z</time></trkpt><trkpt lat="43.7379" lon="6.63332"><time>2000-01-01T05:15:29.000Z</time></trkpt><trkpt lat="43.73792" lon="6.63324"><time>2000-01-01T05:15:39.000Z</time></trkpt><trkpt lat="43.73792" lon="6.63319"><ele>1125</ele><time>2000-01-01T05:15:49.000Z</time></trkpt><trkpt lat="43.73789" lon="6.63313"><time>2000-01-01T05:15:59.000Z</time></trkpt><trkpt lat="43.73784" lon="6.63306"><time>2000-01-01T05:16:09.000Z</time></trkpt><trkpt lat="43.73778" lon="6.63302"><time>2000-01-01T05:16:19.000Z</time></trkpt><trkpt lat="43.73775" lon="6.63299"><ele>1116</ele><time>2000-01-01T05:16:29.000Z</time></trkpt><trkpt lat="43.7377" lon="6.63297"><time>2000-01-01T05:16:39.000Z</time></trkpt><trkpt lat="43.73768" lon="6.63295"><time>2000-01-01T05:16:49.000Z</time></trkpt><trkpt lat="43.73766" lon="6.63289"><time>2000-01-01T05:16:59.000Z</time></trkpt><trkpt lat="43.73765" lon="6.63287"><time>2000-01-01T05:17:09.000Z</time></trkpt><trkpt lat="43.73759" lon="6.63281"><ele>1112</ele><time>2000-01-01T05:17:19.000Z</time></trkpt><trkpt lat="43.73755" lon="6.63276"><time>2000-01-01T05:17:29.000Z</time></trkpt><trkpt lat="43.73756" lon="6.63272"><time>2000-01-01T05:17:39.000Z</time></trkpt><trkpt lat="43.73758" lon="6.63268"><time>2000-01-01T05:17:49.000Z</time></trkpt><trkpt lat="43.73763" lon="6.63264"><time>2000-01-01T05:17:59.000Z</time></trkpt><trkpt lat="43.73765" lon="6.63261"><ele>1106</ele><time>2000-01-01T05:18:09.000Z</time></trkpt><trkpt lat="43.73765" lon="6.63256"><time>2000-01-01T05:18:19.000Z</time></trkpt><trkpt lat="43.73763" lon="6.63253"><time>2000-01-01T05:18:29.000Z</time></trkpt><trkpt lat="43.7376" lon="6.6325"><time>2000-01-01T05:18:39.000Z</time></trkpt><trkpt lat="43.73753" lon="6.63248"><time>2000-01-01T05:18:49.000Z</time></trkpt><trkpt lat="43.73748" lon="6.63245"><ele>1106</ele><time>2000-01-01T05:18:59.000Z</time></trkpt><trkpt lat="43.73745" lon="6.63243"><time>2000-01-01T05:19:09.000Z</time></trkpt><trkpt lat="43.73742" lon="6.63238"><time>2000-01-01T05:19:19.000Z</time></trkpt><trkpt lat="43.73741" lon="6.63235"><time>2000-01-01T05:19:29.000Z</time></trkpt><trkpt lat="43.73736" lon="6.63234"><time>2000-01-01T05:19:39.000Z</time></trkpt><trkpt lat="43.73729" lon="6.63234"><ele>1092</ele><time>2000-01-01T05:19:49.000Z</time></trkpt><trkpt lat="43.73724" lon="6.63232"><time>2000-01-01T05:19:59.000Z</time></trkpt><trkpt lat="43.73719" lon="6.63229"><time>2000-01-01T05:20:09.000Z</time></trkpt><trkpt lat="43.73716" lon="6.63228"><time>2000-01-01T05:20:19.000Z</time></trkpt><trkpt lat="43.73707" lon="6.63227"><ele>1086</ele><time>2000-01-01T05:20:29.000Z</time></trkpt><trkpt lat="43.73703" lon="6.63227"><time>2000-01-01T05:20:39.000Z</time></trkpt><trkpt lat="43.73694" lon="6.63231"><time>2000-01-01T05:20:49.000Z</time></trkpt><trkpt lat="43.73693" lon="6.63233"><time>2000-01-01T05:20:59.000Z</time></trkpt><trkpt lat="43.7369" lon="6.63239"><ele>1086</ele><time>2000-01-01T05:21:09.000Z</time></trkpt><trkpt lat="43.73687" lon="6.63243"><time>2000-01-01T05:21:19.000Z</time></trkpt><trkpt lat="43.73683" lon="6.63241"><time>2000-01-01T05:21:29.000Z</time></trkpt><trkpt lat="43.73676" lon="6.63238"><time>2000-01-01T05:21:39.000Z</time></trkpt><trkpt lat="43.73671" lon="6.63237"><ele>1081</ele><time>2000-01-01T05:21:49.000Z</time></trkpt><trkpt lat="43.73656" lon="6.63235"><time>2000-01-01T05:21:59.000Z</time></trkpt><trkpt lat="43.73639" lon="6.63235"><ele>1074</ele><time>2000-01-01T05:22:09.000Z</time></trkpt><trkpt lat="43.73624" lon="6.63237"><time>2000-01-01T05:22:19.000Z</time></trkpt><trkpt lat="43.73611" lon="6.63238"><ele>1068</ele><time>2000-01-01T05:22:29.000Z</time></trkpt><trkpt lat="43.736" lon="6.63241"><time>2000-01-01T05:22:39.000Z</time></trkpt><trkpt lat="43.7359" lon="6.63242"><ele>1065</ele><time>2000-01-01T05:22:49.000Z</time></trkpt><trkpt lat="43.73579" lon="6.63243"><time>2000-01-01T05:22:59.000Z</time></trkpt><trkpt lat="43.73574" lon="6.63242"><time>2000-01-01T05:23:09.000Z</time></trkpt><trkpt lat="43.73567" lon="6.63238"><ele>1057</ele><time>2000-01-01T05:23:19.000Z</time></trkpt><trkpt lat="43.73559" lon="6.63231"><time>2000-01-01T05:23:29.000Z</time></trkpt><trkpt lat="43.73554" lon="6.63223"><time>2000-01-01T05:23:39.000Z</time></trkpt><trkpt lat="43.73552" lon="6.6322"><ele>1057</ele><time>2000-01-01T05:23:49.000Z</time></trkpt><trkpt lat="43.7355" lon="6.6321"><time>2000-01-01T05:23:59.000Z</time></trkpt><trkpt lat="43.73546" lon="6.632"><time>2000-01-01T05:24:09.000Z</time></trkpt><trkpt lat="43.73544" lon="6.63195"><ele>1050</ele><time>2000-01-01T05:24:19.000Z</time></trkpt><trkpt lat="43.73541" lon="6.6319"><time>2000-01-01T05:24:29.000Z</time></trkpt><trkpt lat="43.73538" lon="6.63187"><time>2000-01-01T05:24:39.000Z</time></trkpt><trkpt lat="43.73537" lon="6.63185"><time>2000-01-01T05:24:49.000Z</time></trkpt><trkpt lat="43.73534" lon="6.63185"><time>2000-01-01T05:24:59.000Z</time></trkpt><trkpt lat="43.73529" lon="6.63161"><ele>1046</ele><time>2000-01-01T05:25:09.000Z</time></trkpt><trkpt lat="43.73525" lon="6.63144"><time>2000-01-01T05:25:19.000Z</time></trkpt><trkpt lat="43.73521" lon="6.63133"><ele>1041</ele><time>2000-01-01T05:25:29.000Z</time></trkpt><trkpt lat="43.73518" lon="6.63125"><time>2000-01-01T05:25:39.000Z</time></trkpt><trkpt lat="43.73515" lon="6.6311"><time>2000-01-01T05:25:49.000Z</time></trkpt><trkpt lat="43.73515" lon="6.63105"><ele>1035</ele><time>2000-01-01T05:25:59.000Z</time></trkpt><trkpt lat="43.73507" lon="6.63092"><time>2000-01-01T05:26:09.000Z</time></trkpt><trkpt lat="43.735" lon="6.63078"><ele>1031</ele><time>2000-01-01T05:26:19.000Z</time></trkpt><trkpt lat="43.73496" lon="6.63071"><time>2000-01-01T05:26:29.000Z</time></trkpt><trkpt lat="43.73489" lon="6.63063"><time>2000-01-01T05:26:39.000Z</time></trkpt><trkpt lat="43.73485" lon="6.63056"><ele>1023</ele><time>2000-01-01T05:26:49.000Z</time></trkpt><trkpt lat="43.73481" lon="6.63044"><time>2000-01-01T05:26:59.000Z</time></trkpt><trkpt lat="43.7348" lon="6.6304"><time>2000-01-01T05:27:09.000Z</time></trkpt><trkpt lat="43.73472" lon="6.63029"><ele>1021</ele><time>2000-01-01T05:27:19.000Z</time></trkpt><trkpt lat="43.73468" lon="6.63024"><time>2000-01-01T05:27:29.000Z</time></trkpt><trkpt lat="43.73467" lon="6.63022"><time>2000-01-01T05:27:39.000Z</time></trkpt><trkpt lat="43.73461" lon="6.63018"><time>2000-01-01T05:27:49.000Z</time></trkpt><trkpt lat="43.73456" lon="6.63015"><time>2000-01-01T05:27:59.000Z</time></trkpt><trkpt lat="43.73453" lon="6.63013"><ele>1019</ele><time>2000-01-01T05:28:09.000Z</time></trkpt><trkpt lat="43.73445" lon="6.63012"><time>2000-01-01T05:28:19.000Z</time></trkpt><trkpt lat="43.73435" lon="6.6301"><time>2000-01-01T05:28:29.000Z</time></trkpt><trkpt lat="43.73428" lon="6.63008"><ele>1014</ele><time>2000-01-01T05:28:39.000Z</time></trkpt><trkpt lat="43.73425" lon="6.63006"><time>2000-01-01T05:28:49.000Z</time></trkpt><trkpt lat="43.73424" lon="6.63"><time>2000-01-01T05:28:59.000Z</time></trkpt><trkpt lat="43.73423" lon="6.62988"><time>2000-01-01T05:29:09.000Z</time></trkpt><trkpt lat="43.73423" lon="6.62974"><ele>1013</ele><time>2000-01-01T05:29:19.000Z</time></trkpt><trkpt lat="43.73423" lon="6.62961"><time>2000-01-01T05:29:29.000Z</time></trkpt><trkpt lat="43.73423" lon="6.62955"><time>2000-01-01T05:29:39.000Z</time></trkpt><trkpt lat="43.7342" lon="6.62941"><ele>1012</ele><time>2000-01-01T05:29:49.000Z</time></trkpt><trkpt lat="43.73414" lon="6.62935"><time>2000-01-01T05:29:59.000Z</time></trkpt><trkpt lat="43.73409" lon="6.62932"><time>2000-01-01T05:30:09.000Z</time></trkpt><trkpt lat="43.73403" lon="6.62921"><ele>1012</ele><time>2000-01-01T05:30:19.000Z</time></trkpt><trkpt lat="43.73399" lon="6.62909"><time>2000-01-01T05:30:29.000Z</time></trkpt><trkpt lat="43.734" lon="6.62894"><ele>1011</ele><time>2000-01-01T05:30:39.000Z</time></trkpt><trkpt lat="43.73397" lon="6.62874"><time>2000-01-01T05:30:49.000Z</time></trkpt><trkpt lat="43.73397" lon="6.62853"><ele>1011</ele><time>2000-01-01T05:30:59.000Z</time></trkpt><trkpt lat="43.73396" lon="6.62836"><time>2000-01-01T05:31:09.000Z</time></trkpt><trkpt lat="43.73395" lon="6.6283"><time>2000-01-01T05:31:19.000Z</time></trkpt><trkpt lat="43.73384" lon="6.62785"><ele>1011</ele><time>2000-01-01T05:31:29.000Z</time></trkpt><trkpt lat="43.73373" lon="6.62743"><ele>1011</ele><time>2000-01-01T05:31:39.000Z</time></trkpt><trkpt lat="43.73368" lon="6.62723"><time>2000-01-01T05:31:49.000Z</time></trkpt><trkpt lat="43.73367" lon="6.62718"><ele>1008</ele><time>2000-01-01T05:31:59.000Z</time></trkpt><trkpt lat="43.73366" lon="6.62706"><time>2000-01-01T05:32:09.000Z</time></trkpt><trkpt lat="43.73372" lon="6.62681"><ele>1007</ele><time>2000-01-01T05:32:19.000Z</time></trkpt><trkpt lat="43.73374" lon="6.6267"><time>2000-01-01T05:32:29.000Z</time></trkpt><trkpt lat="43.73373" lon="6.62663"><time>2000-01-01T05:32:39.000Z</time></trkpt><trkpt lat="43.73369" lon="6.62651"><ele>1006</ele><time>2000-01-01T05:32:49.000Z</time></trkpt><trkpt lat="43.73392" lon="6.62615"><ele>1005</ele><time>2000-01-01T05:32:59.000Z</time></trkpt><trkpt lat="43.73397" lon="6.62594"><time>2000-01-01T05:33:09.000Z</time></trkpt><trkpt lat="43.73378" lon="6.62525"><ele>1001</ele><time>2000-01-01T05:33:19.000Z</time></trkpt><trkpt lat="43.73381" lon="6.62517"><time>2000-01-01T05:33:29.000Z</time></trkpt><trkpt lat="43.7342" lon="6.62492"><ele>998</ele><time>2000-01-01T05:33:39.000Z</time></trkpt><trkpt lat="43.73426" lon="6.62467"><time>2000-01-01T05:33:49.000Z</time></trkpt><trkpt lat="43.73429" lon="6.62438"><ele>992</ele><time>2000-01-01T05:33:59.000Z</time></trkpt><trkpt lat="43.7341" lon="6.62428"><ele>991</ele><time>2000-01-01T05:34:09.000Z</time></trkpt><trkpt lat="43.73391" lon="6.62412"><ele>991</ele><time>2000-01-01T05:34:19.000Z</time></trkpt><trkpt lat="43.73378" lon="6.62414"><time>2000-01-01T05:34:29.000Z</time></trkpt><trkpt lat="43.73371" lon="6.62425"><ele>988</ele><time>2000-01-01T05:34:39.000Z</time></trkpt><trkpt lat="43.73355" lon="6.62465"><ele>986</ele><time>2000-01-01T05:34:49.000Z</time></trkpt><trkpt lat="43.73342" lon="6.62498"><ele>983</ele><time>2000-01-01T05:34:59.000Z</time></trkpt><trkpt lat="43.73331" lon="6.62501"><time>2000-01-01T05:35:09.000Z</time></trkpt><trkpt lat="43.73306" lon="6.62449"><ele>975</ele><time>2000-01-01T05:35:19.000Z</time></trkpt><trkpt lat="43.73301" lon="6.62429"><time>2000-01-01T05:35:29.000Z</time></trkpt><trkpt lat="43.73297" lon="6.62417"><ele>967</ele><time>2000-01-01T05:35:39.000Z</time></trkpt><trkpt lat="43.73296" lon="6.62415"><time>2000-01-01T05:35:49.000Z</time></trkpt><trkpt lat="43.73295" lon="6.62405"><time>2000-01-01T05:35:59.000Z</time></trkpt><trkpt lat="43.7329" lon="6.62397"><time>2000-01-01T05:36:09.000Z</time></trkpt><trkpt lat="43.73289" lon="6.62395"><time>2000-01-01T05:36:19.000Z</time></trkpt><trkpt lat="43.73289" lon="6.62393"><ele>963</ele><time>2000-01-01T05:36:29.000Z</time></trkpt><trkpt lat="43.73287" lon="6.62391"><time>2000-01-01T05:36:39.000Z</time></trkpt><trkpt lat="43.73282" lon="6.62385"><time>2000-01-01T05:36:49.000Z</time></trkpt><trkpt lat="43.73282" lon="6.6238"><time>2000-01-01T05:36:59.000Z</time></trkpt><trkpt lat="43.73278" lon="6.62371"><ele>958</ele><time>2000-01-01T05:37:09.000Z</time></trkpt><trkpt lat="43.73277" lon="6.62369"><time>2000-01-01T05:37:19.000Z</time></trkpt><trkpt lat="43.73274" lon="6.62366"><time>2000-01-01T05:37:29.000Z</time></trkpt><trkpt lat="43.73269" lon="6.62354"><time>2000-01-01T05:37:39.000Z</time></trkpt><trkpt lat="43.73267" lon="6.62347"><ele>948</ele><time>2000-01-01T05:37:49.000Z</time></trkpt><trkpt lat="43.73266" lon="6.62342"><time>2000-01-01T05:37:59.000Z</time></trkpt><trkpt lat="43.73264" lon="6.62335"><time>2000-01-01T05:38:09.000Z</time></trkpt><trkpt lat="43.73257" lon="6.62322"><ele>948</ele><time>2000-01-01T05:38:19.000Z</time></trkpt><trkpt lat="43.73246" lon="6.62307"><time>2000-01-01T05:38:29.000Z</time></trkpt><trkpt lat="43.73239" lon="6.62298"><ele>951</ele><time>2000-01-01T05:38:39.000Z</time></trkpt><trkpt lat="43.73233" lon="6.6229"><time>2000-01-01T05:38:49.000Z</time></trkpt><trkpt lat="43.7323" lon="6.62286"><time>2000-01-01T05:38:59.000Z</time></trkpt><trkpt lat="43.73227" lon="6.62279"><time>2000-01-01T05:39:09.000Z</time></trkpt><trkpt lat="43.73223" lon="6.62273"><ele>951</ele><time>2000-01-01T05:39:19.000Z</time></trkpt><trkpt lat="43.73222" lon="6.6227"><time>2000-01-01T05:39:29.000Z</time></trkpt><trkpt lat="43.73222" lon="6.62267"><time>2000-01-01T05:39:39.000Z</time></trkpt><trkpt lat="43.7322" lon="6.62264"><time>2000-01-01T05:39:49.000Z</time></trkpt><trkpt lat="43.73219" lon="6.62255"><time>2000-01-01T05:39:59.000Z</time></trkpt><trkpt lat="43.73213" lon="6.62237"><ele>952</ele><time>2000-01-01T05:40:09.000Z</time></trkpt><trkpt lat="43.73196" lon="6.62233"><time>2000-01-01T05:40:19.000Z</time></trkpt><trkpt lat="43.73179" lon="6.62219"><ele>952</ele><time>2000-01-01T05:40:29.000Z</time></trkpt><trkpt lat="43.73159" lon="6.62192"><ele>952</ele><time>2000-01-01T05:40:39.000Z</time></trkpt><trkpt lat="43.73156" lon="6.62174"><time>2000-01-01T05:40:49.000Z</time></trkpt><trkpt lat="43.73151" lon="6.62157"><ele>954</ele><time>2000-01-01T05:40:59.000Z</time></trkpt><trkpt lat="43.73125" lon="6.62133"><ele>957</ele><time>2000-01-01T05:41:09.000Z</time></trkpt><trkpt lat="43.7311" lon="6.62117"><time>2000-01-01T05:41:19.000Z</time></trkpt><trkpt lat="43.73122" lon="6.62086"><ele>967</ele><time>2000-01-01T05:41:29.000Z</time></trkpt><trkpt lat="43.73122" lon="6.6207"><time>2000-01-01T05:41:39.000Z</time></trkpt><trkpt lat="43.73116" lon="6.62054"><ele>968</ele><time>2000-01-01T05:41:49.000Z</time></trkpt><trkpt lat="43.73122" lon="6.62045"><time>2000-01-01T05:41:59.000Z</time></trkpt><trkpt lat="43.73118" lon="6.62028"><ele>966</ele><time>2000-01-01T05:42:09.000Z</time></trkpt><trkpt lat="43.73112" lon="6.62022"><time>2000-01-01T05:42:19.000Z</time></trkpt><trkpt lat="43.73106" lon="6.62012"><time>2000-01-01T05:42:29.000Z</time></trkpt><trkpt lat="43.73114" lon="6.62002"><ele>966</ele><time>2000-01-01T05:42:39.000Z</time></trkpt><trkpt lat="43.73141" lon="6.61971"><ele>966</ele><time>2000-01-01T05:42:49.000Z</time></trkpt><trkpt lat="43.73154" lon="6.61992"><ele>969</ele><time>2000-01-01T05:42:59.000Z</time></trkpt><trkpt lat="43.7317" lon="6.6202"><ele>969</ele><time>2000-01-01T05:43:09.000Z</time></trkpt><trkpt lat="43.73193" lon="6.62054"><ele>969</ele><time>2000-01-01T05:43:19.000Z</time></trkpt><trkpt lat="43.73179" lon="6.62071"><time>2000-01-01T05:43:29.000Z</time></trkpt><trkpt lat="43.73159" lon="6.62096"><ele>972</ele><time>2000-01-01T05:43:39.000Z</time></trkpt><trkpt lat="43.73146" lon="6.62075"><ele>972</ele><time>2000-01-01T05:43:49.000Z</time></trkpt><trkpt lat="43.73174" lon="6.62036"><ele>970</ele><time>2000-01-01T05:43:59.000Z</time></trkpt><trkpt lat="43.73153" lon="6.62005"><ele>972</ele><time>2000-01-01T05:44:09.000Z</time></trkpt><trkpt lat="43.73144" lon="6.62015"><time>2000-01-01T05:44:19.000Z</time></trkpt><trkpt lat="43.73164" lon="6.62045"><ele>972</ele><time>2000-01-01T05:44:29.000Z</time></trkpt><trkpt lat="43.73151" lon="6.62061"><time>2000-01-01T05:44:39.000Z</time></trkpt><trkpt lat="43.7313" lon="6.62026"><ele>972</ele><time>2000-01-01T05:44:49.000Z</time></trkpt><trkpt lat="43.73125" lon="6.62028"><ele>970</ele><time>2000-01-01T05:44:59.000Z</time></trkpt></trkseg></trk></gpx>